Provisional Data: Hunts Run near Cameron, PA


Please select a monitoring station.
Please select start date.
Please select start date.

Toggle Unit: C/F Toggle Unit: C/F
Sample Time Temperature (C) Temperature (F) Specific Conductivity (mS/cm) pH   Turbidity (NTU+) DO (mg/L)
3/23/2021 12:00:00 AM 6.1 42.98 0.027 6.73 2.26 11.94
3/23/2021 12:15:00 AM 6.03 42.854 0.027 6.78 2.24 11.96
3/23/2021 12:30:00 AM 5.95 42.71 0.027 6.78 2.25 11.99
3/23/2021 12:45:00 AM 5.89 42.602 0.027 6.66 2.25 12.01
3/23/2021 1:00:00 AM 5.82 42.476 0.027 6.7 2.35 12.03
3/23/2021 1:15:00 AM 5.75 42.35 0.027 6.78 2.27 12.06
3/23/2021 1:30:00 AM 5.68 42.224 0.027 6.77 2.27 12.08
3/23/2021 1:45:00 AM 5.61 42.098 0.027 6.64 2.28 12.11
3/23/2021 2:00:00 AM 5.54 41.972 0.027 6.77 2.21 12.13
3/23/2021 2:15:00 AM 5.46 41.828 0.027 6.65 2.13 12.16
3/23/2021 2:30:00 AM 5.39 41.702 0.027 6.79 2.18 12.18
3/23/2021 2:45:00 AM 5.32 41.576 0.027 6.7 2.18 12.21
3/23/2021 3:00:00 AM 5.25 41.45 0.027 6.78 2.28 12.24
3/23/2021 3:15:00 AM 5.18 41.324 0.027 6.77 2.15 12.26
3/23/2021 3:30:00 AM 5.11 41.198 0.027 6.77 2.25 12.29
3/23/2021 3:45:00 AM 5.05 41.09 0.027 6.76 2.28 12.31
3/23/2021 4:00:00 AM 4.98 40.964 0.027 6.67 2.2 12.34
3/23/2021 4:15:00 AM 4.92 40.856 0.027 6.76 2.24 12.36
3/23/2021 4:30:00 AM 4.86 40.748 0.027 6.74 2.21 12.39
3/23/2021 4:45:00 AM 4.8 40.64 0.027 6.77 2.16 12.41
3/23/2021 5:00:00 AM 4.74 40.532 0.027 6.78 2.17 12.43
3/23/2021 5:15:00 AM 4.68 40.424 0.027 6.77 2.24 12.45
3/23/2021 5:30:00 AM 4.62 40.316 0.027 6.76 2.18 12.48
3/23/2021 5:45:00 AM 4.57 40.226 0.027 6.63 2.17 12.5
3/23/2021 6:00:00 AM 4.51 40.118 0.027 6.77 2.1 12.52
3/23/2021 6:15:00 AM 4.46 40.028 0.027 6.76 2.08 12.54
3/23/2021 6:30:00 AM 4.41 39.938 0.027 6.77 2.1 12.56
3/23/2021 6:45:00 AM 4.36 39.848 0.027 6.75 2.2 12.58
3/23/2021 7:00:00 AM 4.31 39.758 0.027 6.76 2.1 12.6
3/23/2021 7:15:00 AM 4.27 39.686 0.027 6.73 2.12 12.62
3/23/2021 7:30:00 AM 4.23 39.614 0.027 6.75 2.22 12.64
3/23/2021 7:45:00 AM 4.19 39.542 0.027 6.74 2.09 12.68
3/23/2021 8:00:00 AM 4.17 39.506 0.027 6.78 2.15 12.71
3/23/2021 8:15:00 AM 4.14 39.452 0.027 6.68 2.27 12.73
3/23/2021 8:30:00 AM 4.12 39.416 0.027 6.74 2.23 12.75
3/23/2021 8:45:00 AM 4.11 39.398 0.027 6.67 2.21 12.77
3/23/2021 9:00:00 AM 4.11 39.398 0.027 6.8 2.18 12.78
3/23/2021 9:15:00 AM 4.14 39.452 0.027 6.76 2.21 12.79
3/23/2021 9:30:00 AM 4.18 39.524 0.027 6.8 2.18 12.8
3/23/2021 9:45:00 AM 4.22 39.596 0.027 6.8 2.18 12.79
3/23/2021 10:00:00 AM 4.26 39.668 0.027 6.8 2.22 12.79
3/23/2021 10:15:00 AM 4.34 39.812 0.027 6.79 2.2 12.77
3/23/2021 10:30:00 AM 4.43 39.974 0.027 6.77 2.17 12.75
3/23/2021 10:45:00 AM 4.55 40.19 0.027 6.71 2.18 12.72
3/23/2021 11:00:00 AM 4.65 40.37 0.027 6.83 2.15 12.69
3/23/2021 11:15:00 AM 4.78 40.604 0.027 6.7 2.12 12.65
3/23/2021 11:30:00 AM 4.96 40.928 0.027 6.79 2.15 12.61
3/23/2021 11:45:00 AM 5.13 41.234 0.027 6.84 2.23 12.56
3/23/2021 12:00:00 PM 5.27 41.486 0.027 6.72 2.2 12.51
3/23/2021 12:15:00 PM 5.46 41.828 0.027 6.84 2.16 12.45
3/23/2021 12:30:00 PM 5.7 42.26 0.027 6.84 2.16 12.38
3/23/2021 12:45:00 PM 5.93 42.674 0.027 6.79 2.14 12.31
3/23/2021 1:00:00 PM 6.12 43.016 0.027 6.87 2.19 12.24
3/23/2021 1:15:00 PM 6.34 43.412 0.027 6.85 2.17 12.17
3/23/2021 1:30:00 PM 6.48 43.664 0.027 6.86 2.13 12.1
3/23/2021 1:45:00 PM 6.6 43.88 0.027 6.8 2.15 12.05
3/23/2021 2:00:00 PM 6.73 44.114 0.027 6.78 2.09 12
3/23/2021 2:15:00 PM 6.86 44.348 0.027 6.8 2.19 11.95
3/23/2021 2:30:00 PM 7.01 44.618 0.027 6.88 2.16 11.91
3/23/2021 2:45:00 PM 7.1 44.78 0.027 6.81 2.18 11.87
3/23/2021 3:00:00 PM 7.16 44.888 0.027 6.87 2.13 11.84
3/23/2021 3:15:00 PM 7.32 45.176 0.027 6.77 2.17 11.8
3/23/2021 3:30:00 PM 7.36 45.248 0.027 6.83 2.16 11.76
3/23/2021 3:45:00 PM 7.4 45.32 0.027 6.81 2.11 11.74
3/23/2021 4:00:00 PM 7.5 45.5 0.027 6.88 2.15 11.7
3/23/2021 4:15:00 PM 7.52 45.536 0.027 6.87 2.18 11.68
3/23/2021 4:30:00 PM 7.58 45.644 0.027 6.89 2.18 11.66
3/23/2021 4:45:00 PM 7.63 45.734 0.027 6.86 2.17 11.64
3/23/2021 5:00:00 PM 7.63 45.734 0.027 6.87 2.24 11.62
3/23/2021 5:15:00 PM 7.69 45.842 0.027 6.8 2.17 11.61
3/23/2021 5:30:00 PM 7.75 45.95 0.027 6.88 2.2 11.59
3/23/2021 5:45:00 PM 7.76 45.968 0.027 6.75 2.21 11.57
3/23/2021 6:00:00 PM 7.73 45.914 0.027 6.81 2.21 11.55
3/23/2021 6:15:00 PM 7.74 45.932 0.027 6.81 2.26 11.54
3/23/2021 6:30:00 PM 7.74 45.932 0.027 6.82 2.06 11.53
3/23/2021 6:45:00 PM 7.71 45.878 0.027 6.79 2.08 11.52
3/23/2021 7:00:00 PM 7.69 45.842 0.027 6.79 2.11 11.49
3/23/2021 7:15:00 PM 7.66 45.788 0.027 6.79 2.14 11.47
3/23/2021 7:30:00 PM 7.64 45.752 0.027 6.78 2.07 11.46
3/23/2021 7:45:00 PM 7.61 45.698 0.027 6.76 2.09 11.46
3/23/2021 8:00:00 PM 7.59 45.662 0.027 6.81 3.85 11.46
3/23/2021 8:15:00 PM 7.57 45.626 0.027 6.72 2.36 11.46
3/23/2021 8:30:00 PM 7.55 45.59 0.027 6.79 2.24 11.47
3/23/2021 8:45:00 PM 7.52 45.536 0.027 6.81 2.28 11.47
3/23/2021 9:00:00 PM 7.49 45.482 0.027 6.78 2.25 11.48
3/23/2021 9:15:00 PM 7.45 45.41 0.027 6.8 2.28 11.49
3/23/2021 9:30:00 PM 7.41 45.338 0.027 6.79 2.3 11.5
3/23/2021 9:45:00 PM 7.37 45.266 0.027 6.68 2.28 11.51
3/23/2021 10:00:00 PM 7.32 45.176 0.027 6.75 2.3 11.53
3/23/2021 10:15:00 PM 7.28 45.104 0.027 6.81 2.31 11.54
3/23/2021 10:30:00 PM 7.23 45.014 0.027 6.77 2.28 11.56
3/23/2021 10:45:00 PM 7.18 44.924 0.027 6.8 2.21 11.57
3/23/2021 11:00:00 PM 7.13 44.834 0.027 6.68 2.26 11.58
3/23/2021 11:15:00 PM 7.09 44.762 0.027 6.81 2.23 11.59
3/23/2021 11:30:00 PM 7.04 44.672 0.027 6.77 2.13 11.61
3/23/2021 11:45:00 PM 7 44.6 0.027 6.72 2.24 11.62
3/24/2021 12:00:00 AM 6.96 44.528 0.027 6.77 2.32 11.63
3/24/2021 12:15:00 AM 6.92 44.456 0.027 6.81 2.28 11.65
3/24/2021 12:30:00 AM 6.89 44.402 0.027 6.79 2.22 11.66
3/24/2021 12:45:00 AM 6.86 44.348 0.027 6.69 2.22 11.67
3/24/2021 1:00:00 AM 6.83 44.294 0.027 6.82 2.27 11.68
3/24/2021 1:15:00 AM 6.81 44.258 0.027 6.8 2.34 11.69
3/24/2021 1:30:00 AM 6.78 44.204 0.027 6.71 2.29 11.69
3/24/2021 1:45:00 AM 6.76 44.168 0.027 6.71 2.29 11.7
3/24/2021 2:00:00 AM 6.74 44.132 0.027 6.74 2.25 11.7
3/24/2021 2:15:00 AM 6.72 44.096 0.027 6.73 2.25 11.71
3/24/2021 2:30:00 AM 6.7 44.06 0.027 6.81 2.25 11.71
3/24/2021 2:45:00 AM 6.67 44.006 0.027 6.67 2.18 11.72
3/24/2021 3:00:00 AM 6.66 43.988 0.027 6.75 2.29 11.72
3/24/2021 3:15:00 AM 6.65 43.97 0.027 6.76 2.18 11.73
3/24/2021 3:30:00 AM 6.65 43.97 0.027 6.72 2.18 11.73
3/24/2021 3:45:00 AM 6.64 43.952 0.027 6.81 2.21 11.73
3/24/2021 4:00:00 AM 6.63 43.934 0.027 6.81 2.24 11.73
3/24/2021 4:15:00 AM 6.62 43.916 0.027 6.8 2.17 11.73
3/24/2021 4:30:00 AM 6.61 43.898 0.027 6.8 2.24 11.73
3/24/2021 4:45:00 AM 6.61 43.898 0.027 6.74 2.25 11.73
3/24/2021 5:00:00 AM 6.61 43.898 0.027 6.8 2.27 11.73
3/24/2021 5:15:00 AM 6.6 43.88 0.028 6.79 2.29 11.73
3/24/2021 5:30:00 AM 6.6 43.88 0.027 6.79 2.18 11.74
3/24/2021 5:45:00 AM 6.6 43.88 0.027 6.78 2.25 11.73
3/24/2021 6:00:00 AM 6.6 43.88 0.027 6.69 2.31 11.73
3/24/2021 6:15:00 AM 6.6 43.88 0.027 6.73 2.16 11.73
3/24/2021 6:30:00 AM 6.6 43.88 0.027 6.74 2.27 11.74
3/24/2021 6:45:00 AM 6.61 43.898 0.027 6.79 2.28 11.73
3/24/2021 7:00:00 AM 6.61 43.898 0.027 6.77 2.31 11.73
3/24/2021 7:15:00 AM 6.61 43.898 0.027 6.79 2.53 11.73
3/24/2021 7:30:00 AM 6.62 43.916 0.027 6.75 2.58 11.73
3/24/2021 7:45:00 AM 6.63 43.934 0.027 6.78 2.82 11.73
3/24/2021 8:00:00 AM 6.64 43.952 0.027 6.66 3.23 11.74
3/24/2021 8:15:00 AM 6.65 43.97 0.027 6.79 3.9 11.74
3/24/2021 8:30:00 AM 6.66 43.988 0.027 6.72 3.92 11.75
3/24/2021 8:45:00 AM 6.67 44.006 0.027 6.78 5 11.76
3/24/2021 9:00:00 AM 6.68 44.024 0.027 6.77 5.74 11.78
3/24/2021 9:15:00 AM 6.7 44.06 0.027 6.83 5.11 11.79
3/24/2021 9:30:00 AM 6.73 44.114 0.027 6.82 5.88 11.8
3/24/2021 9:45:00 AM 6.77 44.186 0.027 6.82 5.54 11.81
3/24/2021 10:00:00 AM 6.8 44.24 0.027 6.74 5.08 11.82
3/24/2021 10:15:00 AM 6.83 44.294 0.027 6.86 4.77 11.81
3/24/2021 10:30:00 AM 6.87 44.366 0.027 6.84 4.77 11.81
3/24/2021 10:45:00 AM 6.91 44.438 0.027 6.74 4.56 11.8
3/24/2021 11:00:00 AM 6.94 44.492 0.027 6.82 4.66 11.8
3/24/2021 11:15:00 AM 6.99 44.582 0.027 6.81 4.7 11.79
3/24/2021 11:30:00 AM 7.06 44.708 0.027 6.88 5.04 11.79
3/24/2021 11:45:00 AM 7.13 44.834 0.027 6.79 4.99 11.77
3/24/2021 12:00:00 PM 7.19 44.942 0.027 6.8 5.43 11.76
3/24/2021 12:15:00 PM 7.29 45.122 0.027 6.9 5.61 11.74
3/24/2021 12:30:00 PM 7.36 45.248 0.027 6.81 5.49 11.72
3/24/2021 12:45:00 PM 7.39 45.302 0.027 6.89 5.81 11.69
3/24/2021 1:00:00 PM 7.48 45.464 0.027 6.86 5.28 11.67
3/24/2021 1:15:00 PM 7.55 45.59 0.027 6.88 5.07 11.65
3/24/2021 1:30:00 PM 7.61 45.698 0.026 6.87 4.67 11.63
3/24/2021 1:45:00 PM 7.66 45.788 0.026 6.87 4.57 11.6
3/24/2021 2:00:00 PM 7.7 45.86 0.026 6.77 4.41 11.57
3/24/2021 2:15:00 PM 7.73 45.914 0.026 6.88 4.44 11.54
3/24/2021 2:30:00 PM 7.79 46.022 0.026 6.76 4.32 11.53
3/24/2021 2:45:00 PM 7.88 46.184 0.026 6.82 4.14 11.51
3/24/2021 3:00:00 PM 7.96 46.328 0.026 6.9 3.89 11.49
3/24/2021 3:15:00 PM 7.98 46.364 0.026 6.74 3.71 11.47
3/24/2021 3:30:00 PM 8.08 46.544 0.026 6.85 3.75 11.45
3/24/2021 3:45:00 PM 8.24 46.832 0.026 6.88 3.5 11.42
3/24/2021 4:00:00 PM 8.39 47.102 0.026 6.85 3.38 11.37
3/24/2021 4:15:00 PM 8.47 47.246 0.026 6.85 3.27 11.34
3/24/2021 4:30:00 PM 8.45 47.21 0.026 6.79 3.22 11.32
3/24/2021 4:45:00 PM 8.42 47.156 0.026 6.81 3.12 11.31
3/24/2021 5:00:00 PM 8.42 47.156 0.026 6.86 3.08 11.29
3/24/2021 5:15:00 PM 8.44 47.192 0.026 6.87 2.93 11.26
3/24/2021 5:30:00 PM 8.46 47.228 0.026 6.82 2.93 11.24
3/24/2021 5:45:00 PM 8.46 47.228 0.026 6.82 2.89 11.23
3/24/2021 6:00:00 PM 8.45 47.21 0.026 6.76 2.78 11.22
3/24/2021 6:15:00 PM 8.43 47.174 0.026 6.86 2.83 11.21
3/24/2021 6:30:00 PM 8.41 47.138 0.026 6.84 2.74 11.2
3/24/2021 6:45:00 PM 8.39 47.102 0.026 6.71 2.91 11.19
3/24/2021 7:00:00 PM 8.37 47.066 0.026 6.76 2.75 11.18
3/24/2021 7:15:00 PM 8.34 47.012 0.026 6.78 2.73 11.17
3/24/2021 7:30:00 PM 8.32 46.976 0.026 6.71 2.75 11.17
3/24/2021 7:45:00 PM 8.3 46.94 0.026 6.82 2.65 11.16
3/24/2021 8:00:00 PM 8.28 46.904 0.027 6.8 2.67 11.16
3/24/2021 8:15:00 PM 8.25 46.85 0.027 6.81 2.68 11.16
3/24/2021 8:30:00 PM 8.21 46.778 0.027 6.78 2.74 11.17
3/24/2021 8:45:00 PM 8.19 46.742 0.027 6.75 2.65 11.18
3/24/2021 9:00:00 PM 8.18 46.724 0.027 6.71 2.65 11.18
3/24/2021 9:15:00 PM 8.16 46.688 0.027 6.73 2.72 11.19
3/24/2021 9:30:00 PM 8.14 46.652 0.027 6.82 2.56 11.2
3/24/2021 9:45:00 PM 8.12 46.616 0.027 6.77 2.73 11.21
3/24/2021 10:00:00 PM 8.1 46.58 0.027 6.78 2.68 11.21
3/24/2021 10:15:00 PM 8.08 46.544 0.027 6.69 2.66 11.22
3/24/2021 10:30:00 PM 8.06 46.508 0.027 6.7 2.6 11.23
3/24/2021 10:45:00 PM 8.05 46.49 0.027 6.8 2.56 11.23
3/24/2021 11:00:00 PM 8.03 46.454 0.027 6.76 2.54 11.24
3/24/2021 11:15:00 PM 8.01 46.418 0.027 6.8 2.57 11.24
3/24/2021 11:30:00 PM 8 46.4 0.027 6.73 2.61 11.25
3/24/2021 11:45:00 PM 7.99 46.382 0.027 6.71 2.51 11.25
3/25/2021 12:00:00 AM 7.97 46.346 0.027 6.72 2.55 11.26
3/25/2021 12:15:00 AM 7.95 46.31 0.027 6.73 2.52 11.26
3/25/2021 12:30:00 AM 7.94 46.292 0.027 6.79 2.53 11.27
3/25/2021 12:45:00 AM 7.92 46.256 0.027 6.68 2.5 11.28
3/25/2021 1:00:00 AM 7.9 46.22 0.027 6.72 2.55 11.28
3/25/2021 1:15:00 AM 7.88 46.184 0.027 6.79 2.52 11.28
3/25/2021 1:30:00 AM 7.87 46.166 0.027 6.78 2.62 11.29
3/25/2021 1:45:00 AM 7.85 46.13 0.027 6.76 2.51 11.29
3/25/2021 2:00:00 AM 7.84 46.112 0.027 6.77 2.5 11.3
3/25/2021 2:15:00 AM 7.82 46.076 0.027 6.67 2.49 11.3
3/25/2021 2:30:00 AM 7.8 46.04 0.027 6.72 2.47 11.31
3/25/2021 2:45:00 AM 7.79 46.022 0.027 6.73 2.49 11.31
3/25/2021 3:00:00 AM 7.77 45.986 0.027 6.77 2.48 11.32
3/25/2021 3:15:00 AM 7.76 45.968 0.027 6.65 2.56 11.32
3/25/2021 3:30:00 AM 7.75 45.95 0.027 6.75 2.6 11.32
3/25/2021 3:45:00 AM 7.74 45.932 0.027 6.75 2.47 11.33
3/25/2021 4:00:00 AM 7.72 45.896 0.027 6.69 2.5 11.33
3/25/2021 4:15:00 AM 7.71 45.878 0.027 6.71 2.48 11.33
3/25/2021 4:30:00 AM 7.69 45.842 0.027 6.79 2.59 11.34
3/25/2021 4:45:00 AM 7.67 45.806 0.027 6.65 2.6 11.34
3/25/2021 5:00:00 AM 7.65 45.77 0.027 6.68 2.5 11.35
3/25/2021 5:15:00 AM 7.61 45.698 0.027 6.74 2.52 11.36
3/25/2021 5:30:00 AM 7.57 45.626 0.027 6.7 2.51 11.37
3/25/2021 5:45:00 AM 7.53 45.554 0.027 6.77 2.36 11.38
3/25/2021 6:00:00 AM 7.49 45.482 0.027 6.77 2.51 11.39
3/25/2021 6:15:00 AM 7.45 45.41 0.027 6.74 2.62 11.41
3/25/2021 6:30:00 AM 7.42 45.356 0.027 6.67 2.77 11.42
3/25/2021 6:45:00 AM 7.38 45.284 0.027 6.79 2.65 11.43
3/25/2021 7:00:00 AM 7.34 45.212 0.027 6.63 2.53 11.44
3/25/2021 7:15:00 AM 7.31 45.158 0.027 6.73 2.49 11.46
3/25/2021 7:30:00 AM 7.28 45.104 0.027 6.74 2.45 11.48
3/25/2021 7:45:00 AM 7.25 45.05 0.027 6.79 2.44 11.51
3/25/2021 8:00:00 AM 7.23 45.014 0.027 6.78 2.66 11.55
3/25/2021 8:15:00 AM 7.2 44.96 0.027 6.7 2.66 11.58
3/25/2021 8:30:00 AM 7.2 44.96 0.027 6.79 2.68 11.61
3/25/2021 8:45:00 AM 7.18 44.924 0.027 6.78 2.55 11.62
3/25/2021 9:00:00 AM 7.19 44.942 0.027 6.83 2.7 11.64
3/25/2021 9:15:00 AM 7.22 44.996 0.027 6.84 2.42 11.65
3/25/2021 9:30:00 AM 7.26 45.068 0.027 6.85 2.67 11.66
3/25/2021 9:45:00 AM 7.32 45.176 0.027 6.83 2.42 11.66
3/25/2021 10:00:00 AM 7.38 45.284 0.027 6.77 2.38 11.66
3/25/2021 10:15:00 AM 7.46 45.428 0.027 6.85 2.47 11.65
3/25/2021 10:30:00 AM 7.54 45.572 0.027 6.83 2.54 11.63
3/25/2021 10:45:00 AM 7.63 45.734 0.027 6.88 2.48 11.62
3/25/2021 11:00:00 AM 7.75 45.95 0.027 6.86 2.66 11.58
3/25/2021 11:15:00 AM 7.9 46.22 0.027 6.79 2.47 11.55
3/25/2021 11:30:00 AM 8.03 46.454 0.027 6.83 2.61 11.52
3/25/2021 11:45:00 AM 8.17 46.706 0.027 6.85 2.52 11.48
3/25/2021 12:00:00 PM 8.35 47.03 0.027 6.89 2.49 11.43
3/25/2021 12:15:00 PM 8.55 47.39 0.027 6.9 2.54 11.38
3/25/2021 12:30:00 PM 8.74 47.732 0.027 6.78 2.57 11.33
3/25/2021 12:45:00 PM 8.93 48.074 0.027 6.84 2.57 11.27
3/25/2021 1:00:00 PM 9.13 48.434 0.027 6.87 2.72 11.2
3/25/2021 1:15:00 PM 9.28 48.704 0.027 6.91 2.73 11.15
3/25/2021 1:30:00 PM 9.44 48.992 0.027 6.83 2.35 11.1
3/25/2021 1:45:00 PM 9.61 49.298 0.027 6.92 2.53 11.05
3/25/2021 2:00:00 PM 9.76 49.568 0.027 6.84 2.45 11.01
3/25/2021 2:15:00 PM 9.9 49.82 0.027 6.9 2.61 10.98
3/25/2021 2:30:00 PM 10.03 50.054 0.027 6.82 2.5 10.94
3/25/2021 2:45:00 PM 10.14 50.252 0.027 6.92 2.41 10.91
3/25/2021 3:00:00 PM 10.21 50.378 0.027 6.88 2.22 10.86
3/25/2021 3:15:00 PM 10.23 50.414 0.027 6.94 2.28 10.83
3/25/2021 3:30:00 PM 10.24 50.432 0.027 6.91 2.93 10.81
3/25/2021 3:45:00 PM 10.27 50.486 0.027 6.83 2.51 10.79
3/25/2021 4:00:00 PM 10.29 50.522 0.027 6.93 2.42 10.77
3/25/2021 4:15:00 PM 10.29 50.522 0.027 6.86 2.25 10.76
3/25/2021 4:30:00 PM 10.29 50.522 0.027 6.84 3.12 10.75
3/25/2021 4:45:00 PM 10.31 50.558 0.027 6.94 2.44 10.75
3/25/2021 5:00:00 PM 10.31 50.558 0.027 6.91 2.36 10.73
3/25/2021 5:15:00 PM 10.3 50.54 0.027 6.82 2.38 10.72
3/25/2021 5:30:00 PM 10.3 50.54 0.027 6.85 2.49 10.71
3/25/2021 5:45:00 PM 10.28 50.504 0.027 6.84 2.38 10.69
3/25/2021 6:00:00 PM 10.26 50.468 0.027 6.89 2.36 10.67
3/25/2021 6:15:00 PM 10.23 50.414 0.027 6.91 2.46 10.66
3/25/2021 6:30:00 PM 10.19 50.342 0.027 6.85 2.33 10.65
3/25/2021 6:45:00 PM 10.15 50.27 0.027 6.78 2.34 10.64
3/25/2021 7:00:00 PM 10.11 50.198 0.027 6.89 2.35 10.63
3/25/2021 7:15:00 PM 10.06 50.108 0.027 6.81 2.65 10.63
3/25/2021 7:30:00 PM 10.02 50.036 0.027 6.79 2.45 10.62
3/25/2021 7:45:00 PM 9.98 49.964 0.027 6.78 2.4 10.62
3/25/2021 8:00:00 PM 9.94 49.892 0.027 6.78 2.34 10.62
3/25/2021 8:15:00 PM 9.9 49.82 0.027 6.78 2.4 10.63
3/25/2021 8:30:00 PM 9.86 49.748 0.027 6.85 2.45 10.63
3/25/2021 8:45:00 PM 9.83 49.694 0.027 6.77 2.41 10.64
3/25/2021 9:00:00 PM 9.8 49.64 0.028 6.76 2.59 10.65
3/25/2021 9:15:00 PM 9.8 49.64 0.028 6.78 2.53 10.66
3/25/2021 9:30:00 PM 9.77 49.586 0.028 6.85 2.5 10.66
3/25/2021 9:45:00 PM 9.74 49.532 0.028 6.84 2.47 10.67
3/25/2021 10:00:00 PM 9.73 49.514 0.028 6.73 2.33 10.67
3/25/2021 10:15:00 PM 9.72 49.496 0.028 6.87 3.02 10.68
3/25/2021 10:30:00 PM 9.7 49.46 0.028 6.79 2.34 10.68
3/25/2021 10:45:00 PM 9.69 49.442 0.028 6.86 2.39 10.68
3/25/2021 11:00:00 PM 9.67 49.406 0.028 6.81 2.5 10.69
3/25/2021 11:15:00 PM 9.66 49.388 0.028 6.86 2.43 10.69
3/25/2021 11:30:00 PM 9.65 49.37 0.028 6.85 2.45 10.69
3/25/2021 11:45:00 PM 9.65 49.37 0.028 6.84 2.55 10.69
3/26/2021 12:00:00 AM 9.65 49.37 0.028 6.85 2.48 10.69
3/26/2021 12:15:00 AM 9.64 49.352 0.028 6.85 2.36 10.69
3/26/2021 12:30:00 AM 9.63 49.334 0.028 6.85 2.54 10.69
3/26/2021 12:45:00 AM 9.61 49.298 0.028 6.8 2.42 10.69
3/26/2021 1:00:00 AM 9.58 49.244 0.028 6.76 2.39 10.69
3/26/2021 1:15:00 AM 9.56 49.208 0.028 6.79 2.4 10.7
3/26/2021 1:30:00 AM 9.54 49.172 0.028 6.83 2.4 10.7
3/26/2021 1:45:00 AM 9.52 49.136 0.028 6.76 2.42 10.7
3/26/2021 2:00:00 AM 9.51 49.118 0.028 6.84 2.47 10.71
3/26/2021 2:15:00 AM 9.49 49.082 0.028 6.84 2.41 10.71
3/26/2021 2:30:00 AM 9.49 49.082 0.028 6.78 3.4 10.71
3/26/2021 2:45:00 AM 9.49 49.082 0.028 6.76 2.53 10.71
3/26/2021 3:00:00 AM 9.49 49.082 0.028 6.8 2.33 10.7
3/26/2021 3:15:00 AM 9.51 49.118 0.028 6.86 2.87 10.7
3/26/2021 3:30:00 AM 9.52 49.136 0.028 6.77 2.79 10.69
3/26/2021 3:45:00 AM 9.51 49.118 0.028 6.77 2.97 10.69
3/26/2021 4:00:00 AM 9.5 49.1 0.028 6.86 2.6 10.69
3/26/2021 4:15:00 AM 9.47 49.046 0.028 6.84 2.53 10.69
3/26/2021 4:30:00 AM 9.46 49.028 0.028 6.85 2.33 10.69
3/26/2021 4:45:00 AM 9.4 48.92 0.028 6.73 2.37 10.7
3/26/2021 5:00:00 AM 9.37 48.866 0.028 6.77 2.4 10.7
3/26/2021 5:15:00 AM 9.35 48.83 0.028 6.77 2.34 10.7
3/26/2021 5:30:00 AM 9.33 48.794 0.028 6.82 2.53 10.7
3/26/2021 5:45:00 AM 9.34 48.812 0.028 6.76 2.47 10.7
3/26/2021 6:00:00 AM 9.32 48.776 0.028 6.82 2.69 10.7
3/26/2021 6:15:00 AM 9.3 48.74 0.028 6.84 2.85 10.7
3/26/2021 6:30:00 AM 9.29 48.722 0.028 6.83 2.84 10.71
3/26/2021 6:45:00 AM 9.29 48.722 0.028 6.82 3.01 10.71
3/26/2021 7:00:00 AM 9.29 48.722 0.028 6.75 4.43 10.71
3/26/2021 7:15:00 AM 9.27 48.686 0.028 6.78 4.08 10.72
3/26/2021 7:30:00 AM 9.26 48.668 0.028 6.82 4.68 10.73
3/26/2021 7:45:00 AM 9.29 48.722 0.028 6.86 5.38 10.75
3/26/2021 8:00:00 AM 9.29 48.722 0.028 6.78 4.74 10.77
3/26/2021 8:15:00 AM 9.29 48.722 0.028 6.88 3.58 10.79
3/26/2021 8:30:00 AM 9.3 48.74 0.028 6.86 3.2 10.81
3/26/2021 8:45:00 AM 9.33 48.794 0.028 6.77 2.99 10.82
3/26/2021 9:00:00 AM 9.37 48.866 0.028 6.84 3.18 10.83
3/26/2021 9:15:00 AM 9.43 48.974 0.028 6.88 2.8 10.84
3/26/2021 9:30:00 AM 9.48 49.064 0.028 6.91 2.81 10.82
3/26/2021 9:45:00 AM 9.5 49.1 0.028 6.8 3.03 10.8
3/26/2021 10:00:00 AM 9.5 49.1 0.028 6.92 3.25 10.78
3/26/2021 10:15:00 AM 9.51 49.118 0.028 6.88 3.03 10.77
3/26/2021 10:30:00 AM 9.52 49.136 0.028 6.78 3.21 10.77
3/26/2021 10:45:00 AM 9.55 49.19 0.028 6.84 3.36 10.79
3/26/2021 11:00:00 AM 9.56 49.208 0.027 6.91 3.18 10.8
3/26/2021 11:15:00 AM 9.55 49.19 0.027 6.9 3.48 10.8
3/26/2021 11:30:00 AM 9.57 49.226 0.027 6.88 3.8 10.81
3/26/2021 11:45:00 AM 9.59 49.262 0.027 6.82 3.48 10.82
3/26/2021 12:00:00 PM 9.57 49.226 0.027 6.85 3.39 10.81
3/26/2021 12:15:00 PM 9.59 49.262 0.027 6.9 3.42 10.83
3/26/2021 12:30:00 PM 9.59 49.262 0.027 6.93 3.14 10.84
3/26/2021 12:45:00 PM 9.6 49.28 0.027 6.92 3.23 10.86
3/26/2021 1:00:00 PM 9.67 49.406 0.027 6.93 3.19 10.87
3/26/2021 1:15:00 PM 9.7 49.46 0.027 6.88 2.87 10.87
3/26/2021 1:30:00 PM 9.66 49.388 0.027 6.93 2.82 10.88
3/26/2021 1:45:00 PM 9.65 49.37 0.027 6.84 2.79 10.88
3/26/2021 2:00:00 PM 9.6 49.28 0.027 6.92 2.8 10.87
3/26/2021 2:15:00 PM 9.57 49.226 0.027 6.85 3.02 10.89
3/26/2021 2:30:00 PM 9.54 49.172 0.027 6.92 3.3 10.91
3/26/2021 2:45:00 PM 9.51 49.118 0.027 6.88 3.02 10.93
3/26/2021 3:00:00 PM 9.47 49.046 0.027 6.82 3.09 10.94
3/26/2021 3:15:00 PM 9.43 48.974 0.027 6.86 2.75 10.96
3/26/2021 3:30:00 PM 9.41 48.938 0.027 6.86 2.74 10.98
3/26/2021 3:45:00 PM 9.35 48.83 0.027 6.85 3.43 10.99
3/26/2021 4:00:00 PM 9.31 48.758 0.027 6.91 2.7 11
3/26/2021 4:15:00 PM 9.29 48.722 0.027 6.91 2.65 11.02
3/26/2021 4:30:00 PM 9.25 48.65 0.027 6.82 3.16 11.03
3/26/2021 4:45:00 PM 9.21 48.578 0.027 6.86 2.66 11.05
3/26/2021 5:00:00 PM 9.18 48.524 0.027 6.86 2.88 11.06
3/26/2021 5:15:00 PM 9.14 48.452 0.027 6.91 2.66 11.06
3/26/2021 5:30:00 PM 9.09 48.362 0.027 6.9 2.65 11.06
3/26/2021 5:45:00 PM 9.03 48.254 0.027 6.9 2.97 11.06
3/26/2021 6:00:00 PM 8.98 48.164 0.027 6.89 2.87 11.07
3/26/2021 6:15:00 PM 8.94 48.092 0.027 6.77 2.85 11.07
3/26/2021 6:30:00 PM 8.89 48.002 0.027 6.83 2.51 11.08
3/26/2021 6:45:00 PM 8.84 47.912 0.027 6.82 2.93 11.08
3/26/2021 7:00:00 PM 8.79 47.822 0.027 6.84 2.67 11.07
3/26/2021 7:15:00 PM 8.74 47.732 0.028 6.81 2.5 11.06
3/26/2021 7:30:00 PM 8.69 47.642 0.028 6.87 2.51 11.06
3/26/2021 7:45:00 PM 8.65 47.57 0.028 6.73 2.61 11.05
3/26/2021 8:00:00 PM 8.6 47.48 0.028 6.83 2.47 11.05
3/26/2021 8:15:00 PM 8.57 47.426 0.028 6.74 2.43 11.06
3/26/2021 8:30:00 PM 8.53 47.354 0.028 6.85 2.56 11.07
3/26/2021 8:45:00 PM 8.49 47.282 0.028 6.84 3.19 11.08
3/26/2021 9:00:00 PM 8.46 47.228 0.028 6.7 2.53 11.09
3/26/2021 9:15:00 PM 8.43 47.174 0.028 6.76 2.49 11.1
3/26/2021 9:30:00 PM 8.4 47.12 0.028 6.78 2.5 11.11
3/26/2021 9:45:00 PM 8.37 47.066 0.028 6.83 2.53 11.12
3/26/2021 10:00:00 PM 8.34 47.012 0.028 6.82 2.43 11.13
3/26/2021 10:15:00 PM 8.31 46.958 0.028 6.75 2.57 11.14
3/26/2021 10:30:00 PM 8.28 46.904 0.028 6.72 2.46 11.14
3/26/2021 10:45:00 PM 8.25 46.85 0.028 6.77 2.37 11.15
3/26/2021 11:00:00 PM 8.23 46.814 0.028 6.79 2.34 11.16
3/26/2021 11:15:00 PM 8.2 46.76 0.028 6.73 2.52 11.17
3/26/2021 11:30:00 PM 8.17 46.706 0.028 6.83 2.43 11.17
3/26/2021 11:45:00 PM 8.15 46.67 0.028 6.8 2.41 11.19
3/27/2021 12:00:00 AM 8.13 46.634 0.028 6.82 2.49 11.19
3/27/2021 12:15:00 AM 8.1 46.58 0.028 6.74 2.51 11.2
3/27/2021 12:30:00 AM 8.08 46.544 0.028 6.73 2.41 11.21
3/27/2021 12:45:00 AM 8.06 46.508 0.028 6.83 2.54 11.21
3/27/2021 1:00:00 AM 8.03 46.454 0.028 6.74 2.43 11.22
3/27/2021 1:15:00 AM 8.01 46.418 0.028 6.8 2.35 11.23
3/27/2021 1:30:00 AM 7.99 46.382 0.028 6.75 2.54 11.24
3/27/2021 1:45:00 AM 7.97 46.346 0.028 6.78 2.38 11.25
3/27/2021 2:00:00 AM 7.95 46.31 0.028 6.74 2.44 11.25
3/27/2021 2:15:00 AM 7.93 46.274 0.028 6.81 2.35 11.26
3/27/2021 2:30:00 AM 7.91 46.238 0.028 6.83 2.28 11.27
3/27/2021 2:45:00 AM 7.89 46.202 0.028 6.74 2.39 11.27
3/27/2021 3:00:00 AM 7.87 46.166 0.028 6.73 2.32 11.28
3/27/2021 3:15:00 AM 7.84 46.112 0.028 6.71 2.44 11.29
3/27/2021 3:30:00 AM 7.82 46.076 0.028 6.82 2.32 11.3
3/27/2021 3:45:00 AM 7.8 46.04 0.028 6.7 2.43 11.3
3/27/2021 4:00:00 AM 7.79 46.022 0.028 6.72 2.44 11.31
3/27/2021 4:15:00 AM 7.77 45.986 0.028 6.73 2.23 11.31
3/27/2021 4:30:00 AM 7.75 45.95 0.028 6.8 2.32 11.32
3/27/2021 4:45:00 AM 7.73 45.914 0.028 6.78 2.39 11.33
3/27/2021 5:00:00 AM 7.72 45.896 0.028 6.75 2.26 11.34
3/27/2021 5:15:00 AM 7.7 45.86 0.028 6.71 2.29 11.34
3/27/2021 5:30:00 AM 7.67 45.806 0.028 6.79 2.27 11.35
3/27/2021 5:45:00 AM 7.65 45.77 0.028 6.82 2.39 11.36
3/27/2021 6:00:00 AM 7.64 45.752 0.028 6.71 2.36 11.36
3/27/2021 6:15:00 AM 7.62 45.716 0.028 6.81 2.33 11.37
3/27/2021 6:30:00 AM 7.6 45.68 0.028 6.78 2.44 11.38
3/27/2021 6:45:00 AM 7.58 45.644 0.028 6.8 2.23 11.38
3/27/2021 7:00:00 AM 7.56 45.608 0.028 6.8 2.26 11.39
3/27/2021 7:15:00 AM 7.54 45.572 0.028 6.8 2.35 11.41
3/27/2021 7:30:00 AM 7.53 45.554 0.028 6.77 2.3 11.43
3/27/2021 7:45:00 AM 7.52 45.536 0.028 6.71 2.18 11.45
3/27/2021 8:00:00 AM 7.52 45.536 0.028 6.84 2.29 11.48
3/27/2021 8:15:00 AM 7.52 45.536 0.028 6.73 2.17 11.51
3/27/2021 8:30:00 AM 7.54 45.572 0.028 6.75 2.28 11.54
3/27/2021 8:45:00 AM 7.55 45.59 0.028 6.85 2.26 11.56
3/27/2021 9:00:00 AM 7.56 45.608 0.028 6.86 2.34 11.57
3/27/2021 9:15:00 AM 7.61 45.698 0.028 6.74 2.17 11.58
3/27/2021 9:30:00 AM 7.63 45.734 0.028 6.83 2.2 11.57
3/27/2021 9:45:00 AM 7.65 45.77 0.028 6.9 2.27 11.57
3/27/2021 10:00:00 AM 7.7 45.86 0.028 6.89 2.15 11.56
3/27/2021 10:15:00 AM 7.73 45.914 0.028 6.82 2.21 11.56
3/27/2021 10:30:00 AM 7.84 46.112 0.028 6.92 2.34 11.56
3/27/2021 10:45:00 AM 7.94 46.292 0.028 6.9 2.21 11.53
3/27/2021 11:00:00 AM 8.01 46.418 0.028 6.89 2.13 11.52
3/27/2021 11:15:00 AM 8.09 46.562 0.028 6.76 2.23 11.48
3/27/2021 11:30:00 AM 8.11 46.598 0.028 6.93 2.13 11.46
3/27/2021 11:45:00 AM 8.21 46.778 0.028 6.77 2.19 11.43
3/27/2021 12:00:00 PM 8.35 47.03 0.028 6.91 2.13 11.4
3/27/2021 12:15:00 PM 8.48 47.264 0.028 6.86 2.3 11.37
3/27/2021 12:30:00 PM 8.62 47.516 0.028 6.9 2.24 11.33
3/27/2021 12:45:00 PM 8.79 47.822 0.028 6.89 2.16 11.29
3/27/2021 1:00:00 PM 9 48.2 0.028 6.92 2.14 11.25
3/27/2021 1:15:00 PM 9.17 48.506 0.028 6.79 2.13 11.21
3/27/2021 1:30:00 PM 9.28 48.704 0.028 6.88 2.16 11.17
3/27/2021 1:45:00 PM 9.44 48.992 0.028 6.89 2.21 11.13
3/27/2021 2:00:00 PM 9.6 49.28 0.028 6.94 2.25 11.09
3/27/2021 2:15:00 PM 9.74 49.532 0.028 6.93 2.1 11.04
3/27/2021 2:30:00 PM 9.86 49.748 0.028 6.89 2.22 11
3/27/2021 2:45:00 PM 9.94 49.892 0.028 6.89 2.23 10.97
3/27/2021 3:00:00 PM 9.97 49.946 0.028 6.77 2.23 10.94
3/27/2021 3:15:00 PM 9.99 49.982 0.028 6.87 2.25 10.93
3/27/2021 3:30:00 PM 10.01 50.018 0.028 6.92 2.26 10.91
3/27/2021 3:45:00 PM 10.04 50.072 0.028 6.85 2.25 10.9
3/27/2021 4:00:00 PM 10.04 50.072 0.028 6.86 2.35 10.89
3/27/2021 4:15:00 PM 10.04 50.072 0.028 6.77 2.39 10.88
3/27/2021 4:30:00 PM 10.05 50.09 0.028 6.92 2.4 10.88
3/27/2021 4:45:00 PM 10.04 50.072 0.028 6.82 2.27 10.87
3/27/2021 5:00:00 PM 10.08 50.144 0.028 6.89 2.54 10.87
3/27/2021 5:15:00 PM 10.06 50.108 0.028 6.85 2.35 10.85
3/27/2021 5:30:00 PM 10.04 50.072 0.028 6.91 2.13 10.84
3/27/2021 5:45:00 PM 10.03 50.054 0.028 6.9 2.21 10.84
3/27/2021 6:00:00 PM 10 50 0.028 6.78 2.28 10.82
3/27/2021 6:15:00 PM 9.96 49.928 0.028 6.84 2.29 10.8
3/27/2021 6:30:00 PM 9.9 49.82 0.028 6.82 2.33 10.79
3/27/2021 6:45:00 PM 9.85 49.73 0.028 6.88 2.2 10.78
3/27/2021 7:00:00 PM 9.78 49.604 0.028 6.8 2.17 10.77
3/27/2021 7:15:00 PM 9.7 49.46 0.028 6.88 2.25 10.77
3/27/2021 7:30:00 PM 9.62 49.316 0.028 6.83 2.35 10.76
3/27/2021 7:45:00 PM 9.55 49.19 0.028 6.7 2.24 10.76
3/27/2021 8:00:00 PM 9.48 49.064 0.028 6.79 2.25 10.76
3/27/2021 8:15:00 PM 9.41 48.938 0.028 6.83 2.23 10.77
3/27/2021 8:30:00 PM 9.35 48.83 0.028 6.8 2.24 10.79
3/27/2021 8:45:00 PM 9.28 48.704 0.028 6.69 2.34 10.81
3/27/2021 9:00:00 PM 9.21 48.578 0.028 6.8 2.43 10.83
3/27/2021 9:15:00 PM 9.15 48.47 0.028 6.71 2.27 10.85
3/27/2021 9:30:00 PM 9.08 48.344 0.028 6.82 2.25 10.86
3/27/2021 9:45:00 PM 9.02 48.236 0.028 6.78 2.37 10.88
3/27/2021 10:00:00 PM 8.96 48.128 0.028 6.68 2.21 10.9
3/27/2021 10:15:00 PM 8.89 48.002 0.028 6.76 2.3 10.92
3/27/2021 10:30:00 PM 8.84 47.912 0.028 6.75 2.24 10.94
3/27/2021 10:45:00 PM 8.77 47.786 0.028 6.79 2.41 10.95
3/27/2021 11:00:00 PM 8.71 47.678 0.028 6.7 2.3 10.97
3/27/2021 11:15:00 PM 8.65 47.57 0.028 6.81 2.32 10.98
3/27/2021 11:30:00 PM 8.6 47.48 0.028 6.68 2.3 10.99
3/27/2021 11:45:00 PM 8.54 47.372 0.028 6.8 2.44 11
3/28/2021 12:00:00 AM 8.48 47.264 0.028 6.71 2.28 11.01
3/28/2021 12:15:00 AM 8.42 47.156 0.028 6.82 2.38 11.03
3/28/2021 12:30:00 AM 8.37 47.066 0.028 6.66 2.33 11.02
3/28/2021 12:45:00 AM 8.31 46.958 0.029 6.78 2.37 11.04
3/28/2021 1:00:00 AM 8.26 46.868 0.028 6.67 2.32 11.04
3/28/2021 1:15:00 AM 8.2 46.76 0.029 6.8 2.33 11.06
3/28/2021 1:30:00 AM 8.14 46.652 0.029 6.79 2.26 11.07
3/28/2021 1:45:00 AM 8.09 46.562 0.029 6.77 2.33 11.09
3/28/2021 2:00:00 AM 8.04 46.472 0.029 6.78 2.23 11.1
3/28/2021 2:15:00 AM 7.99 46.382 0.029 6.66 2.21 11.11
3/28/2021 2:30:00 AM 7.94 46.292 0.029 6.81 2.24 11.13
3/28/2021 2:45:00 AM 7.88 46.184 0.029 6.81 2.27 11.15
3/28/2021 3:00:00 AM 7.83 46.094 0.029 6.67 2.41 11.16
3/28/2021 3:15:00 AM 7.79 46.022 0.029 6.75 2.18 11.18
3/28/2021 3:30:00 AM 7.74 45.932 0.029 6.67 2.29 11.19
3/28/2021 3:45:00 AM 7.69 45.842 0.029 6.72 2.48 11.2
3/28/2021 4:00:00 AM 7.65 45.77 0.029 6.79 2.34 11.22
3/28/2021 4:15:00 AM 7.61 45.698 0.029 6.63 2.19 11.23
3/28/2021 4:30:00 AM 7.57 45.626 0.029 6.79 2.24 11.24
3/28/2021 4:45:00 AM 7.54 45.572 0.029 6.82 2.35 11.25
3/28/2021 5:00:00 AM 7.51 45.518 0.029 6.64 2.25 11.26
3/28/2021 5:15:00 AM 7.49 45.482 0.029 6.75 2.26 11.27
3/28/2021 5:30:00 AM 7.46 45.428 0.029 6.81 2.45 11.27
3/28/2021 5:45:00 AM 7.44 45.392 0.029 6.69 2.18 11.28
3/28/2021 6:00:00 AM 7.42 45.356 0.029 6.68 2.29 11.28
3/28/2021 6:15:00 AM 7.41 45.338 0.029 6.8 2.2 11.29
3/28/2021 6:30:00 AM 7.41 45.338 0.029 6.64 2.22 11.29
3/28/2021 6:45:00 AM 7.4 45.32 0.029 6.81 2.26 11.29
3/28/2021 7:00:00 AM 7.4 45.32 0.029 6.68 2.35 11.29
3/28/2021 7:15:00 AM 7.4 45.32 0.029 6.74 2.33 11.29
3/28/2021 7:30:00 AM 7.41 45.338 0.029 6.69 2.26 11.28
3/28/2021 7:45:00 AM 7.42 45.356 0.029 6.81 2.18 11.29
3/28/2021 8:00:00 AM 7.44 45.392 0.029 6.65 2.15 11.29
3/28/2021 8:15:00 AM 7.46 45.428 0.029 6.83 2.26 11.29
3/28/2021 8:30:00 AM 7.48 45.464 0.028 6.78 2.23 11.3
3/28/2021 8:45:00 AM 7.51 45.518 0.028 6.69 2.27 11.29
3/28/2021 9:00:00 AM 7.54 45.572 0.028 6.73 2.22 11.29
3/28/2021 9:15:00 AM 7.58 45.644 0.028 6.75 2.25 11.29
3/28/2021 9:30:00 AM 7.62 45.716 0.028 6.76 2.29 11.28
3/28/2021 9:45:00 AM 7.67 45.806 0.028 6.76 2.29 11.27
3/28/2021 10:00:00 AM 7.71 45.878 0.028 6.77 2.32 11.24
3/28/2021 10:15:00 AM 7.76 45.968 0.028 6.78 2.55 11.22
3/28/2021 10:30:00 AM 7.79 46.022 0.028 6.81 2.79 11.21
3/28/2021 10:45:00 AM 7.83 46.094 0.028 6.84 2.61 11.2
3/28/2021 11:00:00 AM 7.87 46.166 0.028 6.86 2.74 11.21
3/28/2021 11:15:00 AM 7.91 46.238 0.028 6.86 2.89 11.19
3/28/2021 11:30:00 AM 7.95 46.31 0.028 6.7 3.01 11.17
3/28/2021 11:45:00 AM 8.03 46.454 0.028 6.81 2.84 11.18
3/28/2021 12:00:00 PM 8.12 46.616 0.028 6.84 2.82 11.18
3/28/2021 12:15:00 PM 8.21 46.778 0.028 6.81 2.96 11.17
3/28/2021 12:30:00 PM 8.29 46.922 0.028 6.92 2.94 11.16
3/28/2021 12:45:00 PM 8.4 47.12 0.028 6.9 2.88 11.14
3/28/2021 1:00:00 PM 8.48 47.264 0.028 6.92 2.82 11.11
3/28/2021 1:15:00 PM 8.54 47.372 0.028 6.88 2.9 11.08
3/28/2021 1:30:00 PM 8.58 47.444 0.028 6.8 2.87 11.04
3/28/2021 1:45:00 PM 8.61 47.498 0.028 6.91 2.98 11
3/28/2021 2:00:00 PM 8.68 47.624 0.028 6.9 3.01 10.97
3/28/2021 2:15:00 PM 8.7 47.66 0.028 6.8 3.26 10.97
3/28/2021 2:30:00 PM 8.72 47.696 0.028 6.88 3.21 10.98
3/28/2021 2:45:00 PM 8.74 47.732 0.028 6.86 3.47 10.98
3/28/2021 3:00:00 PM 8.76 47.768 0.028 6.91 3.51 10.98
3/28/2021 3:15:00 PM 8.75 47.75 0.028 6.79 4.69 10.96
3/28/2021 3:30:00 PM 8.77 47.786 0.028 6.91 4.76 10.97
3/28/2021 3:45:00 PM 8.77 47.786 0.028 6.89 5.13 10.96
3/28/2021 4:00:00 PM 8.77 47.786 0.028 6.88 5.77 10.97
3/28/2021 4:15:00 PM 8.77 47.786 0.028 6.82 5.44 10.99
3/28/2021 4:30:00 PM 8.77 47.786 0.028 6.84 5.86 11
3/28/2021 4:45:00 PM 8.85 47.93 0.027 6.86 6.52 11.02
3/28/2021 5:00:00 PM 8.79 47.822 0.027 6.84 5.92 11.03
3/28/2021 5:15:00 PM 8.78 47.804 0.027 6.91 6.11 11.02
3/28/2021 5:30:00 PM 8.78 47.804 0.027 6.87 6.73 11.02
3/28/2021 5:45:00 PM 8.78 47.804 0.027 6.81 6.34 11.03
3/28/2021 6:00:00 PM 8.75 47.75 0.027 6.85 5.97 11.02
3/28/2021 6:15:00 PM 8.71 47.678 0.027 6.87 6.28 11.01
3/28/2021 6:30:00 PM 8.7 47.66 0.027 6.82 6.96 11.02
3/28/2021 6:45:00 PM 8.65 47.57 0.027 6.86 6.71 11
3/28/2021 7:00:00 PM 8.6 47.48 0.027 6.84 6.59 10.98
3/28/2021 7:15:00 PM 8.56 47.408 0.027 6.84 7.26 10.97
3/28/2021 7:30:00 PM 8.49 47.282 0.026 6.83 6.93 10.98
3/28/2021 7:45:00 PM 8.44 47.192 0.026 6.77 7.89 10.98
3/28/2021 8:00:00 PM 8.37 47.066 0.026 6.76 6.94 11
3/28/2021 8:15:00 PM 8.29 46.922 0.026 6.82 6.74 11.02
3/28/2021 8:30:00 PM 8.24 46.832 0.026 6.7 6.66 11.03
3/28/2021 8:45:00 PM 8.18 46.724 0.026 6.83 6.76 11.05
3/28/2021 9:00:00 PM 8.12 46.616 0.026 6.79 7.15 11.08
3/28/2021 9:15:00 PM 8.06 46.508 0.026 6.67 6.45 11.1
3/28/2021 9:30:00 PM 7.99 46.382 0.026 6.77 6.33 11.13
3/28/2021 9:45:00 PM 7.93 46.274 0.026 6.73 5.8 11.15
3/28/2021 10:00:00 PM 7.87 46.166 0.026 6.7 5.42 11.17
3/28/2021 10:15:00 PM 7.81 46.058 0.026 6.72 5.64 11.2
3/28/2021 10:30:00 PM 7.73 45.914 0.026 6.77 5.17 11.23
3/28/2021 10:45:00 PM -99999.99 -179968 -99999.99 -99999.99 -99999.99 -99999.99
3/28/2021 11:00:00 PM 7.59 45.662 0.026 6.78 4.93 11.27
3/28/2021 11:15:00 PM 7.52 45.536 0.026 6.79 5.21 11.3
3/28/2021 11:30:00 PM 7.46 45.428 0.026 6.78 5.48 11.32
3/28/2021 11:45:00 PM 7.4 45.32 0.026 6.67 5.52 11.35
3/29/2021 12:00:00 AM 7.34 45.212 0.026 6.79 4.22 11.37
3/29/2021 12:15:00 AM 7.28 45.104 0.026 6.8 3.88 11.39
3/29/2021 12:30:00 AM 7.22 44.996 0.026 6.77 4.2 11.41
3/29/2021 12:45:00 AM 7.17 44.906 0.026 6.65 4.11 11.43
3/29/2021 1:00:00 AM 7.12 44.816 0.026 6.8 3.64 11.44
3/29/2021 1:15:00 AM 7.07 44.726 0.026 6.77 3.53 11.46
3/29/2021 1:30:00 AM 7.02 44.636 0.026 6.63 3.56 11.48
3/29/2021 1:45:00 AM 6.97 44.546 0.026 6.73 3.45 11.49
3/29/2021 2:00:00 AM 6.91 44.438 0.026 6.71 3.5 11.51
3/29/2021 2:15:00 AM 6.89 44.402 0.026 6.77 3.42 11.52
3/29/2021 2:30:00 AM 6.84 44.312 0.026 6.76 3.33 11.54
3/29/2021 2:45:00 AM 6.79 44.222 0.026 6.79 3.42 11.55
3/29/2021 3:00:00 AM 6.73 44.114 0.026 6.77 3.4 11.57
3/29/2021 3:15:00 AM 6.66 43.988 0.026 6.74 3.45 11.59
3/29/2021 3:30:00 AM 6.6 43.88 0.026 6.68 3.2 11.62
3/29/2021 3:45:00 AM 6.53 43.754 0.026 6.73 3.12 11.64
3/29/2021 4:00:00 AM 6.48 43.664 0.026 6.67 3.34 11.66
3/29/2021 4:15:00 AM 6.43 43.574 0.026 6.79 3.18 11.68
3/29/2021 4:30:00 AM 6.41 43.538 0.026 6.74 3.19 11.7
3/29/2021 4:45:00 AM 6.35 43.43 0.026 6.66 3.18 11.72
3/29/2021 5:00:00 AM 6.3 43.34 0.026 6.74 3.32 11.74
3/29/2021 5:15:00 AM 6.27 43.286 0.026 6.69 4.56 11.75
3/29/2021 5:30:00 AM 6.24 43.232 0.026 6.77 3.14 11.77
3/29/2021 5:45:00 AM 6.2 43.16 0.026 6.7 3.05 11.79
3/29/2021 6:00:00 AM 6.16 43.088 0.026 6.79 3.07 11.8
3/29/2021 6:15:00 AM 6.12 43.016 0.026 6.72 2.95 11.83
3/29/2021 6:30:00 AM 6.07 42.926 0.026 6.67 2.96 11.85
3/29/2021 6:45:00 AM 6 42.8 0.026 6.73 3.13 11.87
3/29/2021 7:00:00 AM 5.96 42.728 0.026 6.73 3.06 11.89
3/29/2021 7:15:00 AM 5.93 42.674 0.026 6.79 3.04 11.91
3/29/2021 7:30:00 AM 5.91 42.638 0.026 6.79 2.97 11.93
3/29/2021 7:45:00 AM 5.89 42.602 0.026 6.69 2.85 11.95
3/29/2021 8:00:00 AM 5.87 42.566 0.026 6.72 2.83 11.97
3/29/2021 8:15:00 AM 5.83 42.494 0.026 6.8 2.76 12
3/29/2021 8:30:00 AM 5.81 42.458 0.026 6.77 2.96 12.04
3/29/2021 8:45:00 AM 5.8 42.44 0.026 6.76 2.78 12.06
3/29/2021 9:00:00 AM 5.79 42.422 0.026 6.79 2.82 12.08
3/29/2021 9:15:00 AM 5.78 42.404 0.026 6.71 2.81 12.1
3/29/2021 9:30:00 AM 5.78 42.404 0.026 6.81 2.65 12.11
3/29/2021 9:45:00 AM 5.78 42.404 0.026 6.82 2.65 12.13
3/29/2021 10:00:00 AM 5.76 42.368 0.026 6.81 2.73 12.13
3/29/2021 10:15:00 AM 5.76 42.368 0.026 6.77 2.65 12.15
3/29/2021 10:30:00 AM 5.77 42.386 0.026 6.76 2.62 12.17
3/29/2021 10:45:00 AM 5.79 42.422 0.026 6.84 2.78 12.18
3/29/2021 11:00:00 AM 5.8 42.44 0.026 6.75 2.61 12.19
3/29/2021 11:15:00 AM 5.82 42.476 0.026 6.8 2.9 12.19
3/29/2021 11:30:00 AM 5.84 42.512 0.026 6.84 2.73 12.2
3/29/2021 11:45:00 AM 5.89 42.602 0.026 6.82 2.61 12.19
3/29/2021 12:00:00 PM 5.95 42.71 0.026 6.74 2.77 12.19
3/29/2021 12:15:00 PM 6.05 42.89 0.026 6.78 2.76 12.18
3/29/2021 12:30:00 PM 6.19 43.142 0.026 6.85 4.11 12.15
3/29/2021 12:45:00 PM 6.24 43.232 0.026 6.82 6.18 12.13
3/29/2021 1:00:00 PM 6.29 43.322 0.026 6.82 4.76 12.1
3/29/2021 1:15:00 PM 6.38 43.484 0.026 6.81 2.76 12.07
3/29/2021 1:30:00 PM 6.42 43.556 0.026 6.79 3.01 12.05
3/29/2021 1:45:00 PM 6.57 43.826 0.026 6.83 2.71 12.01
3/29/2021 2:00:00 PM 6.73 44.114 0.026 6.76 2.57 11.98
3/29/2021 2:15:00 PM 6.95 44.51 0.026 6.86 4.56 11.9
3/29/2021 2:30:00 PM 7.18 44.924 0.026 6.75 2.57 11.83
3/29/2021 2:45:00 PM 7.33 45.194 0.026 6.86 2.45 11.78
3/29/2021 3:00:00 PM 7.45 45.41 0.026 6.77 2.5 11.74
3/29/2021 3:15:00 PM 7.57 45.626 0.026 6.8 2.49 11.71
3/29/2021 3:30:00 PM 7.67 45.806 0.026 6.87 2.64 11.67
3/29/2021 3:45:00 PM 7.72 45.896 0.026 6.86 2.57 11.64
3/29/2021 4:00:00 PM 7.74 45.932 0.026 6.86 2.41 11.63
3/29/2021 4:15:00 PM 7.76 45.968 0.026 6.81 2.34 11.62
3/29/2021 4:30:00 PM 7.74 45.932 0.026 6.77 2.45 11.61
3/29/2021 4:45:00 PM 7.71 45.878 0.026 6.85 2.39 11.61
3/29/2021 5:00:00 PM 7.66 45.788 0.026 6.86 2.49 11.61
3/29/2021 5:15:00 PM 7.62 45.716 0.026 6.82 2.57 11.61
3/29/2021 5:30:00 PM 7.57 45.626 0.026 6.77 2.49 11.61
3/29/2021 5:45:00 PM 7.52 45.536 0.026 6.79 2.68 11.61
3/29/2021 6:00:00 PM 7.48 45.464 0.026 6.82 2.52 11.6
3/29/2021 6:15:00 PM 7.44 45.392 0.026 6.85 2.45 11.6
3/29/2021 6:30:00 PM 7.39 45.302 0.026 6.82 2.5 11.59
3/29/2021 6:45:00 PM 7.33 45.194 0.026 6.84 2.56 11.59
3/29/2021 7:00:00 PM 7.25 45.05 0.027 6.7 2.59 11.59
3/29/2021 7:15:00 PM 7.18 44.924 0.027 6.76 2.72 11.59
3/29/2021 7:30:00 PM 7.11 44.798 0.027 6.82 2.54 11.6
3/29/2021 7:45:00 PM 7.05 44.69 0.027 6.82 2.49 11.6
3/29/2021 8:00:00 PM 6.98 44.564 0.027 6.79 2.51 11.61
3/29/2021 8:15:00 PM 6.91 44.438 0.027 6.69 2.47 11.62
3/29/2021 8:30:00 PM 6.85 44.33 0.027 6.74 2.71 11.64
3/29/2021 8:45:00 PM 6.78 44.204 0.027 6.79 2.59 11.66
3/29/2021 9:00:00 PM 6.72 44.096 0.027 6.72 2.63 11.69
3/29/2021 9:15:00 PM 6.65 43.97 0.027 6.73 2.61 11.71
3/29/2021 9:30:00 PM 6.58 43.844 0.027 6.75 2.52 11.73
3/29/2021 9:45:00 PM 6.52 43.736 0.027 6.79 2.51 11.76
3/29/2021 10:00:00 PM 6.46 43.628 0.027 6.71 2.66 11.78
3/29/2021 10:15:00 PM 6.39 43.502 0.027 6.8 2.54 11.8
3/29/2021 10:30:00 PM 6.33 43.394 0.027 6.8 2.45 11.83
3/29/2021 10:45:00 PM 6.28 43.304 0.027 6.78 2.5 11.85
3/29/2021 11:00:00 PM 6.22 43.196 0.027 6.72 2.52 11.87
3/29/2021 11:15:00 PM 6.16 43.088 0.027 6.71 2.54 11.89
3/29/2021 11:30:00 PM 6.1 42.98 0.027 6.8 2.56 11.92
3/29/2021 11:45:00 PM 6.05 42.89 0.027 6.72 2.78 11.93
3/30/2021 12:00:00 AM 5.99 42.782 0.027 6.77 2.47 11.96
3/30/2021 12:15:00 AM 5.93 42.674 0.027 6.78 2.56 11.98
3/30/2021 12:30:00 AM 5.88 42.584 0.027 6.68 2.68 12
3/30/2021 12:45:00 AM 5.82 42.476 0.027 6.78 2.48 12.02
3/30/2021 1:00:00 AM 5.77 42.386 0.027 6.69 2.46 12.04
3/30/2021 1:15:00 AM 5.72 42.296 0.027 6.72 2.43 12.05
3/30/2021 1:30:00 AM 5.66 42.188 0.027 6.72 2.39 12.07
3/30/2021 1:45:00 AM 5.61 42.098 0.027 6.75 2.61 12.09
3/30/2021 2:00:00 AM 5.56 42.008 0.027 6.71 2.59 12.11
3/30/2021 2:15:00 AM 5.51 41.918 0.027 6.72 2.46 12.13
3/30/2021 2:30:00 AM 5.46 41.828 0.027 6.78 2.54 12.14
3/30/2021 2:45:00 AM 5.41 41.738 0.027 6.76 2.57 12.16
3/30/2021 3:00:00 AM 5.36 41.648 0.027 6.76 2.53 12.17
3/30/2021 3:15:00 AM 5.32 41.576 0.027 6.75 2.48 12.19
3/30/2021 3:30:00 AM 5.27 41.486 0.027 6.69 2.55 12.2
3/30/2021 3:45:00 AM 5.22 41.396 0.027 6.71 2.39 12.22
3/30/2021 4:00:00 AM 5.18 41.324 0.027 6.8 2.45 12.23
3/30/2021 4:15:00 AM 5.13 41.234 0.027 6.72 2.55 12.25
3/30/2021 4:30:00 AM 5.09 41.162 0.027 6.69 2.53 12.27
3/30/2021 4:45:00 AM 5.05 41.09 0.027 6.75 2.46 12.28
3/30/2021 5:00:00 AM 5 41 0.027 6.71 2.44 12.3
3/30/2021 5:15:00 AM 4.96 40.928 0.027 6.71 2.55 12.32
3/30/2021 5:30:00 AM 4.92 40.856 0.027 6.71 2.64 12.33
3/30/2021 5:45:00 AM 4.87 40.766 0.027 6.72 2.71 12.34
3/30/2021 6:00:00 AM 4.83 40.694 0.027 6.8 2.37 12.36
3/30/2021 6:15:00 AM 4.79 40.622 0.027 6.73 2.41 12.38
3/30/2021 6:30:00 AM 4.75 40.55 0.027 6.77 2.37 12.39
3/30/2021 6:45:00 AM 4.71 40.478 0.027 6.77 2.38 12.41
3/30/2021 7:00:00 AM 4.67 40.406 0.027 6.74 2.37 12.42
3/30/2021 7:15:00 AM 4.64 40.352 0.027 6.65 2.41 12.45
3/30/2021 7:30:00 AM 4.6 40.28 0.027 6.7 2.36 12.48
3/30/2021 7:45:00 AM 4.57 40.226 0.027 6.68 2.33 12.51
3/30/2021 8:00:00 AM 4.55 40.19 0.027 6.79 2.35 12.53
3/30/2021 8:15:00 AM 4.52 40.136 0.027 6.7 2.38 12.56
3/30/2021 8:30:00 AM 4.51 40.118 0.027 6.75 2.37 12.58
3/30/2021 8:45:00 AM 4.51 40.118 0.027 6.72 2.43 12.59
3/30/2021 9:00:00 AM 4.53 40.154 0.027 6.82 2.26 12.61
3/30/2021 9:15:00 AM 4.57 40.226 0.027 6.7 2.6 12.61
3/30/2021 9:30:00 AM 4.61 40.298 0.027 6.83 2.26 12.61
3/30/2021 9:45:00 AM 4.66 40.388 0.027 6.72 2.42 12.61
3/30/2021 10:00:00 AM 4.74 40.532 0.027 6.77 2.36 12.59
3/30/2021 10:15:00 AM 4.84 40.712 0.027 6.84 2.39 12.57
3/30/2021 10:30:00 AM 4.95 40.91 0.027 6.77 2.24 12.53
3/30/2021 10:45:00 AM 5.09 41.162 0.027 6.85 2.23 12.49
3/30/2021 11:00:00 AM 5.24 41.432 0.027 6.73 2.15 12.45
3/30/2021 11:15:00 AM 5.43 41.774 0.027 6.85 2.2 12.39
3/30/2021 11:30:00 AM 5.62 42.116 0.027 6.79 2.46 12.34
3/30/2021 11:45:00 AM 5.83 42.494 0.027 6.77 2.38 12.27
3/30/2021 12:00:00 PM 6.05 42.89 0.027 6.84 2.27 12.21
3/30/2021 12:15:00 PM 6.3 43.34 0.027 6.84 2.24 12.13
3/30/2021 12:30:00 PM 6.55 43.79 0.027 6.83 2.16 12.05
3/30/2021 12:45:00 PM 6.8 44.24 0.027 6.76 2.25 11.96
3/30/2021 1:00:00 PM 7.06 44.708 0.027 6.87 2.33 11.88
3/30/2021 1:15:00 PM 7.32 45.176 0.027 6.88 2.2 11.79
3/30/2021 1:30:00 PM 7.58 45.644 0.027 6.85 2.23 11.71
3/30/2021 1:45:00 PM 7.83 46.094 0.027 6.77 2.25 11.65
3/30/2021 2:00:00 PM 8.08 46.544 0.027 6.82 2.23 11.58
3/30/2021 2:15:00 PM 8.3 46.94 0.027 6.82 2.19 11.52
3/30/2021 2:30:00 PM 8.5 47.3 0.027 6.89 2.18 11.45
3/30/2021 2:45:00 PM 8.69 47.642 0.027 6.88 2.15 11.37
3/30/2021 3:00:00 PM 8.84 47.912 0.027 6.8 2.2 11.3
3/30/2021 3:15:00 PM 8.98 48.164 0.027 6.84 2.19 11.25
3/30/2021 3:30:00 PM 9.1 48.38 0.027 6.9 2.18 11.21
3/30/2021 3:45:00 PM 9.19 48.542 0.027 6.78 2.2 11.18
3/30/2021 4:00:00 PM 9.21 48.578 0.027 6.83 2.31 11.15
3/30/2021 4:15:00 PM 9.27 48.686 0.027 6.9 2.48 11.14
3/30/2021 4:30:00 PM 9.31 48.758 0.027 6.78 2.18 11.13
3/30/2021 4:45:00 PM 9.32 48.776 0.027 6.86 2.19 11.11
3/30/2021 5:00:00 PM 9.31 48.758 0.027 6.83 2.37 11.09
3/30/2021 5:15:00 PM 9.33 48.794 0.027 6.85 2.32 11.09
3/30/2021 5:30:00 PM 9.31 48.758 0.027 6.8 2.42 11.07
3/30/2021 5:45:00 PM 9.28 48.704 0.027 6.89 2.32 11.06
3/30/2021 6:00:00 PM 9.25 48.65 0.027 6.79 2.19 11.05
3/30/2021 6:15:00 PM 9.24 48.632 0.027 6.88 2.26 11.05
3/30/2021 6:30:00 PM 9.2 48.56 0.027 6.82 2.29 11.05
3/30/2021 6:45:00 PM 9.14 48.452 0.027 6.89 2.27 11.04
3/30/2021 7:00:00 PM 9.11 48.398 0.027 6.79 2.3 11.03
3/30/2021 7:15:00 PM 9.06 48.308 0.027 6.79 2.25 11.03
3/30/2021 7:30:00 PM 9.01 48.218 0.027 6.86 2.37 11.02
3/30/2021 7:45:00 PM 8.97 48.146 0.027 6.85 2.32 11.01
3/30/2021 8:00:00 PM 8.92 48.056 0.027 6.83 2.34 11.01
3/30/2021 8:15:00 PM 8.87 47.966 0.027 6.83 2.24 11.01
3/30/2021 8:30:00 PM 8.83 47.894 0.027 6.72 2.39 11.02
3/30/2021 8:45:00 PM 8.78 47.804 0.027 6.85 2.71 11.04
3/30/2021 9:00:00 PM 8.74 47.732 0.027 6.81 2.38 11.05
3/30/2021 9:15:00 PM 8.69 47.642 0.027 6.75 2.62 11.06
3/30/2021 9:30:00 PM 8.64 47.552 0.027 6.83 2.66 11.07
3/30/2021 9:45:00 PM 8.6 47.48 0.027 6.8 2.57 11.08
3/30/2021 10:00:00 PM 8.56 47.408 0.027 6.73 2.46 11.09
3/30/2021 10:15:00 PM 8.52 47.336 0.027 6.77 2.44 11.1
3/30/2021 10:30:00 PM 8.48 47.264 0.027 6.77 2.45 11.11
3/30/2021 10:45:00 PM 8.45 47.21 0.027 6.81 2.4 11.11
3/30/2021 11:00:00 PM 8.41 47.138 0.027 6.72 2.53 11.12
3/30/2021 11:15:00 PM 8.38 47.084 0.027 6.82 2.52 11.13
3/30/2021 11:30:00 PM 8.34 47.012 0.027 6.74 2.57 11.14
3/30/2021 11:45:00 PM 8.3 46.94 0.027 6.83 2.65 11.15
3/31/2021 12:00:00 AM 8.27 46.886 0.027 6.82 2.51 11.16
3/31/2021 12:15:00 AM 8.23 46.814 0.027 6.81 2.46 11.16
3/31/2021 12:30:00 AM 8.2 46.76 0.027 6.82 2.39 11.17
3/31/2021 12:45:00 AM 8.16 46.688 0.027 6.71 2.54 11.18
3/31/2021 1:00:00 AM 8.14 46.652 0.027 6.8 2.62 11.19
3/31/2021 1:15:00 AM 8.1 46.58 0.027 6.77 2.49 11.2
3/31/2021 1:30:00 AM 8.07 46.526 0.027 6.74 2.42 11.21
3/31/2021 1:45:00 AM 8.04 46.472 0.027 6.83 2.58 11.22
3/31/2021 2:00:00 AM 8.01 46.418 0.027 6.71 2.56 11.23
3/31/2021 2:15:00 AM 7.98 46.364 0.027 6.82 2.46 11.23
3/31/2021 2:30:00 AM 7.95 46.31 0.027 6.78 2.52 11.24
3/31/2021 2:45:00 AM 7.91 46.238 0.027 6.71 2.59 11.25
3/31/2021 3:00:00 AM 7.88 46.184 0.027 6.82 2.44 11.26
3/31/2021 3:15:00 AM 7.85 46.13 0.027 6.81 2.58 11.26
3/31/2021 3:30:00 AM 7.82 46.076 0.027 6.81 2.5 11.27
3/31/2021 3:45:00 AM 7.78 46.004 0.027 6.76 2.51 11.28
3/31/2021 4:00:00 AM 7.75 45.95 0.027 6.8 2.51 11.29
3/31/2021 4:15:00 AM 7.72 45.896 0.027 6.81 2.42 11.3
3/31/2021 4:30:00 AM 7.69 45.842 0.027 6.68 2.9 11.31
3/31/2021 4:45:00 AM 7.66 45.788 0.027 6.81 2.76 11.32
3/31/2021 5:00:00 AM 7.64 45.752 0.027 6.8 2.92 11.32
3/31/2021 5:15:00 AM 7.62 45.716 0.027 6.78 3.55 11.33
3/31/2021 5:30:00 AM 7.6 45.68 0.027 6.8 2.54 11.34
3/31/2021 5:45:00 AM 7.58 45.644 0.027 6.8 2.62 11.35
3/31/2021 6:00:00 AM 7.56 45.608 0.027 6.79 2.59 11.35
3/31/2021 6:15:00 AM 7.54 45.572 0.027 6.71 2.48 11.36
3/31/2021 6:30:00 AM 7.52 45.536 0.027 6.81 2.51 11.36
3/31/2021 6:45:00 AM 7.51 45.518 0.027 6.79 2.53 11.37
3/31/2021 7:00:00 AM 7.5 45.5 0.027 6.79 2.63 11.37
3/31/2021 7:15:00 AM 7.49 45.482 0.027 6.78 2.63 11.38
3/31/2021 7:30:00 AM 7.49 45.482 0.027 6.76 2.62 11.39
3/31/2021 7:45:00 AM 7.49 45.482 0.027 6.71 2.55 11.39
3/31/2021 8:00:00 AM 7.48 45.464 0.027 6.81 2.55 11.4
3/31/2021 8:15:00 AM 7.48 45.464 0.027 6.8 2.53 11.41
3/31/2021 8:30:00 AM 7.47 45.446 0.027 6.81 2.29 11.42
3/31/2021 8:45:00 AM 7.48 45.464 0.027 6.78 2.45 11.43
3/31/2021 9:00:00 AM 7.47 45.446 0.027 6.72 2.37 11.44
3/31/2021 9:15:00 AM 7.47 45.446 0.027 6.83 2.48 11.44
3/31/2021 9:30:00 AM 7.47 45.446 0.027 6.8 2.41 11.44
3/31/2021 9:45:00 AM 7.48 45.464 0.027 6.76 2.54 11.45
3/31/2021 10:00:00 AM 7.49 45.482 0.027 6.73 2.58 11.47
3/31/2021 10:15:00 AM 7.5 45.5 0.027 6.83 2.81 11.47
3/31/2021 10:30:00 AM 7.52 45.536 0.027 6.84 2.98 11.48
3/31/2021 10:45:00 AM 7.53 45.554 0.027 6.85 3.32 11.48
3/31/2021 11:00:00 AM 7.54 45.572 0.027 6.85 3.75 11.46
3/31/2021 11:15:00 AM 7.56 45.608 0.027 6.75 3.82 11.47
3/31/2021 11:30:00 AM 7.58 45.644 0.027 6.79 4.03 11.47
3/31/2021 11:45:00 AM 7.59 45.662 0.027 6.82 3.61 11.46
3/31/2021 12:00:00 PM 7.61 45.698 0.027 6.82 3.28 11.46
3/31/2021 12:15:00 PM 7.64 45.752 0.027 6.74 3.05 11.47
3/31/2021 12:30:00 PM 7.68 45.824 0.027 6.8 3.11 11.48
3/31/2021 12:45:00 PM 7.74 45.932 0.027 6.88 3.09 11.48
3/31/2021 1:00:00 PM 7.77 45.986 0.027 6.88 3.12 11.47
3/31/2021 1:15:00 PM 7.79 46.022 0.027 6.87 3.17 11.45
3/31/2021 1:30:00 PM 7.82 46.076 0.027 6.79 3.2 11.43
3/31/2021 1:45:00 PM 7.85 46.13 0.027 6.81 3.35 11.42
3/31/2021 2:00:00 PM 7.88 46.184 0.027 6.81 3.29 11.41
3/31/2021 2:15:00 PM 7.92 46.256 0.027 6.8 3.18 11.4
3/31/2021 2:30:00 PM 7.95 46.31 0.027 6.88 3.29 11.39
3/31/2021 2:45:00 PM 7.96 46.328 0.027 6.88 3.15 11.35
3/31/2021 3:00:00 PM 7.96 46.328 0.027 6.85 3.19 11.33
3/31/2021 3:15:00 PM 7.97 46.346 0.027 6.77 3.06 11.31
3/31/2021 3:30:00 PM 7.99 46.382 0.027 6.78 3.06 11.32
3/31/2021 3:45:00 PM 8.01 46.418 0.027 6.78 2.88 11.32
3/31/2021 4:00:00 PM 8.01 46.418 0.027 6.78 2.93 11.3
3/31/2021 4:15:00 PM 8.03 46.454 0.027 6.85 3 11.28
3/31/2021 4:30:00 PM 8.04 46.472 0.027 6.77 2.96 11.28
3/31/2021 4:45:00 PM 8.03 46.454 0.027 6.84 2.85 11.27
3/31/2021 5:00:00 PM 8.02 46.436 0.027 6.82 2.86 11.28
3/31/2021 5:15:00 PM 8.04 46.472 0.027 6.83 2.88 11.31
3/31/2021 5:30:00 PM 8.03 46.454 0.027 6.75 2.78 11.3
3/31/2021 5:45:00 PM 8.03 46.454 0.027 6.84 2.8 11.3
3/31/2021 6:00:00 PM 8.04 46.472 0.027 6.86 2.8 11.3
3/31/2021 6:15:00 PM 8.03 46.454 0.027 6.85 2.63 11.3
3/31/2021 6:30:00 PM 8.04 46.472 0.027 6.74 2.75 11.31
3/31/2021 6:45:00 PM 8.03 46.454 0.027 6.8 2.71 11.3
3/31/2021 7:00:00 PM 8 46.4 0.027 6.81 2.68 11.28
3/31/2021 7:15:00 PM 7.98 46.364 0.027 6.83 2.67 11.28
3/31/2021 7:30:00 PM 7.96 46.328 0.027 6.81 2.67 11.27
3/31/2021 7:45:00 PM 7.93 46.274 0.027 6.82 2.82 11.26
3/31/2021 8:00:00 PM 7.89 46.202 0.027 6.82 2.65 11.27
3/31/2021 8:15:00 PM 7.85 46.13 0.027 6.81 2.65 11.28
3/31/2021 8:30:00 PM 7.79 46.022 0.027 6.8 2.66 11.29
3/31/2021 8:45:00 PM 7.73 45.914 0.027 6.77 2.61 11.3
3/31/2021 9:00:00 PM 7.67 45.806 0.027 6.81 2.67 11.32
3/31/2021 9:15:00 PM 7.61 45.698 0.027 6.69 2.64 11.34
3/31/2021 9:30:00 PM 7.55 45.59 0.027 6.8 2.64 11.36
3/31/2021 9:45:00 PM 7.51 45.518 0.027 6.7 2.6 11.38
3/31/2021 10:00:00 PM 7.46 45.428 0.027 6.81 2.58 11.4
3/31/2021 10:15:00 PM 7.41 45.338 0.027 6.68 2.61 11.42
3/31/2021 10:30:00 PM 7.37 45.266 0.027 6.75 2.75 11.43
3/31/2021 10:45:00 PM 7.34 45.212 0.027 6.8 2.58 11.44
3/31/2021 11:00:00 PM 7.3 45.14 0.027 6.79 2.6 11.46
3/31/2021 11:15:00 PM 7.26 45.068 0.027 6.79 2.64 11.47
3/31/2021 11:30:00 PM 7.23 45.014 0.027 6.79 2.6 11.48
3/31/2021 11:45:00 PM 7.2 44.96 0.027 6.79 2.58 11.49
4/1/2021 12:00:00 AM 7.16 44.888 0.027 6.69 2.54 11.5
4/1/2021 12:15:00 AM 7.13 44.834 0.027 6.75 2.64 11.51
4/1/2021 12:30:00 AM 7.09 44.762 0.027 6.74 2.59 11.52
4/1/2021 12:45:00 AM 7.05 44.69 0.027 6.73 2.51 11.53
4/1/2021 1:00:00 AM 7.01 44.618 0.027 6.75 2.47 11.55
4/1/2021 1:15:00 AM 6.98 44.564 0.027 6.81 2.53 11.56
4/1/2021 1:30:00 AM 6.93 44.474 0.027 6.79 2.51 11.57
4/1/2021 1:45:00 AM 6.88 44.384 0.027 6.79 2.48 11.58
4/1/2021 2:00:00 AM 6.85 44.33 0.027 6.78 2.62 11.59
4/1/2021 2:15:00 AM 6.81 44.258 0.027 6.76 2.49 11.6
4/1/2021 2:30:00 AM 6.77 44.186 0.027 6.82 2.52 11.61
4/1/2021 2:45:00 AM 6.73 44.114 0.027 6.8 2.5 11.62
4/1/2021 3:00:00 AM 6.69 44.042 0.027 6.74 2.58 11.63
4/1/2021 3:15:00 AM 6.66 43.988 0.027 6.69 2.56 11.63
4/1/2021 3:30:00 AM 6.63 43.934 0.027 6.8 2.6 11.64
4/1/2021 3:45:00 AM 6.59 43.862 0.027 6.74 2.66 11.65
4/1/2021 4:00:00 AM 6.56 43.808 0.027 6.78 2.62 11.66
4/1/2021 4:15:00 AM 6.53 43.754 0.027 6.7 2.57 11.67
4/1/2021 4:30:00 AM 6.5 43.7 0.027 6.77 2.5 11.68
4/1/2021 4:45:00 AM 6.47 43.646 0.027 6.79 2.54 11.69
4/1/2021 5:00:00 AM 6.45 43.61 0.027 6.69 2.48 11.7
4/1/2021 5:15:00 AM 6.42 43.556 0.027 6.74 2.48 11.71
4/1/2021 5:30:00 AM 6.39 43.502 0.027 6.81 2.48 11.71
4/1/2021 5:45:00 AM 6.37 43.466 0.027 6.78 2.34 11.72
4/1/2021 6:00:00 AM 6.34 43.412 0.027 6.67 2.44 11.74
4/1/2021 6:15:00 AM 6.3 43.34 0.027 6.8 2.4 11.75
4/1/2021 6:30:00 AM 6.26 43.268 0.027 6.69 2.45 11.76
4/1/2021 6:45:00 AM 6.22 43.196 0.027 6.82 2.48 11.78
4/1/2021 7:00:00 AM 6.18 43.124 0.027 6.67 2.43 11.8
4/1/2021 7:15:00 AM 6.14 43.052 0.027 6.83 2.48 11.82
4/1/2021 7:30:00 AM 6.1 42.98 0.027 6.73 2.41 11.85
4/1/2021 7:45:00 AM 6.07 42.926 0.027 6.79 2.39 11.88
4/1/2021 8:00:00 AM 6.05 42.89 0.027 6.75 2.45 11.91
4/1/2021 8:15:00 AM 6.03 42.854 0.027 6.78 2.37 11.95
4/1/2021 8:30:00 AM 6.02 42.836 0.027 6.83 2.31 11.98
4/1/2021 8:45:00 AM 6 42.8 0.027 6.83 2.34 12
4/1/2021 9:00:00 AM 5.98 42.764 0.027 6.86 2.39 12.01
4/1/2021 9:15:00 AM 5.97 42.746 0.027 6.82 2.32 12.02
4/1/2021 9:30:00 AM 5.95 42.71 0.027 6.74 2.34 12.03
4/1/2021 9:45:00 AM 5.92 42.656 0.027 6.8 2.56 12.03
4/1/2021 10:00:00 AM 5.91 42.638 0.027 6.78 2.42 12.06
4/1/2021 10:15:00 AM 5.91 42.638 0.027 6.86 2.34 12.07
4/1/2021 10:30:00 AM 5.89 42.602 0.027 6.87 2.36 12.09
4/1/2021 10:45:00 AM 5.9 42.62 0.027 6.85 2.38 12.1
4/1/2021 11:00:00 AM 5.9 42.62 0.027 6.88 2.28 12.1
4/1/2021 11:15:00 AM 5.94 42.692 0.027 6.84 2.3 12.11
4/1/2021 11:30:00 AM 5.99 42.782 0.027 6.8 2.3 12.1
4/1/2021 11:45:00 AM 6.04 42.872 0.027 6.8 2.26 12.1
4/1/2021 12:00:00 PM 6.18 43.124 0.027 6.81 2.29 12.07
4/1/2021 12:15:00 PM 6.21 43.178 0.027 6.81 2.31 12.05
4/1/2021 12:30:00 PM 6.25 43.25 0.027 6.85 2.28 12.04
4/1/2021 12:45:00 PM 6.29 43.322 0.027 6.88 2.22 12.02
4/1/2021 1:00:00 PM 6.33 43.394 0.027 6.87 2.32 12
4/1/2021 1:15:00 PM 6.34 43.412 0.027 6.84 2.25 11.99
4/1/2021 1:30:00 PM 6.34 43.412 0.027 6.8 2.33 11.98
4/1/2021 1:45:00 PM 6.27 43.286 0.027 6.82 2.31 11.99
4/1/2021 2:00:00 PM 6.23 43.214 0.027 6.81 2.25 12
4/1/2021 2:15:00 PM 6.25 43.25 0.027 6.82 2.19 12.01
4/1/2021 2:30:00 PM 6.22 43.196 0.027 6.82 2.21 12.01
4/1/2021 2:45:00 PM 6.19 43.142 0.027 6.85 2.26 12.01
4/1/2021 3:00:00 PM 6.16 43.088 0.027 6.85 2.37 12.01
4/1/2021 3:15:00 PM 6.12 43.016 0.027 6.85 2.29 12.01
4/1/2021 3:30:00 PM 6.09 42.962 0.027 6.75 2.43 12.03
4/1/2021 3:45:00 PM 6.06 42.908 0.027 6.88 2.32 12.03
4/1/2021 4:00:00 PM 6.09 42.962 0.027 6.76 2.3 12.05
4/1/2021 4:15:00 PM 6.07 42.926 0.027 6.88 2.28 12.05
4/1/2021 4:30:00 PM 6.03 42.854 0.027 6.84 2.24 12.06
4/1/2021 4:45:00 PM 6.05 42.89 0.027 6.75 2.18 12.07
4/1/2021 5:00:00 PM 6.08 42.944 0.027 6.89 2.35 12.07
4/1/2021 5:15:00 PM 6.02 42.836 0.027 6.83 2.32 12.08
4/1/2021 5:30:00 PM 5.97 42.746 0.027 6.75 2.28 12.07
4/1/2021 5:45:00 PM 5.92 42.656 0.027 6.87 2.27 12.07
4/1/2021 6:00:00 PM 5.87 42.566 0.027 6.75 2.27 12.08
4/1/2021 6:15:00 PM 5.83 42.494 0.027 6.79 2.27 12.08
4/1/2021 6:30:00 PM 5.79 42.422 0.027 6.81 2.29 12.08
4/1/2021 6:45:00 PM 5.75 42.35 0.027 6.85 2.31 12.1
4/1/2021 7:00:00 PM 5.7 42.26 0.027 6.78 2.22 12.11
4/1/2021 7:15:00 PM 5.64 42.152 0.027 6.83 2.31 12.11
4/1/2021 7:30:00 PM 5.58 42.044 0.027 6.72 2.29 12.1
4/1/2021 7:45:00 PM 5.53 41.954 0.027 6.84 2.32 12.09
4/1/2021 8:00:00 PM 5.47 41.846 0.027 6.81 2.26 12.1
4/1/2021 8:15:00 PM 5.43 41.774 0.027 6.66 2.28 12.1
4/1/2021 8:30:00 PM 5.37 41.666 0.027 6.83 2.33 12.12
4/1/2021 8:45:00 PM 5.34 41.612 0.027 6.79 2.27 12.13
4/1/2021 9:00:00 PM 5.3 41.54 0.027 6.8 2.32 12.15
4/1/2021 9:15:00 PM 5.24 41.432 0.027 6.7 2.27 12.16
4/1/2021 9:30:00 PM 5.2 41.36 0.027 6.75 2.3 12.18
4/1/2021 9:45:00 PM 5.15 41.27 0.027 6.81 2.29 12.2
4/1/2021 10:00:00 PM 5.08 41.144 0.027 6.79 2.41 12.21
4/1/2021 10:15:00 PM 5.03 41.054 0.027 6.82 2.34 12.23
4/1/2021 10:30:00 PM 5 41 0.027 6.75 2.32 12.25
4/1/2021 10:45:00 PM 4.97 40.946 0.027 6.79 2.33 12.27
4/1/2021 11:00:00 PM 4.91 40.838 0.027 6.76 2.3 12.29
4/1/2021 11:15:00 PM 4.85 40.73 0.027 6.75 2.34 12.31
4/1/2021 11:30:00 PM 4.78 40.604 0.027 6.8 2.3 12.34
4/1/2021 11:45:00 PM 4.73 40.514 0.027 6.75 2.25 12.36
4/2/2021 12:00:00 AM 4.69 40.442 0.027 6.74 2.3 12.37
4/2/2021 12:15:00 AM 4.65 40.37 0.027 6.8 2.25 12.39
4/2/2021 12:30:00 AM 4.61 40.298 0.027 6.72 2.28 12.4
4/2/2021 12:45:00 AM 4.55 40.19 0.027 6.81 2.33 12.42
4/2/2021 1:00:00 AM 4.51 40.118 0.027 6.8 2.25 12.44
4/2/2021 1:15:00 AM 4.47 40.046 0.027 6.81 2.23 12.46
4/2/2021 1:30:00 AM 4.43 39.974 0.027 6.74 2.21 12.47
4/2/2021 1:45:00 AM 4.39 39.902 0.027 6.8 2.25 12.49
4/2/2021 2:00:00 AM 4.36 39.848 0.027 6.79 2.19 12.51
4/2/2021 2:15:00 AM 4.32 39.776 0.027 6.77 2.23 12.53
4/2/2021 2:30:00 AM 4.27 39.686 0.027 6.69 2.19 12.54
4/2/2021 2:45:00 AM 4.23 39.614 0.027 6.76 2.21 12.56
4/2/2021 3:00:00 AM 4.19 39.542 0.027 6.76 2.19 12.57
4/2/2021 3:15:00 AM 4.13 39.434 0.027 6.82 2.22 12.59
4/2/2021 3:30:00 AM 4.09 39.362 0.027 6.77 2.18 12.61
4/2/2021 3:45:00 AM 4.04 39.272 0.027 6.76 2.23 12.63
4/2/2021 4:00:00 AM 3.99 39.182 0.027 6.71 2.19 12.65
4/2/2021 4:15:00 AM 3.94 39.092 0.027 6.76 2.19 12.67
4/2/2021 4:30:00 AM 3.89 39.002 0.027 6.79 2.17 12.69
4/2/2021 4:45:00 AM 3.84 38.912 0.027 6.75 2.18 12.71
4/2/2021 5:00:00 AM 3.8 38.84 0.027 6.7 2.21 12.73
4/2/2021 5:15:00 AM 3.75 38.75 0.027 6.73 2.16 12.74
4/2/2021 5:30:00 AM 3.7 38.66 0.027 6.81 2.23 12.76
4/2/2021 5:45:00 AM 3.65 38.57 0.028 6.75 2.21 12.78
4/2/2021 6:00:00 AM 3.6 38.48 0.028 6.8 2.15 12.8
4/2/2021 6:15:00 AM 3.55 38.39 0.028 6.78 2.14 12.82
4/2/2021 6:30:00 AM 3.51 38.318 0.028 6.77 2.15 12.84
4/2/2021 6:45:00 AM 3.46 38.228 0.028 6.76 2.17 12.86
4/2/2021 7:00:00 AM 3.41 38.138 0.028 6.7 2.13 12.88
4/2/2021 7:15:00 AM 3.37 38.066 0.028 6.73 2.15 12.92
4/2/2021 7:30:00 AM 3.33 37.994 0.028 6.78 2.09 12.95
4/2/2021 7:45:00 AM 3.29 37.922 0.028 6.72 2.16 12.98
4/2/2021 8:00:00 AM 3.26 37.868 0.028 6.75 2.13 13.01
4/2/2021 8:15:00 AM 3.23 37.814 0.028 6.71 2.17 13.04
4/2/2021 8:30:00 AM 3.21 37.778 0.028 6.83 2.09 13.06
4/2/2021 8:45:00 AM 3.21 37.778 0.027 6.8 2.1 13.08
4/2/2021 9:00:00 AM 3.24 37.832 0.027 6.8 2.06 13.1
4/2/2021 9:15:00 AM 3.26 37.868 0.027 6.82 2.16 13.11
4/2/2021 9:30:00 AM 3.28 37.904 0.027 6.81 2.1 13.12
4/2/2021 9:45:00 AM 3.3 37.94 0.027 6.82 2.13 13.12
4/2/2021 10:00:00 AM 3.36 38.048 0.027 6.83 2.09 13.11
4/2/2021 10:15:00 AM 3.42 38.156 0.027 6.83 2.12 13.1
4/2/2021 10:30:00 AM 3.5 38.3 0.027 6.82 2.07 13.08
4/2/2021 10:45:00 AM 3.6 38.48 0.027 6.75 2.04 13.06
4/2/2021 11:00:00 AM 3.69 38.642 0.027 6.79 2.07 13.04
4/2/2021 11:15:00 AM 3.81 38.858 0.027 6.79 2.05 13.01
4/2/2021 11:30:00 AM 3.94 39.092 0.027 6.86 2.11 12.97
4/2/2021 11:45:00 AM 4.08 39.344 0.027 6.86 2.12 12.93
4/2/2021 12:00:00 PM 4.22 39.596 0.027 6.87 2.01 12.88
4/2/2021 12:15:00 PM 4.39 39.902 0.027 6.75 2.06 12.83
4/2/2021 12:30:00 PM 4.57 40.226 0.027 6.79 2.04 12.76
4/2/2021 12:45:00 PM 4.76 40.568 0.027 6.83 1.99 12.7
4/2/2021 1:00:00 PM 4.94 40.892 0.027 6.88 2.07 12.63
4/2/2021 1:15:00 PM 5.15 41.27 0.027 6.84 2 12.56
4/2/2021 1:30:00 PM 5.36 41.648 0.027 6.88 2.09 12.49
4/2/2021 1:45:00 PM 5.55 41.99 0.027 6.83 2.03 12.42
4/2/2021 2:00:00 PM 5.76 42.368 0.027 6.89 2.48 12.36
4/2/2021 2:15:00 PM 5.93 42.674 0.027 6.87 2.47 12.3
4/2/2021 2:30:00 PM 6.06 42.908 0.027 6.85 2.49 12.25
4/2/2021 2:45:00 PM 6.2 43.16 0.027 6.89 2.52 12.21
4/2/2021 3:00:00 PM 6.31 43.358 0.027 6.85 2.54 12.17
4/2/2021 3:15:00 PM 6.36 43.448 0.027 6.81 2.55 12.14
4/2/2021 3:30:00 PM 6.42 43.556 0.027 6.88 2.41 12.12
4/2/2021 3:45:00 PM 6.43 43.574 0.027 6.87 2.42 12.1
4/2/2021 4:00:00 PM 6.44 43.592 0.027 6.86 2.38 12.1
4/2/2021 4:15:00 PM 6.43 43.574 0.027 6.85 2.29 12.08
4/2/2021 4:30:00 PM 6.39 43.502 0.027 6.87 2.21 12.08
4/2/2021 4:45:00 PM 6.34 43.412 0.027 6.86 2.27 12.08
4/2/2021 5:00:00 PM 6.25 43.25 0.027 6.87 2.19 12.09
4/2/2021 5:15:00 PM 6.17 43.106 0.027 6.88 2.33 12.11
4/2/2021 5:30:00 PM 6.09 42.962 0.027 6.83 2.29 12.12
4/2/2021 5:45:00 PM 6.01 42.818 0.027 6.87 2.27 12.13
4/2/2021 6:00:00 PM 5.93 42.674 0.027 6.83 2.23 12.14
4/2/2021 6:15:00 PM 5.84 42.512 0.027 6.86 2.2 12.15
4/2/2021 6:30:00 PM 5.76 42.368 0.027 6.75 2.21 12.15
4/2/2021 6:45:00 PM 5.69 42.242 0.027 6.79 2.13 12.16
4/2/2021 7:00:00 PM 5.61 42.098 0.027 6.81 2.14 12.16
4/2/2021 7:15:00 PM 5.52 41.936 0.027 6.73 2.12 12.17
4/2/2021 7:30:00 PM 5.43 41.774 0.027 6.84 2.13 12.18
4/2/2021 7:45:00 PM 5.36 41.648 0.027 6.82 2.2 12.19
4/2/2021 8:00:00 PM 5.28 41.504 0.027 6.72 2.13 12.2
4/2/2021 8:15:00 PM 5.2 41.36 0.028 6.76 2.15 12.22
4/2/2021 8:30:00 PM 5.12 41.216 0.028 6.76 2.13 12.24
4/2/2021 8:45:00 PM 5.05 41.09 0.028 6.75 2.14 12.27
4/2/2021 9:00:00 PM 4.99 40.982 0.028 6.75 2.13 12.29
4/2/2021 9:15:00 PM 4.92 40.856 0.028 6.75 2.17 12.32
4/2/2021 9:30:00 PM 4.85 40.73 0.028 6.81 2.2 12.34
4/2/2021 9:45:00 PM 4.79 40.622 0.028 6.8 2.26 12.37
4/2/2021 10:00:00 PM 4.72 40.496 0.028 6.75 2.28 12.4
4/2/2021 10:15:00 PM 4.66 40.388 0.028 6.79 2.22 12.42
4/2/2021 10:30:00 PM 4.59 40.262 0.028 6.78 2.22 12.45
4/2/2021 10:45:00 PM 4.53 40.154 0.028 6.79 2.21 12.47
4/2/2021 11:00:00 PM 4.48 40.064 0.028 6.77 2.19 12.5
4/2/2021 11:15:00 PM 4.42 39.956 0.028 6.8 2.27 12.52
4/2/2021 11:30:00 PM 4.37 39.866 0.028 6.81 2.2 12.54
4/2/2021 11:45:00 PM 4.32 39.776 0.028 6.78 2.18 12.57
4/3/2021 12:00:00 AM 4.27 39.686 0.028 6.79 2.18 12.59
4/3/2021 12:15:00 AM 4.22 39.596 0.028 6.82 2.15 12.61
4/3/2021 12:30:00 AM 4.17 39.506 0.028 6.77 2.22 12.62
4/3/2021 12:45:00 AM 4.12 39.416 0.028 6.81 2.25 12.64
4/3/2021 1:00:00 AM 4.08 39.344 0.028 6.78 2.16 12.66
4/3/2021 1:15:00 AM 4.03 39.254 0.028 6.8 2.15 12.68
4/3/2021 1:30:00 AM 3.99 39.182 0.028 6.76 2.16 12.69
4/3/2021 1:45:00 AM 3.94 39.092 0.028 6.8 2.16 12.71
4/3/2021 2:00:00 AM 3.9 39.02 0.028 6.79 2.17 12.73
4/3/2021 2:15:00 AM 3.86 38.948 0.028 6.79 2.17 12.75
4/3/2021 2:30:00 AM 3.81 38.858 0.028 6.79 2.17 12.76
4/3/2021 2:45:00 AM 3.77 38.786 0.028 6.79 2.13 12.78
4/3/2021 3:00:00 AM 3.73 38.714 0.028 6.79 2.13 12.79
4/3/2021 3:15:00 AM 3.69 38.642 0.028 6.79 2.15 12.81
4/3/2021 3:30:00 AM 3.64 38.552 0.028 6.8 2.16 12.83
4/3/2021 3:45:00 AM 3.6 38.48 0.028 6.79 2.18 12.84
4/3/2021 4:00:00 AM 3.56 38.408 0.028 6.78 2.18 12.86
4/3/2021 4:15:00 AM 3.52 38.336 0.028 6.79 2.12 12.87
4/3/2021 4:30:00 AM 3.48 38.264 0.028 6.8 2.11 12.89
4/3/2021 4:45:00 AM 3.44 38.192 0.028 6.79 2.11 12.91
4/3/2021 5:00:00 AM 3.4 38.12 0.028 6.8 2.15 12.92
4/3/2021 5:15:00 AM 3.36 38.048 0.028 6.66 2.11 12.94
4/3/2021 5:30:00 AM 3.32 37.976 0.028 6.81 2.13 12.96
4/3/2021 5:45:00 AM 3.28 37.904 0.028 6.79 2.16 12.97
4/3/2021 6:00:00 AM 3.24 37.832 0.028 6.78 2.12 12.99
4/3/2021 6:15:00 AM 3.2 37.76 0.028 6.79 2.12 13
4/3/2021 6:30:00 AM 3.16 37.688 0.028 6.73 2.09 13.02
4/3/2021 6:45:00 AM 3.12 37.616 0.028 6.7 2.08 13.04
4/3/2021 7:00:00 AM 3.08 37.544 0.028 6.73 2.05 13.06
4/3/2021 7:15:00 AM 3.05 37.49 0.028 6.75 2.11 13.09
4/3/2021 7:30:00 AM 3.01 37.418 0.028 6.74 2.05 13.12
4/3/2021 7:45:00 AM 2.99 37.382 0.028 6.75 2.1 13.15
4/3/2021 8:00:00 AM 2.96 37.328 0.028 6.81 2.04 13.18
4/3/2021 8:15:00 AM 2.94 37.292 0.028 6.79 2.04 13.2
4/3/2021 8:30:00 AM 2.93 37.274 0.028 6.83 2.05 13.22
4/3/2021 8:45:00 AM 2.94 37.292 0.028 6.84 2.13 13.24
4/3/2021 9:00:00 AM 2.98 37.364 0.028 6.75 2.02 13.25
4/3/2021 9:15:00 AM 3.02 37.436 0.028 6.81 2.04 13.26
4/3/2021 9:30:00 AM 3.09 37.562 0.028 6.83 1.97 13.26
4/3/2021 9:45:00 AM 3.16 37.688 0.028 6.87 2.02 13.25
4/3/2021 10:00:00 AM 3.23 37.814 0.028 6.75 2.06 13.23
4/3/2021 10:15:00 AM 3.34 38.012 0.028 6.86 2.03 13.2
4/3/2021 10:30:00 AM 3.46 38.228 0.028 6.85 2 13.17
4/3/2021 10:45:00 AM 3.6 38.48 0.028 6.85 2 13.13
4/3/2021 11:00:00 AM 3.75 38.75 0.028 6.84 2.06 13.09
4/3/2021 11:15:00 AM 3.91 39.038 0.028 6.84 2 13.05
4/3/2021 11:30:00 AM 4.06 39.308 0.028 6.85 2.03 13
4/3/2021 11:45:00 AM 4.17 39.506 0.028 6.75 1.95 12.96
4/3/2021 12:00:00 PM 4.27 39.686 0.028 6.81 2.05 12.91
4/3/2021 12:15:00 PM 4.39 39.902 0.028 6.89 1.98 12.86
4/3/2021 12:30:00 PM 4.64 40.352 0.028 6.86 2.01 12.79
4/3/2021 12:45:00 PM 4.91 40.838 0.028 6.83 1.98 12.7
4/3/2021 1:00:00 PM 5.08 41.144 0.028 6.79 1.97 12.63
4/3/2021 1:15:00 PM 5.21 41.378 0.028 6.81 1.92 12.57
4/3/2021 1:30:00 PM 5.41 41.738 0.028 6.82 1.97 12.5
4/3/2021 1:45:00 PM 5.59 42.062 0.028 6.9 1.97 12.43
4/3/2021 2:00:00 PM 5.89 42.602 0.028 6.86 1.97 12.34
4/3/2021 2:15:00 PM 6.13 43.034 0.027 6.9 2.04 12.27
4/3/2021 2:30:00 PM 6.33 43.394 0.027 6.87 1.98 12.21
4/3/2021 2:45:00 PM 6.42 43.556 0.027 6.89 2.03 12.15
4/3/2021 3:00:00 PM 6.49 43.682 0.027 6.77 2 12.12
4/3/2021 3:15:00 PM 6.54 43.772 0.027 6.88 1.96 12.09
4/3/2021 3:30:00 PM 6.62 43.916 0.027 6.76 1.99 12.06
4/3/2021 3:45:00 PM 6.68 44.024 0.027 6.83 1.96 12.03
4/3/2021 4:00:00 PM 6.72 44.096 0.027 6.92 2.02 12.02
4/3/2021 4:15:00 PM 6.69 44.042 0.027 6.89 1.99 12
4/3/2021 4:30:00 PM 6.7 44.06 0.027 6.89 1.99 12
4/3/2021 4:45:00 PM 6.7 44.06 0.027 6.9 1.99 11.98
4/3/2021 5:00:00 PM 6.65 43.97 0.027 6.88 1.97 11.98
4/3/2021 5:15:00 PM 6.65 43.97 0.027 6.91 2.01 11.97
4/3/2021 5:30:00 PM 6.65 43.97 0.027 6.86 2.04 11.96
4/3/2021 5:45:00 PM 6.6 43.88 0.027 6.83 2.02 11.95
4/3/2021 6:00:00 PM 6.56 43.808 0.028 6.89 2.08 11.94
4/3/2021 6:15:00 PM 6.53 43.754 0.028 6.87 2.08 11.91
4/3/2021 6:30:00 PM 6.5 43.7 0.028 6.87 2.03 11.91
4/3/2021 6:45:00 PM 6.47 43.646 0.028 6.85 2.05 11.92
4/3/2021 7:00:00 PM 6.44 43.592 0.028 6.86 2.09 11.91
4/3/2021 7:15:00 PM 6.42 43.556 0.028 6.84 2.07 11.89
4/3/2021 7:30:00 PM 6.39 43.502 0.028 6.83 2.07 11.87
4/3/2021 7:45:00 PM 6.36 43.448 0.028 6.83 2.08 11.87
4/3/2021 8:00:00 PM 6.33 43.394 0.028 6.75 2.09 11.86
4/3/2021 8:15:00 PM 6.3 43.34 0.028 6.77 2.1 11.86
4/3/2021 8:30:00 PM 6.27 43.286 0.028 6.83 2.09 11.86
4/3/2021 8:45:00 PM 6.24 43.232 0.028 6.82 2.11 11.87
4/3/2021 9:00:00 PM 6.21 43.178 0.028 6.71 2.07 11.88
4/3/2021 9:15:00 PM 6.19 43.142 0.028 6.75 2.18 11.89
4/3/2021 9:30:00 PM 6.16 43.088 0.028 6.76 2.12 11.9
4/3/2021 9:45:00 PM 6.14 43.052 0.028 6.82 2.1 11.91
4/3/2021 10:00:00 PM 6.11 42.998 0.028 6.83 2.12 11.91
4/3/2021 10:15:00 PM 6.09 42.962 0.028 6.82 2.15 11.92
4/3/2021 10:30:00 PM 6.06 42.908 0.028 6.79 2.09 11.93
4/3/2021 10:45:00 PM 6.04 42.872 0.028 6.83 2.1 11.93
4/3/2021 11:00:00 PM 6.01 42.818 0.028 6.82 2.1 11.94
4/3/2021 11:15:00 PM 5.99 42.782 0.028 6.81 2.11 11.94
4/3/2021 11:30:00 PM 5.96 42.728 0.028 6.81 2.11 11.95
4/3/2021 11:45:00 PM 5.94 42.692 0.028 6.8 2.07 11.95
4/4/2021 12:00:00 AM 5.92 42.656 0.028 6.81 2.16 11.96
4/4/2021 12:15:00 AM 5.89 42.602 0.028 6.81 2.13 11.96
4/4/2021 12:30:00 AM 5.87 42.566 0.028 6.81 2.08 11.97
4/4/2021 12:45:00 AM 5.85 42.53 0.028 6.81 2.21 11.97
4/4/2021 1:00:00 AM 5.83 42.494 0.028 6.8 2.14 11.98
4/4/2021 1:15:00 AM 5.81 42.458 0.028 6.81 2.1 11.98
4/4/2021 1:30:00 AM 5.78 42.404 0.028 6.78 2.09 11.98
4/4/2021 1:45:00 AM 5.76 42.368 0.028 6.82 2.16 11.99
4/4/2021 2:00:00 AM 5.74 42.332 0.028 6.8 2.08 11.99
4/4/2021 2:15:00 AM 5.71 42.278 0.028 6.69 2.17 12
4/4/2021 2:30:00 AM 5.66 42.188 0.028 6.83 2.15 12
4/4/2021 2:45:00 AM 5.61 42.098 0.028 6.8 2.12 12.01
4/4/2021 3:00:00 AM 5.57 42.026 0.028 6.8 2.1 12.02
4/4/2021 3:15:00 AM 5.52 41.936 0.028 6.81 2.13 12.03
4/4/2021 3:30:00 AM 5.47 41.846 0.028 6.66 2.08 12.04
4/4/2021 3:45:00 AM 5.42 41.756 0.028 6.75 2.12 12.05
4/4/2021 4:00:00 AM 5.37 41.666 0.028 6.82 2.11 12.07
4/4/2021 4:15:00 AM 5.31 41.558 0.028 6.8 2.15 12.08
4/4/2021 4:30:00 AM 5.26 41.468 0.028 6.67 2.14 12.1
4/4/2021 4:45:00 AM 5.22 41.396 0.028 6.75 2.14 12.11
4/4/2021 5:00:00 AM 5.18 41.324 0.028 6.81 2.12 12.13
4/4/2021 5:15:00 AM 5.16 41.288 0.028 6.8 2.12 12.14
4/4/2021 5:30:00 AM 5.13 41.234 0.028 6.8 2.14 12.15
4/4/2021 5:45:00 AM 5.09 41.162 0.028 6.8 2.11 12.17
4/4/2021 6:00:00 AM 5.03 41.054 0.028 6.66 2.15 12.18
4/4/2021 6:15:00 AM 4.99 40.982 0.028 6.8 2.16 12.2
4/4/2021 6:30:00 AM 4.94 40.892 0.028 6.81 2.12 12.21
4/4/2021 6:45:00 AM 4.9 40.82 0.028 6.79 2.11 12.23
4/4/2021 7:00:00 AM 4.86 40.748 0.028 6.78 2.12 12.25
4/4/2021 7:15:00 AM 4.82 40.676 0.028 6.76 2.02 12.28
4/4/2021 7:30:00 AM 4.78 40.604 0.028 6.8 2.08 12.32
4/4/2021 7:45:00 AM 4.75 40.55 0.028 6.82 2.09 12.36
4/4/2021 8:00:00 AM 4.73 40.514 0.028 6.71 2.08 12.39
4/4/2021 8:15:00 AM 4.7 40.46 0.028 6.85 2.06 12.42
4/4/2021 8:30:00 AM 4.7 40.46 0.028 6.71 2.06 12.44
4/4/2021 8:45:00 AM 4.7 40.46 0.028 6.8 2.04 12.46
4/4/2021 9:00:00 AM 4.74 40.532 0.028 6.83 2.04 12.47
4/4/2021 9:15:00 AM 4.78 40.604 0.028 6.88 2.03 12.48
4/4/2021 9:30:00 AM 4.83 40.694 0.028 6.86 2.03 12.48
4/4/2021 9:45:00 AM 4.89 40.802 0.028 6.74 2.07 12.47
4/4/2021 10:00:00 AM 4.97 40.946 0.028 6.88 2.03 12.46
4/4/2021 10:15:00 AM 5.08 41.144 0.028 6.89 2.07 12.43
4/4/2021 10:30:00 AM 5.21 41.378 0.028 6.87 2.06 12.4
4/4/2021 10:45:00 AM 5.36 41.648 0.028 6.87 2.03 12.37
4/4/2021 11:00:00 AM 5.53 41.954 0.028 6.87 1.98 12.33
4/4/2021 11:15:00 AM 5.72 42.296 0.028 6.88 2.03 12.29
4/4/2021 11:30:00 AM 5.91 42.638 0.028 6.87 2.01 12.25
4/4/2021 11:45:00 AM 6.12 43.016 0.028 6.75 2.02 12.19
4/4/2021 12:00:00 PM 6.34 43.412 0.028 6.92 1.96 12.13
4/4/2021 12:15:00 PM 6.58 43.844 0.028 6.91 1.96 12.06
4/4/2021 12:30:00 PM 6.82 44.276 0.028 6.88 1.99 11.98
4/4/2021 12:45:00 PM 7.05 44.69 0.028 6.88 1.98 11.89
4/4/2021 1:00:00 PM 7.29 45.122 0.028 6.89 2.06 11.81
4/4/2021 1:15:00 PM 7.54 45.572 0.028 6.9 2.01 11.72
4/4/2021 1:30:00 PM 7.81 46.058 0.028 6.78 1.93 11.65
4/4/2021 1:45:00 PM 8.06 46.508 0.028 6.89 1.9 11.57
4/4/2021 2:00:00 PM 8.31 46.958 0.028 6.93 2.03 11.51
4/4/2021 2:15:00 PM 8.53 47.354 0.028 6.88 1.93 11.44
4/4/2021 2:30:00 PM 8.74 47.732 0.028 6.79 1.98 11.37
4/4/2021 2:45:00 PM 8.91 48.038 0.028 6.89 2 11.31
4/4/2021 3:00:00 PM 9.06 48.308 0.028 6.89 1.96 11.26
4/4/2021 3:15:00 PM 9.17 48.506 0.028 6.87 2.01 11.22
4/4/2021 3:30:00 PM 9.26 48.668 0.028 6.83 1.97 11.19
4/4/2021 3:45:00 PM 9.32 48.776 0.028 6.88 1.96 11.17
4/4/2021 4:00:00 PM 9.34 48.812 0.028 6.95 2 11.14
4/4/2021 4:15:00 PM 9.35 48.83 0.028 6.91 2.06 11.13
4/4/2021 4:30:00 PM 9.34 48.812 0.028 6.94 2.02 11.12
4/4/2021 4:45:00 PM 9.29 48.722 0.028 6.85 2.14 11.12
4/4/2021 5:00:00 PM 9.23 48.614 0.028 6.93 2.09 11.12
4/4/2021 5:15:00 PM 9.17 48.506 0.028 6.86 2.04 11.13
4/4/2021 5:30:00 PM 9.09 48.362 0.028 6.86 2.06 11.14
4/4/2021 5:45:00 PM 9.02 48.236 0.028 6.83 2.08 11.14
4/4/2021 6:00:00 PM 8.95 48.11 0.028 6.92 2.09 11.14
4/4/2021 6:15:00 PM 8.88 47.984 0.028 6.86 2.12 11.15
4/4/2021 6:30:00 PM 8.82 47.876 0.028 6.78 2.1 11.15
4/4/2021 6:45:00 PM 8.74 47.732 0.028 6.91 2.09 11.15
4/4/2021 7:00:00 PM 8.66 47.588 0.028 6.76 2.06 11.15
4/4/2021 7:15:00 PM 8.57 47.426 0.028 6.81 2.13 11.15
4/4/2021 7:30:00 PM 8.48 47.264 0.028 6.82 2.19 11.15
4/4/2021 7:45:00 PM 8.4 47.12 0.028 6.76 2.08 11.15
4/4/2021 8:00:00 PM 8.32 46.976 0.028 6.86 2.23 11.15
4/4/2021 8:15:00 PM 8.23 46.814 0.028 6.8 2.14 11.15
4/4/2021 8:30:00 PM 8.16 46.688 0.028 6.8 2.16 11.16
4/4/2021 8:45:00 PM 8.08 46.544 0.028 6.72 2.17 11.18
4/4/2021 9:00:00 PM 7.99 46.382 0.028 6.84 2.17 11.2
4/4/2021 9:15:00 PM 7.91 46.238 0.028 6.84 2.27 11.22
4/4/2021 9:30:00 PM 7.83 46.094 0.028 6.67 2.22 11.24
4/4/2021 9:45:00 PM 7.74 45.932 0.028 6.84 2.19 11.26
4/4/2021 10:00:00 PM 7.66 45.788 0.028 6.83 2.16 11.29
4/4/2021 10:15:00 PM 7.57 45.626 0.028 6.78 2.17 11.32
4/4/2021 10:30:00 PM 7.49 45.482 0.028 6.75 2.36 11.34
4/4/2021 10:45:00 PM 7.41 45.338 0.028 6.83 2.21 11.38
4/4/2021 11:00:00 PM 7.32 45.176 0.028 6.83 2.4 11.4
4/4/2021 11:15:00 PM 7.24 45.032 0.028 6.82 2.21 11.43
4/4/2021 11:30:00 PM 7.16 44.888 0.028 6.82 2.15 11.47
4/4/2021 11:45:00 PM 7.08 44.744 0.028 6.81 2.19 11.49
4/5/2021 12:00:00 AM 7 44.6 0.028 6.83 2.27 11.52
4/5/2021 12:15:00 AM 6.92 44.456 0.028 6.77 2.22 11.55
4/5/2021 12:30:00 AM 6.85 44.33 0.028 6.75 2.21 11.57
4/5/2021 12:45:00 AM 6.78 44.204 0.028 6.74 2.18 11.6
4/5/2021 1:00:00 AM 6.71 44.078 0.028 6.83 2.16 11.62
4/5/2021 1:15:00 AM 6.64 43.952 0.028 6.83 2.25 11.64
4/5/2021 1:30:00 AM 6.57 43.826 0.028 6.72 2.2 11.66
4/5/2021 1:45:00 AM 6.5 43.7 0.029 6.82 2.36 11.68
4/5/2021 2:00:00 AM 6.43 43.574 0.029 6.81 2.22 11.7
4/5/2021 2:15:00 AM 6.35 43.43 0.028 6.8 2.15 11.73
4/5/2021 2:30:00 AM 6.28 43.304 0.029 6.79 2.33 11.75
4/5/2021 2:45:00 AM 6.21 43.178 0.029 6.71 2.18 11.77
4/5/2021 3:00:00 AM 6.14 43.052 0.029 6.78 2.25 11.79
4/5/2021 3:15:00 AM 6.07 42.926 0.029 6.75 2.23 11.82
4/5/2021 3:30:00 AM 6 42.8 0.029 6.81 2.27 11.84
4/5/2021 3:45:00 AM 5.93 42.674 0.029 6.66 2.18 11.87
4/5/2021 4:00:00 AM 5.86 42.548 0.029 6.74 2.16 11.9
4/5/2021 4:15:00 AM 5.8 42.44 0.029 6.81 2.13 11.92
4/5/2021 4:30:00 AM 5.73 42.314 0.029 6.79 2.21 11.94
4/5/2021 4:45:00 AM 5.67 42.206 0.029 6.7 2.22 11.97
4/5/2021 5:00:00 AM 5.6 42.08 0.029 6.73 2.19 11.99
4/5/2021 5:15:00 AM 5.54 41.972 0.029 6.73 2.15 12.02
4/5/2021 5:30:00 AM 5.48 41.864 0.029 6.72 2.15 12.04
4/5/2021 5:45:00 AM 5.43 41.774 0.029 6.73 2.25 12.06
4/5/2021 6:00:00 AM 5.36 41.648 0.029 6.79 2.13 12.08
4/5/2021 6:15:00 AM 5.31 41.558 0.029 6.67 2.15 12.11
4/5/2021 6:30:00 AM 5.26 41.468 0.029 6.79 2.22 12.12
4/5/2021 6:45:00 AM 5.21 41.378 0.029 6.64 2.14 12.14
4/5/2021 7:00:00 AM 5.16 41.288 0.029 6.81 2.18 12.16
4/5/2021 7:15:00 AM 5.12 41.216 0.029 6.69 2.18 12.2
4/5/2021 7:30:00 AM 5.08 41.144 0.029 6.81 2.21 12.24
4/5/2021 7:45:00 AM 5.05 41.09 0.029 6.79 2.14 12.29
4/5/2021 8:00:00 AM 5.02 41.036 0.029 6.8 2.13 12.32
4/5/2021 8:15:00 AM 4.99 40.982 0.029 6.83 2.16 12.34
4/5/2021 8:30:00 AM 4.98 40.964 0.029 6.7 2.13 12.36
4/5/2021 8:45:00 AM 4.99 40.982 0.028 6.78 2.08 12.39
4/5/2021 9:00:00 AM 5.02 41.036 0.028 6.85 2.25 12.4
4/5/2021 9:15:00 AM 5.06 41.108 0.028 6.77 2.05 12.41
4/5/2021 9:30:00 AM 5.11 41.198 0.028 6.79 2.2 12.41
4/5/2021 9:45:00 AM 5.18 41.324 0.028 6.79 2.21 12.4
4/5/2021 10:00:00 AM 5.25 41.45 0.028 6.88 2.06 12.39
4/5/2021 10:15:00 AM 5.36 41.648 0.028 6.85 2.09 12.37
4/5/2021 10:30:00 AM 5.48 41.864 0.028 6.86 2.13 12.34
4/5/2021 10:45:00 AM 5.63 42.134 0.028 6.8 2.09 12.3
4/5/2021 11:00:00 AM 5.8 42.44 0.028 6.83 2.04 12.26
4/5/2021 11:15:00 AM 5.96 42.728 0.028 6.87 2.06 12.21
4/5/2021 11:30:00 AM 6.16 43.088 0.028 6.91 2.07 12.15
4/5/2021 11:45:00 AM 6.34 43.412 0.028 6.78 1.99 12.09
4/5/2021 12:00:00 PM 6.54 43.772 0.028 6.87 2 12.03
4/5/2021 12:15:00 PM 6.76 44.168 0.028 6.78 2.07 11.96
4/5/2021 12:30:00 PM 7 44.6 0.028 6.92 2 11.89
4/5/2021 12:45:00 PM 7.25 45.05 0.028 6.88 2.03 11.82
4/5/2021 1:00:00 PM 7.48 45.464 0.028 6.76 2.03 11.76
4/5/2021 1:15:00 PM 7.67 45.806 0.028 6.84 2.04 11.7
4/5/2021 1:30:00 PM 7.85 46.13 0.028 6.84 2.01 11.64
4/5/2021 1:45:00 PM 8.11 46.598 0.028 6.86 2.01 11.57
4/5/2021 2:00:00 PM 8.37 47.066 0.028 6.9 2 11.48
4/5/2021 2:15:00 PM 8.58 47.444 0.028 6.91 2.03 11.41
4/5/2021 2:30:00 PM 8.72 47.696 0.028 6.9 2.09 11.36
4/5/2021 2:45:00 PM 8.81 47.858 0.028 6.93 2.03 11.32
4/5/2021 3:00:00 PM 8.94 48.092 0.028 6.81 2.08 11.29
4/5/2021 3:15:00 PM 9.07 48.326 0.028 6.84 2.01 11.24
4/5/2021 3:30:00 PM 9.15 48.47 0.028 6.84 1.95 11.21
4/5/2021 3:45:00 PM 9.17 48.506 0.028 6.95 2.04 11.17
4/5/2021 4:00:00 PM 9.15 48.47 0.028 6.91 2.03 11.16
4/5/2021 4:15:00 PM 9.12 48.416 0.028 6.9 2.05 11.15
4/5/2021 4:30:00 PM 9.1 48.38 0.028 6.91 2.07 11.13
4/5/2021 4:45:00 PM 9.07 48.326 0.028 6.86 2.1 11.13
4/5/2021 5:00:00 PM 9.03 48.254 0.028 6.91 2.07 11.12
4/5/2021 5:15:00 PM 9 48.2 0.028 6.9 2.07 11.12
4/5/2021 5:30:00 PM 8.96 48.128 0.028 6.75 2 11.12
4/5/2021 5:45:00 PM 8.93 48.074 0.028 6.84 2.1 11.11
4/5/2021 6:00:00 PM 8.89 48.002 0.028 6.82 2.08 11.1
4/5/2021 6:15:00 PM 8.87 47.966 0.028 6.88 2.13 11.09
4/5/2021 6:30:00 PM 8.85 47.93 0.028 6.89 2.04 11.1
4/5/2021 6:45:00 PM 8.83 47.894 0.028 6.86 2.23 11.1
4/5/2021 7:00:00 PM 8.79 47.822 0.028 6.85 2.21 11.08
4/5/2021 7:15:00 PM 8.75 47.75 0.028 6.7 2.08 11.07
4/5/2021 7:30:00 PM 8.72 47.696 0.028 6.78 2.15 11.05
4/5/2021 7:45:00 PM 8.68 47.624 0.028 6.79 2.14 11.04
4/5/2021 8:00:00 PM 8.64 47.552 0.028 6.85 2.13 11.04
4/5/2021 8:15:00 PM 8.6 47.48 0.029 6.84 2.11 11.04
4/5/2021 8:30:00 PM 8.57 47.426 0.029 6.63 2.18 11.04
4/5/2021 8:45:00 PM 8.53 47.354 0.029 6.76 2.17 11.05
4/5/2021 9:00:00 PM 8.5 47.3 0.029 6.84 2.23 11.07
4/5/2021 9:15:00 PM 8.46 47.228 0.029 6.82 2.27 11.07
4/5/2021 9:30:00 PM 8.43 47.174 0.029 6.74 2.15 11.08
4/5/2021 9:45:00 PM 8.39 47.102 0.029 6.77 2.11 11.09
4/5/2021 10:00:00 PM 8.36 47.048 0.029 6.79 2.26 11.1
4/5/2021 10:15:00 PM 8.33 46.994 0.029 6.67 2.19 11.11
4/5/2021 10:30:00 PM 8.3 46.94 0.029 6.72 2.23 11.11
4/5/2021 10:45:00 PM 8.27 46.886 0.029 6.8 2.23 11.12
4/5/2021 11:00:00 PM 8.24 46.832 0.029 6.8 2.11 11.12
4/5/2021 11:15:00 PM 8.21 46.778 0.029 6.67 2.13 11.13
4/5/2021 11:30:00 PM 8.19 46.742 0.029 6.82 2.24 11.13
4/5/2021 11:45:00 PM 8.16 46.688 0.029 6.74 2.1 11.14
4/6/2021 12:00:00 AM 8.14 46.652 0.029 6.82 2.19 11.15
4/6/2021 12:15:00 AM 8.12 46.616 0.029 6.68 2.19 11.15
4/6/2021 12:30:00 AM 8.1 46.58 0.029 6.71 2.16 11.15
4/6/2021 12:45:00 AM 8.08 46.544 0.029 6.8 2.17 11.15
4/6/2021 1:00:00 AM 8.06 46.508 0.029 6.79 2.2 11.16
4/6/2021 1:15:00 AM 8.03 46.454 0.029 6.63 2.19 11.16
4/6/2021 1:30:00 AM 8 46.4 0.029 6.77 2.23 11.16
4/6/2021 1:45:00 AM 7.98 46.364 0.029 6.78 2.15 11.15
4/6/2021 2:00:00 AM 7.95 46.31 0.029 6.75 2.19 11.15
4/6/2021 2:15:00 AM 7.92 46.256 0.029 6.73 2.19 11.17
4/6/2021 2:30:00 AM 7.88 46.184 0.029 6.78 2.21 11.18
4/6/2021 2:45:00 AM 7.87 46.166 0.029 6.68 2.18 11.19
4/6/2021 3:00:00 AM 7.85 46.13 0.029 6.69 2.31 11.18
4/6/2021 3:15:00 AM 7.81 46.058 0.029 6.75 2.22 11.19
4/6/2021 3:30:00 AM 7.77 45.986 0.029 6.66 2.19 11.2
4/6/2021 3:45:00 AM 7.73 45.914 0.029 6.75 2.28 11.22
4/6/2021 4:00:00 AM 7.68 45.824 0.029 6.79 2.19 11.22
4/6/2021 4:15:00 AM 7.64 45.752 0.029 6.77 2.23 11.23
4/6/2021 4:30:00 AM 7.59 45.662 0.029 6.64 2.13 11.26
4/6/2021 4:45:00 AM 7.53 45.554 0.029 6.78 2.18 11.26
4/6/2021 5:00:00 AM 7.48 45.464 0.029 6.7 2.21 11.28
4/6/2021 5:15:00 AM 7.43 45.374 0.029 6.79 2.23 11.29
4/6/2021 5:30:00 AM 7.37 45.266 0.029 6.66 2.19 11.31
4/6/2021 5:45:00 AM 7.32 45.176 0.029 6.75 2.18 11.33
4/6/2021 6:00:00 AM 7.27 45.086 0.029 6.8 2.21 11.35
4/6/2021 6:15:00 AM 7.21 44.978 0.029 6.78 2.28 11.37
4/6/2021 6:30:00 AM 7.15 44.87 0.029 6.76 2.16 11.4
4/6/2021 6:45:00 AM 7.12 44.816 0.029 6.74 2.24 11.4
4/6/2021 7:00:00 AM 7.1 44.78 0.029 6.72 2.16 11.43
4/6/2021 7:15:00 AM 7.07 44.726 0.029 6.78 2.13 11.47
4/6/2021 7:30:00 AM 7.05 44.69 0.029 6.66 2.17 11.51
4/6/2021 7:45:00 AM 7.03 44.654 0.029 6.83 2.17 11.56
4/6/2021 8:00:00 AM 7.03 44.654 0.029 6.81 2.17 11.61
4/6/2021 8:15:00 AM 7.04 44.672 0.029 6.71 2.13 11.65
4/6/2021 8:30:00 AM 7.04 44.672 0.029 6.84 2.22 11.66
4/6/2021 8:45:00 AM 7.05 44.69 0.029 6.81 2.13 11.68
4/6/2021 9:00:00 AM 7.07 44.726 0.029 6.85 2.17 11.69
4/6/2021 9:15:00 AM 7.1 44.78 0.029 6.82 2.13 11.68
4/6/2021 9:30:00 AM 7.16 44.888 0.029 6.72 2.07 11.69
4/6/2021 9:45:00 AM 7.2 44.96 0.029 6.87 2.14 11.68
4/6/2021 10:00:00 AM 7.27 45.086 0.029 6.88 2.15 11.67
4/6/2021 10:15:00 AM 7.37 45.266 0.029 6.87 2.11 11.66
4/6/2021 10:30:00 AM 7.49 45.482 0.029 6.75 2.07 11.63
4/6/2021 10:45:00 AM 7.61 45.698 0.029 6.89 2.07 11.6
4/6/2021 11:00:00 AM 7.75 45.95 0.029 6.79 2.05 11.57
4/6/2021 11:15:00 AM 7.91 46.238 0.029 6.82 2.11 11.54
4/6/2021 11:30:00 AM 8.08 46.544 0.029 6.9 2.12 11.52
4/6/2021 11:45:00 AM 8.27 46.886 0.029 6.78 2.19 11.48
4/6/2021 12:00:00 PM 8.46 47.228 0.029 6.92 2.15 11.43
4/6/2021 12:15:00 PM 8.67 47.606 0.029 6.89 2.09 11.38
4/6/2021 12:30:00 PM 8.88 47.984 0.029 6.78 2.15 11.31
4/6/2021 12:45:00 PM 9.08 48.344 0.028 6.92 2.06 11.24
4/6/2021 1:00:00 PM 9.29 48.722 0.029 6.86 2.07 11.16
4/6/2021 1:15:00 PM 9.56 49.208 0.028 6.91 2.05 11.1
4/6/2021 1:30:00 PM 9.82 49.676 0.028 6.91 2.02 11.04
4/6/2021 1:45:00 PM 10.09 50.162 0.028 6.79 2.02 10.99
4/6/2021 2:00:00 PM 10.3 50.54 0.028 6.86 2.09 10.93
4/6/2021 2:15:00 PM 10.53 50.954 0.028 6.9 2.12 10.88
4/6/2021 2:30:00 PM 10.73 51.314 0.028 6.94 2.12 10.89
4/6/2021 2:45:00 PM 10.85 51.53 0.028 6.93 2.09 10.84
4/6/2021 3:00:00 PM 10.77 51.386 0.028 6.93 2.14 10.8
4/6/2021 3:15:00 PM 10.92 51.656 0.028 6.76 2.23 10.8
4/6/2021 3:30:00 PM 11.03 51.854 0.028 6.92 2.11 10.71
4/6/2021 3:45:00 PM 11 51.8 0.028 6.95 2.17 10.68
4/6/2021 4:00:00 PM 11.05 51.89 0.028 6.76 2.08 10.69
4/6/2021 4:15:00 PM 11.16 52.088 0.028 6.94 2.15 10.71
4/6/2021 4:30:00 PM 11.19 52.142 0.028 6.91 2.1 10.66
4/6/2021 4:45:00 PM 11.11 51.998 0.028 6.8 2.17 10.67
4/6/2021 5:00:00 PM 11.06 51.908 0.028 6.83 2.09 10.67
4/6/2021 5:15:00 PM 11.05 51.89 0.029 6.92 2.07 10.65
4/6/2021 5:30:00 PM 11.03 51.854 0.028 6.95 2.17 10.67
4/6/2021 5:45:00 PM 10.99 51.782 0.028 6.91 2.28 10.67
4/6/2021 6:00:00 PM 10.91 51.638 0.029 6.89 2.22 10.65
4/6/2021 6:15:00 PM 10.86 51.548 0.029 6.83 2.14 10.64
4/6/2021 6:30:00 PM 10.83 51.494 0.029 6.9 2.19 10.63
4/6/2021 6:45:00 PM 10.78 51.404 0.029 6.91 2.13 10.63
4/6/2021 7:00:00 PM 10.73 51.314 0.029 6.86 2.17 10.59
4/6/2021 7:15:00 PM 10.64 51.152 0.029 6.85 2.18 10.54
4/6/2021 7:30:00 PM 10.56 51.008 0.029 6.7 2.23 10.54
4/6/2021 7:45:00 PM 10.5 50.9 0.029 6.75 2.23 10.55
4/6/2021 8:00:00 PM 10.44 50.792 0.029 6.83 2.17 10.56
4/6/2021 8:15:00 PM 10.38 50.684 0.029 6.82 2.17 10.57
4/6/2021 8:30:00 PM 10.32 50.576 0.029 6.76 2.21 10.57
4/6/2021 8:45:00 PM 10.27 50.486 0.029 6.8 2.23 10.58
4/6/2021 9:00:00 PM 10.21 50.378 0.029 6.79 2.33 10.57
4/6/2021 9:15:00 PM 10.15 50.27 0.029 6.78 2.34 10.56
4/6/2021 9:30:00 PM 10.07 50.126 0.029 6.69 2.31 10.58
4/6/2021 9:45:00 PM 10 50 0.029 6.78 2.27 10.59
4/6/2021 10:00:00 PM 9.93 49.874 0.029 6.79 2.39 10.64
4/6/2021 10:15:00 PM 9.86 49.748 0.029 6.82 2.26 10.67
4/6/2021 10:30:00 PM 9.79 49.622 0.029 6.8 2.23 10.7
4/6/2021 10:45:00 PM 9.72 49.496 0.029 6.76 2.44 10.69
4/6/2021 11:00:00 PM 9.64 49.352 0.029 6.69 2.29 10.7
4/6/2021 11:15:00 PM 9.57 49.226 0.029 6.7 2.33 10.71
4/6/2021 11:30:00 PM 9.51 49.118 0.029 6.7 2.88 10.71
4/6/2021 11:45:00 PM 9.45 49.01 0.029 6.82 2.35 10.76
4/7/2021 12:00:00 AM 9.4 48.92 0.029 6.72 2.27 10.79
4/7/2021 12:15:00 AM 9.35 48.83 0.029 6.82 2.48 10.82
4/7/2021 12:30:00 AM 9.3 48.74 0.029 6.78 2.3 10.83
4/7/2021 12:45:00 AM 9.24 48.632 0.029 6.79 2.33 10.85
4/7/2021 1:00:00 AM 9.18 48.524 0.029 6.79 2.24 10.85
4/7/2021 1:15:00 AM 9.13 48.434 0.029 6.79 2.4 10.86
4/7/2021 1:30:00 AM 9.09 48.362 0.029 6.78 2.38 10.86
4/7/2021 1:45:00 AM 9.06 48.308 0.029 6.79 2.3 10.88
4/7/2021 2:00:00 AM 9 48.2 0.029 6.8 2.24 10.89
4/7/2021 2:15:00 AM 8.93 48.074 0.029 6.68 2.27 10.9
4/7/2021 2:30:00 AM 8.87 47.966 0.029 6.78 2.42 10.94
4/7/2021 2:45:00 AM 8.81 47.858 0.029 6.77 2.25 10.95
4/7/2021 3:00:00 AM 8.76 47.768 0.029 6.77 2.27 10.97
4/7/2021 3:15:00 AM 8.7 47.66 0.029 6.78 2.33 10.98
4/7/2021 3:30:00 AM 8.66 47.588 0.03 6.78 2.23 10.99
4/7/2021 3:45:00 AM 8.62 47.516 0.029 6.76 2.37 10.99
4/7/2021 4:00:00 AM 8.57 47.426 0.03 6.78 2.18 11
4/7/2021 4:15:00 AM 8.53 47.354 0.03 6.78 2.31 11.01
4/7/2021 4:30:00 AM 8.48 47.264 0.03 6.78 2.32 11.02
4/7/2021 4:45:00 AM 8.45 47.21 0.029 6.78 2.3 11.04
4/7/2021 5:00:00 AM 8.42 47.156 0.029 6.78 2.4 11.06
4/7/2021 5:15:00 AM 8.39 47.102 0.03 6.77 2.33 11.08
4/7/2021 5:30:00 AM 8.36 47.048 0.03 6.79 2.26 11.09
4/7/2021 5:45:00 AM 8.34 47.012 0.03 6.79 2.24 11.1
4/7/2021 6:00:00 AM 8.31 46.958 0.03 6.78 2.25 11.11
4/7/2021 6:15:00 AM 8.27 46.886 0.029 6.78 2.22 11.12
4/7/2021 6:30:00 AM 8.22 46.796 0.03 6.64 2.19 11.13
4/7/2021 6:45:00 AM 8.19 46.742 0.03 6.79 2.3 11.13
4/7/2021 7:00:00 AM 8.17 46.706 0.03 6.79 2.27 11.14
4/7/2021 7:15:00 AM 8.15 46.67 0.029 6.82 2.26 11.17
4/7/2021 7:30:00 AM 8.14 46.652 0.029 6.81 2.26 11.21
4/7/2021 7:45:00 AM 8.13 46.634 0.029 6.81 2.25 11.23
4/7/2021 8:00:00 AM 8.12 46.616 0.029 6.81 2.21 11.26
4/7/2021 8:15:00 AM 8.12 46.616 0.029 6.81 2.23 11.3
4/7/2021 8:30:00 AM 8.14 46.652 0.029 6.83 2.28 11.35
4/7/2021 8:45:00 AM 8.17 46.706 0.029 6.76 2.2 11.38
4/7/2021 9:00:00 AM 8.21 46.778 0.029 6.79 2.29 11.4
4/7/2021 9:15:00 AM 8.25 46.85 0.029 6.88 2.2 11.41
4/7/2021 9:30:00 AM 8.34 47.012 0.029 6.86 2.12 11.42
4/7/2021 9:45:00 AM 8.41 47.138 0.029 6.89 2.19 11.4
4/7/2021 10:00:00 AM 8.48 47.264 0.029 6.73 2.19 11.39
4/7/2021 10:15:00 AM 8.57 47.426 0.029 6.86 2.7 11.37
4/7/2021 10:30:00 AM 8.69 47.642 0.029 6.91 2.21 11.34
4/7/2021 10:45:00 AM 8.82 47.876 0.029 6.92 2.17 11.33
4/7/2021 11:00:00 AM 8.98 48.164 0.029 6.9 2.18 11.3
4/7/2021 11:15:00 AM 9.15 48.47 0.029 6.92 2.24 11.24
4/7/2021 11:30:00 AM 9.33 48.794 0.029 6.93 2.12 11.22
4/7/2021 11:45:00 AM 9.52 49.136 0.029 6.76 2.14 11.17
4/7/2021 12:00:00 PM 9.71 49.478 0.029 6.95 2.16 11.12
4/7/2021 12:15:00 PM 9.93 49.874 0.029 6.94 2.09 11.1
4/7/2021 12:30:00 PM 10.16 50.288 0.029 6.94 2 11
4/7/2021 12:45:00 PM 10.44 50.792 0.029 6.93 2.08 11
4/7/2021 1:00:00 PM 10.64 51.152 0.029 6.95 2.19 10.88
4/7/2021 1:15:00 PM 10.71 51.278 0.029 6.94 2.06 10.87
4/7/2021 1:30:00 PM 10.84 51.512 0.029 6.88 2.08 10.87
4/7/2021 1:45:00 PM 11.06 51.908 0.029 6.79 1.97 10.76
4/7/2021 2:00:00 PM 11.28 52.304 0.029 6.87 2.01 10.75
4/7/2021 2:15:00 PM 11.46 52.628 0.029 6.95 2.11 10.66
4/7/2021 2:30:00 PM 11.54 52.772 0.029 6.98 2.11 10.66
4/7/2021 2:45:00 PM 11.56 52.808 0.029 6.79 2.01 10.63
4/7/2021 3:00:00 PM 11.83 53.294 0.029 6.92 2.12 10.56
4/7/2021 3:15:00 PM 11.79 53.222 0.029 6.9 2.04 10.49
4/7/2021 3:30:00 PM 11.88 53.384 0.029 6.84 2.07 10.5
4/7/2021 3:45:00 PM 12.17 53.906 0.029 6.97 2.05 10.49
4/7/2021 4:00:00 PM 12.14 53.852 0.029 6.84 2.11 10.42
4/7/2021 4:15:00 PM 12 53.6 0.029 6.85 2.06 10.42
4/7/2021 4:30:00 PM 12.08 53.744 0.029 6.97 2.06 10.43
4/7/2021 4:45:00 PM 12.24 54.032 0.029 6.76 2.12 10.43
4/7/2021 5:00:00 PM 12.2 53.96 0.029 6.87 2.14 10.41
4/7/2021 5:15:00 PM 12.05 53.69 0.029 6.95 2.12 10.41
4/7/2021 5:30:00 PM 12.01 53.618 0.029 6.85 2.06 10.42
4/7/2021 5:45:00 PM 11.98 53.564 0.029 6.94 2.16 10.42
4/7/2021 6:00:00 PM 11.92 53.456 0.029 6.97 2.26 10.43
4/7/2021 6:15:00 PM 11.85 53.33 0.029 6.91 2.16 10.44
4/7/2021 6:30:00 PM 11.78 53.204 0.029 6.79 2.02 10.42
4/7/2021 6:45:00 PM 11.71 53.078 0.029 6.88 2.16 10.41
4/7/2021 7:00:00 PM 11.63 52.934 0.029 6.92 2.1 10.38
4/7/2021 7:15:00 PM 11.54 52.772 0.029 6.9 2.1 10.34
4/7/2021 7:30:00 PM 11.45 52.61 0.029 6.84 2.09 10.33
4/7/2021 7:45:00 PM 11.36 52.448 0.029 6.8 2.22 10.33
4/7/2021 8:00:00 PM 11.28 52.304 0.03 6.85 2.27 10.33
4/7/2021 8:15:00 PM 11.2 52.16 0.03 6.84 2.3 10.32
4/7/2021 8:30:00 PM 11.13 52.034 0.03 6.83 2.17 10.32
4/7/2021 8:45:00 PM 11.06 51.908 0.03 6.82 2.22 10.32
4/7/2021 9:00:00 PM 11 51.8 0.03 6.67 2.3 10.32
4/7/2021 9:15:00 PM 10.93 51.674 0.03 6.72 2.21 10.34
4/7/2021 9:30:00 PM 10.87 51.566 0.03 6.78 2.16 10.37
4/7/2021 9:45:00 PM 10.8 51.44 0.03 6.82 2.2 10.42
4/7/2021 10:00:00 PM 10.74 51.332 0.03 6.65 2.23 10.44
4/7/2021 10:15:00 PM 10.68 51.224 0.03 6.83 2.33 10.45
4/7/2021 10:30:00 PM 10.62 51.116 0.03 6.67 2.22 10.45
4/7/2021 10:45:00 PM 10.56 51.008 0.03 6.84 2.2 10.44
4/7/2021 11:00:00 PM 10.5 50.9 0.03 6.81 2.34 10.45
4/7/2021 11:15:00 PM 10.44 50.792 0.03 6.82 2.26 10.47
4/7/2021 11:30:00 PM 10.38 50.684 0.03 6.79 2.19 10.51
4/7/2021 11:45:00 PM 10.31 50.558 0.03 6.77 2.16 10.54
4/8/2021 12:00:00 AM 10.25 50.45 0.03 6.81 2.26 10.57
4/8/2021 12:15:00 AM 10.19 50.342 0.03 6.8 2.24 10.58
4/8/2021 12:30:00 AM 10.13 50.234 0.03 6.78 2.24 10.58
4/8/2021 12:45:00 AM 10.07 50.126 0.03 6.75 2.19 10.57
4/8/2021 1:00:00 AM 10.01 50.018 0.03 6.7 2.28 10.57
4/8/2021 1:15:00 AM 9.95 49.91 0.03 6.7 2.21 10.59
4/8/2021 1:30:00 AM 9.9 49.82 0.03 6.72 2.42 10.63
4/8/2021 1:45:00 AM 9.83 49.694 0.03 6.71 2.3 10.66
4/8/2021 2:00:00 AM 9.78 49.604 0.03 6.83 2.28 10.69
4/8/2021 2:15:00 AM 9.72 49.496 0.03 6.72 2.2 10.7
4/8/2021 2:30:00 AM 9.66 49.388 0.03 6.81 2.19 10.7
4/8/2021 2:45:00 AM 9.6 49.28 0.03 6.68 2.23 10.7
4/8/2021 3:00:00 AM 9.54 49.172 0.03 6.81 2.82 10.7
4/8/2021 3:15:00 AM 9.49 49.082 0.03 6.82 2.23 10.73
4/8/2021 3:30:00 AM 9.43 48.974 0.03 6.8 2.21 10.74
4/8/2021 3:45:00 AM 9.38 48.884 0.03 6.68 2.13 10.78
4/8/2021 4:00:00 AM 9.32 48.776 0.03 6.82 2.2 10.81
4/8/2021 4:15:00 AM 9.27 48.686 0.03 6.65 2.41 10.83
4/8/2021 4:30:00 AM 9.21 48.578 0.03 6.8 2.13 10.83
4/8/2021 4:45:00 AM 9.15 48.47 0.03 6.8 2.2 10.84
4/8/2021 5:00:00 AM 9.1 48.38 0.03 6.8 2.38 10.84
4/8/2021 5:15:00 AM 9.04 48.272 0.03 6.81 2.22 10.85
4/8/2021 5:30:00 AM 8.99 48.182 0.03 6.79 2.27 10.87
4/8/2021 5:45:00 AM 8.93 48.074 0.03 6.8 2.24 10.89
4/8/2021 6:00:00 AM 8.87 47.966 0.03 6.67 2.19 10.92
4/8/2021 6:15:00 AM 8.82 47.876 0.03 6.8 2.23 10.95
4/8/2021 6:30:00 AM 8.76 47.768 0.03 6.7 2.23 10.96
4/8/2021 6:45:00 AM 8.71 47.678 0.03 6.7 2.25 10.97
4/8/2021 7:00:00 AM 8.65 47.57 0.03 6.82 2.18 11
4/8/2021 7:15:00 AM 8.61 47.498 0.03 6.82 2.21 11.03
4/8/2021 7:30:00 AM 8.57 47.426 0.03 6.78 2.26 11.08
4/8/2021 7:45:00 AM 8.53 47.354 0.03 6.71 2.13 11.12
4/8/2021 8:00:00 AM 8.5 47.3 0.03 6.81 2.22 11.17
4/8/2021 8:15:00 AM 8.48 47.264 0.03 6.8 2.18 11.2
4/8/2021 8:30:00 AM 8.47 47.246 0.03 6.78 2.16 11.24
4/8/2021 8:45:00 AM 8.49 47.282 0.03 6.88 2.12 11.27
4/8/2021 9:00:00 AM 8.54 47.372 0.03 6.72 2.09 11.28
4/8/2021 9:15:00 AM 8.59 47.462 0.03 6.88 2.12 11.28
4/8/2021 9:30:00 AM 8.66 47.588 0.03 6.85 2.18 11.3
4/8/2021 9:45:00 AM 8.74 47.732 0.03 6.91 2.09 11.3
4/8/2021 10:00:00 AM 8.84 47.912 0.03 6.9 2.07 11.31
4/8/2021 10:15:00 AM 8.96 48.128 0.03 6.9 2.12 11.28
4/8/2021 10:30:00 AM 9.11 48.398 0.029 6.79 2.11 11.24
4/8/2021 10:45:00 AM 9.26 48.668 0.029 6.84 2.14 11.22
4/8/2021 11:00:00 AM 9.45 49.01 0.029 6.86 2.05 11.2
4/8/2021 11:15:00 AM 9.65 49.37 0.029 6.92 2.1 11.12
4/8/2021 11:30:00 AM 9.86 49.748 0.029 6.87 2.16 11.1
4/8/2021 11:45:00 AM 10.07 50.126 0.029 6.92 2.18 11.04
4/8/2021 12:00:00 PM 10.28 50.504 0.029 6.96 2.06 10.99
4/8/2021 12:15:00 PM 10.5 50.9 0.029 6.91 2.03 10.96
4/8/2021 12:30:00 PM 10.73 51.314 0.029 6.85 2.15 10.87
4/8/2021 12:45:00 PM 10.97 51.746 0.029 6.96 2.11 10.86
4/8/2021 1:00:00 PM 11.21 52.178 0.029 6.97 2.03 10.78
4/8/2021 1:15:00 PM 11.47 52.646 0.029 6.77 2.03 10.72
4/8/2021 1:30:00 PM 11.73 53.114 0.029 6.92 2.07 10.67
4/8/2021 1:45:00 PM 11.99 53.582 0.029 6.95 2.08 10.59
4/8/2021 2:00:00 PM 12.23 54.014 0.029 6.97 2.11 10.56
4/8/2021 2:15:00 PM 12.45 54.41 0.029 6.96 2.07 10.49
4/8/2021 2:30:00 PM 12.66 54.788 0.029 6.98 2.11 10.46
4/8/2021 2:45:00 PM 12.83 55.094 0.029 6.98 2.19 10.38
4/8/2021 3:00:00 PM 12.98 55.364 0.029 6.95 2.01 10.36
4/8/2021 3:15:00 PM 13.1 55.58 0.029 6.97 2 10.33
4/8/2021 3:30:00 PM 13.19 55.742 0.029 6.95 1.93 10.27
4/8/2021 3:45:00 PM 13.27 55.886 0.029 6.94 2.11 10.26
4/8/2021 4:00:00 PM 13.32 55.976 0.029 6.85 1.98 10.24
4/8/2021 4:15:00 PM 13.34 56.012 0.029 7.01 2.07 10.23
4/8/2021 4:30:00 PM 13.32 55.976 0.029 6.96 1.99 10.21
4/8/2021 4:45:00 PM 13.29 55.922 0.029 6.97 1.9 10.21
4/8/2021 5:00:00 PM 13.24 55.832 0.029 6.82 2.04 10.18
4/8/2021 5:15:00 PM 13.16 55.688 0.029 6.99 2.01 10.18
4/8/2021 5:30:00 PM 13.06 55.508 0.029 6.96 2.1 10.16
4/8/2021 5:45:00 PM 12.95 55.31 0.029 6.94 2.05 10.16
4/8/2021 6:00:00 PM 12.83 55.094 0.029 6.8 2.31 10.18
4/8/2021 6:15:00 PM 12.73 54.914 0.029 6.9 2.08 10.2
4/8/2021 6:30:00 PM 12.63 54.734 0.029 6.8 1.99 10.16
4/8/2021 6:45:00 PM 12.52 54.536 0.029 6.89 1.98 10.14
4/8/2021 7:00:00 PM 12.42 54.356 0.03 6.92 1.95 10.14
4/8/2021 7:15:00 PM 12.31 54.158 0.03 6.9 1.98 10.14
4/8/2021 7:30:00 PM 12.22 53.996 0.03 6.81 1.95 10.14
4/8/2021 7:45:00 PM 12.13 53.834 0.03 6.89 2.01 10.11
4/8/2021 8:00:00 PM 12.04 53.672 0.03 6.88 2.05 10.08
4/8/2021 8:15:00 PM 11.95 53.51 0.03 6.74 2.01 10.08
4/8/2021 8:30:00 PM 11.87 53.366 0.03 6.88 2.05 10.12
4/8/2021 8:45:00 PM 11.8 53.24 0.03 6.84 2.17 10.14
4/8/2021 9:00:00 PM 11.72 53.096 0.03 6.85 2.06 10.15
4/8/2021 9:15:00 PM 11.65 52.97 0.03 6.8 2.13 10.17
4/8/2021 9:30:00 PM 11.58 52.844 0.03 6.84 2.13 10.17
4/8/2021 9:45:00 PM 11.51 52.718 0.03 6.85 2 10.18
4/8/2021 10:00:00 PM 11.44 52.592 0.03 6.85 2.22 10.2
4/8/2021 10:15:00 PM 11.38 52.484 0.03 6.87 2.11 10.23
4/8/2021 10:30:00 PM 11.32 52.376 0.03 6.87 2.15 10.26
4/8/2021 10:45:00 PM 11.26 52.268 0.03 6.83 2.09 10.28
4/8/2021 11:00:00 PM 11.2 52.16 0.03 6.71 2.15 10.3
4/8/2021 11:15:00 PM 11.13 52.034 0.03 6.78 2.11 10.28
4/8/2021 11:30:00 PM 11.07 51.926 0.03 6.84 2.16 10.28
4/8/2021 11:45:00 PM 11.02 51.836 0.03 6.69 2.1 10.31
4/9/2021 12:00:00 AM 10.96 51.728 0.03 6.78 2.17 10.32
4/9/2021 12:15:00 AM 10.91 51.638 0.03 6.84 2.12 10.36
4/9/2021 12:30:00 AM 10.87 51.566 0.03 6.7 2.21 10.38
4/9/2021 12:45:00 AM 10.83 51.494 0.03 6.86 2.01 10.4
4/9/2021 1:00:00 AM 10.79 51.422 0.03 6.74 2.13 10.42
4/9/2021 1:15:00 AM 10.73 51.314 0.03 6.71 2.13 10.44
4/9/2021 1:30:00 AM 10.68 51.224 0.03 6.85 2.22 10.43
4/9/2021 1:45:00 AM 10.64 51.152 0.03 6.74 2.03 10.43
4/9/2021 2:00:00 AM 10.6 51.08 0.03 6.83 2.16 10.43
4/9/2021 2:15:00 AM 10.55 50.99 0.03 6.72 2.03 10.43
4/9/2021 2:30:00 AM 10.52 50.936 0.03 6.87 2.23 10.44
4/9/2021 2:45:00 AM 10.49 50.882 0.03 6.81 2.08 10.45
4/9/2021 3:00:00 AM 10.46 50.828 0.03 6.78 2.15 10.48
4/9/2021 3:15:00 AM 10.43 50.774 0.03 6.81 2.13 10.49
4/9/2021 3:30:00 AM 10.4 50.72 0.03 6.7 2.36 10.51
4/9/2021 3:45:00 AM 10.37 50.666 0.03 6.86 2.09 10.53
4/9/2021 4:00:00 AM 10.34 50.612 0.03 6.85 2.09 10.54
4/9/2021 4:15:00 AM 10.32 50.576 0.03 6.64 2.11 10.56
4/9/2021 4:30:00 AM 10.29 50.522 0.03 6.79 2.18 10.55
4/9/2021 4:45:00 AM 10.26 50.468 0.03 6.82 2.19 10.56
4/9/2021 5:00:00 AM 10.23 50.414 0.03 6.86 2.22 10.56
4/9/2021 5:15:00 AM 10.21 50.378 0.03 6.85 2.1 10.56
4/9/2021 5:30:00 AM 10.18 50.324 0.03 6.84 2.12 10.56
4/9/2021 5:45:00 AM 10.15 50.27 0.03 6.81 2.08 10.55
4/9/2021 6:00:00 AM 10.13 50.234 0.03 6.72 2.16 10.54
4/9/2021 6:15:00 AM 10.1 50.18 0.03 6.85 2.19 10.55
4/9/2021 6:30:00 AM 10.08 50.144 0.03 6.82 2.16 10.56
4/9/2021 6:45:00 AM 10.05 50.09 0.03 6.83 2.26 10.57
4/9/2021 7:00:00 AM 10.03 50.054 0.03 6.81 2.22 10.58
4/9/2021 7:15:00 AM 10 50 0.03 6.81 2.15 10.6
4/9/2021 7:30:00 AM 9.98 49.964 0.03 6.82 2.09 10.62
4/9/2021 7:45:00 AM 9.96 49.928 0.03 6.69 2.04 10.66
4/9/2021 8:00:00 AM 9.94 49.892 0.03 6.84 2.01 10.69
4/9/2021 8:15:00 AM 9.93 49.874 0.03 6.84 2.16 10.73
4/9/2021 8:30:00 AM 9.92 49.856 0.03 6.85 2.07 10.76
4/9/2021 8:45:00 AM 9.92 49.856 0.03 6.85 2.08 10.8
4/9/2021 9:00:00 AM 9.92 49.856 0.03 6.88 2.09 10.83
4/9/2021 9:15:00 AM 9.91 49.838 0.03 6.88 1.99 10.85
4/9/2021 9:30:00 AM 9.91 49.838 0.03 6.89 2.11 10.87
4/9/2021 9:45:00 AM 9.92 49.856 0.03 6.87 2.13 10.9
4/9/2021 10:00:00 AM 9.93 49.874 0.03 6.77 2.03 10.91
4/9/2021 10:15:00 AM 9.95 49.91 0.03 6.82 2.09 10.93
4/9/2021 10:30:00 AM 9.98 49.964 0.03 6.94 2.09 10.94
4/9/2021 10:45:00 AM 10.01 50.018 0.03 6.8 1.97 10.94
4/9/2021 11:00:00 AM 10.02 50.036 0.03 6.84 2.06 10.93
4/9/2021 11:15:00 AM 10.04 50.072 0.03 6.94 2.02 10.93
4/9/2021 11:30:00 AM 10.06 50.108 0.03 6.81 1.98 10.92
4/9/2021 11:45:00 AM 10.09 50.162 0.03 6.96 2.13 10.91
4/9/2021 12:00:00 PM 10.12 50.216 0.03 6.82 2.03 10.91
4/9/2021 12:15:00 PM 10.15 50.27 0.03 6.97 1.98 10.92
4/9/2021 12:30:00 PM 10.18 50.324 0.03 6.78 2.06 10.91
4/9/2021 12:45:00 PM 10.21 50.378 0.03 6.88 2.04 10.9
4/9/2021 1:00:00 PM 10.22 50.396 0.03 6.86 2.1 10.9
4/9/2021 1:15:00 PM 10.25 50.45 0.03 6.96 2.02 10.91
4/9/2021 1:30:00 PM 10.29 50.522 0.03 6.97 2.07 10.91
4/9/2021 1:45:00 PM 10.32 50.576 0.03 6.87 2 10.9
4/9/2021 2:00:00 PM 10.34 50.612 0.03 6.94 2.04 10.91
4/9/2021 2:15:00 PM 10.39 50.702 0.03 6.79 2.03 10.91
4/9/2021 2:30:00 PM 10.42 50.756 0.03 6.96 1.93 10.89
4/9/2021 2:45:00 PM 10.45 50.81 0.03 6.94 1.98 10.89
4/9/2021 3:00:00 PM 10.49 50.882 0.03 6.85 2.2 10.87
4/9/2021 3:15:00 PM 10.58 51.044 0.03 6.99 1.94 10.85
4/9/2021 3:30:00 PM 10.67 51.206 0.03 6.94 1.93 10.85
4/9/2021 3:45:00 PM 10.7 51.26 0.03 6.93 1.92 10.83
4/9/2021 4:00:00 PM -99999.99 -179968 -99999.99 -99999.99 -99999.99 -99999.99
4/9/2021 4:15:00 PM -99999.99 -179968 -99999.99 -99999.99 -99999.99 -99999.99
4/9/2021 4:30:00 PM -99999.99 -179968 -99999.99 -99999.99 -99999.99 -99999.99
4/9/2021 4:45:00 PM -99999.99 -179968 -99999.99 -99999.99 -99999.99 -99999.99
4/9/2021 5:00:00 PM -99999.99 -179968 -99999.99 -99999.99 -99999.99 -99999.99
4/9/2021 5:15:00 PM -99999.99 -179968 -99999.99 -99999.99 -99999.99 -99999.99
4/9/2021 5:30:00 PM -99999.99 -179968 -99999.99 -99999.99 -99999.99 -99999.99
4/9/2021 5:45:00 PM -99999.99 -179968 -99999.99 -99999.99 -99999.99 -99999.99
4/9/2021 6:00:00 PM -99999.99 -179968 -99999.99 -99999.99 -99999.99 -99999.99
4/9/2021 6:15:00 PM -99999.99 -179968 -99999.99 -99999.99 -99999.99 -99999.99
4/9/2021 6:30:00 PM -99999.99 -179968 -99999.99 -99999.99 -99999.99 -99999.99
4/9/2021 6:45:00 PM -99999.99 -179968 -99999.99 -99999.99 -99999.99 -99999.99
4/9/2021 7:00:00 PM -99999.99 -179968 -99999.99 -99999.99 -99999.99 -99999.99
4/9/2021 7:15:00 PM -99999.99 -179968 -99999.99 -99999.99 -99999.99 -99999.99
4/9/2021 7:30:00 PM -99999.99 -179968 -99999.99 -99999.99 -99999.99 -99999.99
4/9/2021 7:45:00 PM -99999.99 -179968 -99999.99 -99999.99 -99999.99 -99999.99
4/9/2021 8:00:00 PM -99999.99 -179968 -99999.99 -99999.99 -99999.99 -99999.99
4/9/2021 8:15:00 PM -99999.99 -179968 -99999.99 -99999.99 -99999.99 -99999.99
4/9/2021 8:30:00 PM -99999.99 -179968 -99999.99 -99999.99 -99999.99 -99999.99
4/9/2021 8:45:00 PM -99999.99 -179968 -99999.99 -99999.99 -99999.99 -99999.99
4/9/2021 9:00:00 PM -99999.99 -179968 -99999.99 -99999.99 -99999.99 -99999.99
4/9/2021 9:15:00 PM -99999.99 -179968 -99999.99 -99999.99 -99999.99 -99999.99
4/9/2021 9:30:00 PM -99999.99 -179968 -99999.99 -99999.99 -99999.99 -99999.99
4/9/2021 9:45:00 PM -99999.99 -179968 -99999.99 -99999.99 -99999.99 -99999.99
4/9/2021 10:00:00 PM -99999.99 -179968 -99999.99 -99999.99 -99999.99 -99999.99
4/9/2021 10:15:00 PM -99999.99 -179968 -99999.99 -99999.99 -99999.99 -99999.99
4/9/2021 10:30:00 PM -99999.99 -179968 -99999.99 -99999.99 -99999.99 -99999.99
4/9/2021 10:45:00 PM -99999.99 -179968 -99999.99 -99999.99 -99999.99 -99999.99
4/9/2021 11:00:00 PM -99999.99 -179968 -99999.99 -99999.99 -99999.99 -99999.99
4/9/2021 11:15:00 PM -99999.99 -179968 -99999.99 -99999.99 -99999.99 -99999.99
4/9/2021 11:30:00 PM -99999.99 -179968 -99999.99 -99999.99 -99999.99 -99999.99
4/9/2021 11:45:00 PM -99999.99 -179968 -99999.99 -99999.99 -99999.99 -99999.99
4/10/2021 12:00:00 AM -99999.99 -179968 -99999.99 -99999.99 -99999.99 -99999.99
4/10/2021 12:15:00 AM -99999.99 -179968 -99999.99 -99999.99 -99999.99 -99999.99
4/10/2021 12:30:00 AM -99999.99 -179968 -99999.99 -99999.99 -99999.99 -99999.99
4/10/2021 12:45:00 AM -99999.99 -179968 -99999.99 -99999.99 -99999.99 -99999.99
4/10/2021 1:00:00 AM -99999.99 -179968 -99999.99 -99999.99 -99999.99 -99999.99
4/10/2021 1:15:00 AM -99999.99 -179968 -99999.99 -99999.99 -99999.99 -99999.99
4/10/2021 1:30:00 AM -99999.99 -179968 -99999.99 -99999.99 -99999.99 -99999.99
4/10/2021 1:45:00 AM -99999.99 -179968 -99999.99 -99999.99 -99999.99 -99999.99
4/10/2021 2:00:00 AM -99999.99 -179968 -99999.99 -99999.99 -99999.99 -99999.99
4/10/2021 2:15:00 AM -99999.99 -179968 -99999.99 -99999.99 -99999.99 -99999.99
4/10/2021 2:30:00 AM -99999.99 -179968 -99999.99 -99999.99 -99999.99 -99999.99
4/10/2021 2:45:00 AM -99999.99 -179968 -99999.99 -99999.99 -99999.99 -99999.99
4/10/2021 3:00:00 AM -99999.99 -179968 -99999.99 -99999.99 -99999.99 -99999.99
4/10/2021 3:15:00 AM -99999.99 -179968 -99999.99 -99999.99 -99999.99 -99999.99
4/10/2021 3:30:00 AM -99999.99 -179968 -99999.99 -99999.99 -99999.99 -99999.99
4/10/2021 3:45:00 AM -99999.99 -179968 -99999.99 -99999.99 -99999.99 -99999.99
4/10/2021 4:00:00 AM -99999.99 -179968 -99999.99 -99999.99 -99999.99 -99999.99
4/10/2021 4:15:00 AM -99999.99 -179968 -99999.99 -99999.99 -99999.99 -99999.99
4/10/2021 4:30:00 AM -99999.99 -179968 -99999.99 -99999.99 -99999.99 -99999.99
4/10/2021 4:45:00 AM -99999.99 -179968 -99999.99 -99999.99 -99999.99 -99999.99
4/10/2021 5:00:00 AM -99999.99 -179968 -99999.99 -99999.99 -99999.99 -99999.99
4/10/2021 5:15:00 AM -99999.99 -179968 -99999.99 -99999.99 -99999.99 -99999.99
4/10/2021 5:30:00 AM -99999.99 -179968 -99999.99 -99999.99 -99999.99 -99999.99
4/10/2021 5:45:00 AM -99999.99 -179968 -99999.99 -99999.99 -99999.99 -99999.99
4/10/2021 6:00:00 AM -99999.99 -179968 -99999.99 -99999.99 -99999.99 -99999.99
4/10/2021 6:15:00 AM -99999.99 -179968 -99999.99 -99999.99 -99999.99 -99999.99
4/10/2021 6:30:00 AM -99999.99 -179968 -99999.99 -99999.99 -99999.99 -99999.99
4/10/2021 6:45:00 AM -99999.99 -179968 -99999.99 -99999.99 -99999.99 -99999.99
4/10/2021 7:00:00 AM -99999.99 -179968 -99999.99 -99999.99 -99999.99 -99999.99
4/10/2021 7:15:00 AM -99999.99 -179968 -99999.99 -99999.99 -99999.99 -99999.99
4/10/2021 7:30:00 AM -99999.99 -179968 -99999.99 -99999.99 -99999.99 -99999.99
4/10/2021 7:45:00 AM -99999.99 -179968 -99999.99 -99999.99 -99999.99 -99999.99
4/10/2021 8:00:00 AM -99999.99 -179968 -99999.99 -99999.99 -99999.99 -99999.99
4/10/2021 8:15:00 AM -99999.99 -179968 -99999.99 -99999.99 -99999.99 -99999.99
4/10/2021 8:30:00 AM -99999.99 -179968 -99999.99 -99999.99 -99999.99 -99999.99
4/10/2021 8:45:00 AM -99999.99 -179968 -99999.99 -99999.99 -99999.99 -99999.99
4/10/2021 9:00:00 AM -99999.99 -179968 -99999.99 -99999.99 -99999.99 -99999.99
4/10/2021 9:15:00 AM -99999.99 -179968 -99999.99 -99999.99 -99999.99 -99999.99
4/10/2021 9:30:00 AM -99999.99 -179968 -99999.99 -99999.99 -99999.99 -99999.99
4/10/2021 9:45:00 AM -99999.99 -179968 -99999.99 -99999.99 -99999.99 -99999.99
4/10/2021 10:00:00 AM -99999.99 -179968 -99999.99 -99999.99 -99999.99 -99999.99
4/10/2021 10:15:00 AM -99999.99 -179968 -99999.99 -99999.99 -99999.99 -99999.99
4/10/2021 10:30:00 AM -99999.99 -179968 -99999.99 -99999.99 -99999.99 -99999.99
4/10/2021 10:45:00 AM -99999.99 -179968 -99999.99 -99999.99 -99999.99 -99999.99
4/10/2021 11:00:00 AM -99999.99 -179968 -99999.99 -99999.99 -99999.99 -99999.99
4/10/2021 11:15:00 AM 10.83 51.494 0.03 6.88 2.29 10.86
4/10/2021 11:30:00 AM 10.98 51.764 0.03 6.98 2.18 10.79
4/10/2021 11:45:00 AM 11.15 52.07 0.03 6.81 2.16 10.78
4/10/2021 12:00:00 PM 11.34 52.412 0.03 7.01 2.01 10.73
4/10/2021 12:15:00 PM 11.56 52.808 0.03 6.98 1.95 10.69
4/10/2021 12:30:00 PM 11.77 53.186 0.03 6.9 2.03 10.65
4/10/2021 12:45:00 PM 11.98 53.564 0.03 7 1.91 10.58
4/10/2021 1:00:00 PM 12.18 53.924 0.03 7.01 2.06 10.55
4/10/2021 1:15:00 PM 12.42 54.356 0.03 6.99 2.05 10.49
4/10/2021 1:30:00 PM 12.61 54.698 0.03 6.95 2.1 10.46
4/10/2021 1:45:00 PM 12.79 55.022 0.03 7.01 2.03 10.39
4/10/2021 2:00:00 PM 12.93 55.274 0.03 7 2.09 10.38
4/10/2021 2:15:00 PM 13.06 55.508 0.03 6.99 2.04 10.32
4/10/2021 2:30:00 PM 13.23 55.814 0.03 6.97 2.05 10.29
4/10/2021 2:45:00 PM 13.39 56.102 0.03 6.95 4.25 10.27
4/10/2021 3:00:00 PM 13.52 56.336 0.03 6.97 2.23 10.2
4/10/2021 3:15:00 PM 13.61 56.498 0.03 7 3.39 10.19
4/10/2021 3:30:00 PM 13.65 56.57 0.03 6.9 2.25 10.18
4/10/2021 3:45:00 PM 13.68 56.624 0.03 6.92 2.07 10.15
4/10/2021 4:00:00 PM 13.72 56.696 0.03 7.01 2.14 10.13
4/10/2021 4:15:00 PM 13.75 56.75 0.03 7.01 2.28 10.07
4/10/2021 4:30:00 PM 13.75 56.75 0.03 6.76 1.96 10.07
4/10/2021 4:45:00 PM 13.71 56.678 0.03 6.89 2 10.07
4/10/2021 5:00:00 PM 13.65 56.57 0.03 7 1.86 10.05
4/10/2021 5:15:00 PM 13.56 56.408 0.03 6.93 1.9 10.07
4/10/2021 5:30:00 PM 13.49 56.282 0.03 7 2.01 10.07
4/10/2021 5:45:00 PM 13.42 56.156 0.03 6.95 1.89 10.06
4/10/2021 6:00:00 PM 13.34 56.012 0.03 6.93 1.97 10.04
4/10/2021 6:15:00 PM 13.25 55.85 0.03 6.95 2.33 10.03
4/10/2021 6:30:00 PM 13.16 55.688 0.03 6.94 1.9 10.04
4/10/2021 6:45:00 PM 13.06 55.508 0.03 6.9 1.86 10.04
4/10/2021 7:00:00 PM 12.96 55.328 0.03 6.95 1.92 10.01
4/10/2021 7:15:00 PM 12.86 55.148 0.03 6.82 1.97 9.97
4/10/2021 7:30:00 PM 12.76 54.968 0.03 6.92 1.96 9.95
4/10/2021 7:45:00 PM 12.66 54.788 0.031 6.89 1.9 9.93
4/10/2021 8:00:00 PM 12.57 54.626 0.031 6.89 1.95 9.91
4/10/2021 8:15:00 PM 12.49 54.482 0.031 6.89 1.93 9.89
4/10/2021 8:30:00 PM 12.41 54.338 0.031 6.85 2.05 9.89
4/10/2021 8:45:00 PM 12.32 54.176 0.031 6.89 2.03 9.9
4/10/2021 9:00:00 PM 12.26 54.068 0.031 6.72 2.14 9.9
4/10/2021 9:15:00 PM 12.19 53.942 0.031 6.8 2.26 9.93
4/10/2021 9:30:00 PM 12.14 53.852 0.031 6.8 2.1 9.95
4/10/2021 9:45:00 PM 12.09 53.762 0.031 6.89 2.17 9.98
4/10/2021 10:00:00 PM 12.04 53.672 0.031 6.8 2.03 9.99
4/10/2021 10:15:00 PM 11.98 53.564 0.031 6.86 1.95 9.99
4/10/2021 10:30:00 PM 11.93 53.474 0.031 6.87 1.97 10
4/10/2021 10:45:00 PM 11.89 53.402 0.031 6.85 2.06 10.01
4/10/2021 11:00:00 PM 11.85 53.33 0.031 6.8 2.07 10.01
4/10/2021 11:15:00 PM 11.81 53.258 0.031 6.87 1.98 10.01
4/10/2021 11:30:00 PM 11.77 53.186 0.031 6.85 2.04 10.03
4/10/2021 11:45:00 PM 11.73 53.114 0.031 6.84 2.04 10.03
4/11/2021 12:00:00 AM 11.7 53.06 0.031 6.85 2.05 10.07
4/11/2021 12:15:00 AM 11.65 52.97 0.031 6.84 1.93 10.07
4/11/2021 12:30:00 AM 11.62 52.916 0.031 6.82 1.96 10.08
4/11/2021 12:45:00 AM 11.58 52.844 0.031 6.73 2.02 10.08
4/11/2021 1:00:00 AM 11.54 52.772 0.031 6.75 1.98 10.09
4/11/2021 1:15:00 AM 11.51 52.718 0.031 6.88 2.02 10.1
4/11/2021 1:30:00 AM 11.47 52.646 0.031 6.85 2.03 10.1
4/11/2021 1:45:00 AM 11.43 52.574 0.031 6.7 2 10.1
4/11/2021 2:00:00 AM 11.4 52.52 0.031 6.85 1.96 10.09
4/11/2021 2:15:00 AM 11.37 52.466 0.031 6.86 1.97 10.09
4/11/2021 2:30:00 AM 11.34 52.412 0.031 6.86 2.03 10.09
4/11/2021 2:45:00 AM 11.31 52.358 0.031 6.77 1.99 10.1
4/11/2021 3:00:00 AM 11.28 52.304 0.031 6.86 2.01 10.1
4/11/2021 3:15:00 AM 11.26 52.268 0.031 6.85 2.13 10.13
4/11/2021 3:30:00 AM 11.22 52.196 0.031 6.84 2.08 10.12
4/11/2021 3:45:00 AM 11.2 52.16 0.031 6.83 2.13 10.12
4/11/2021 4:00:00 AM 11.17 52.106 0.031 6.7 2.03 10.14
4/11/2021 4:15:00 AM 11.15 52.07 0.031 6.85 2.27 10.15
4/11/2021 4:30:00 AM 11.14 52.052 0.031 6.82 1.97 10.13
4/11/2021 4:45:00 AM 11.12 52.016 0.031 6.85 2.06 10.14
4/11/2021 5:00:00 AM 11.1 51.98 0.031 6.82 2.18 10.16
4/11/2021 5:15:00 AM 11.09 51.962 0.031 6.72 2.17 10.15
4/11/2021 5:30:00 AM 11.08 51.944 0.031 6.78 2.21 10.16
4/11/2021 5:45:00 AM 11.06 51.908 0.031 6.86 2.18 10.16
4/11/2021 6:00:00 AM 11.05 51.89 0.031 6.85 2.21 10.16
4/11/2021 6:15:00 AM 11.03 51.854 0.031 6.85 2.72 10.15
4/11/2021 6:30:00 AM 11.02 51.836 0.031 6.82 2.32 10.15
4/11/2021 6:45:00 AM 11.01 51.818 0.031 6.87 2.32 10.17
4/11/2021 7:00:00 AM 10.99 51.782 0.031 6.82 2.46 10.17
4/11/2021 7:15:00 AM 10.97 51.746 0.031 6.83 2.82 10.17
4/11/2021 7:30:00 AM 10.96 51.728 0.031 6.77 2.7 10.19
4/11/2021 7:45:00 AM 10.95 51.71 0.031 6.77 2.65 10.2
4/11/2021 8:00:00 AM 10.94 51.692 0.031 6.81 2.74 10.23
4/11/2021 8:15:00 AM 10.93 51.674 0.031 6.8 3 10.24
4/11/2021 8:30:00 AM 10.92 51.656 0.031 6.76 3.05 10.28
4/11/2021 8:45:00 AM 10.92 51.656 0.031 6.9 2.94 10.31
4/11/2021 9:00:00 AM 10.92 51.656 0.031 6.76 2.93 10.32
4/11/2021 9:15:00 AM 10.92 51.656 0.031 6.91 3.04 10.36
4/11/2021 9:30:00 AM 10.94 51.692 0.031 6.93 3.6 10.37
4/11/2021 9:45:00 AM 10.95 51.71 0.031 6.74 3.72 10.42
4/11/2021 10:00:00 AM 10.96 51.728 0.03 6.96 3.61 10.45
4/11/2021 10:15:00 AM 10.97 51.746 0.03 6.95 3.47 10.48
4/11/2021 10:30:00 AM 11 51.8 0.03 6.97 3.5 10.52
4/11/2021 10:45:00 AM 11.04 51.872 0.03 6.99 3.39 10.54
4/11/2021 11:00:00 AM 11.12 52.016 0.03 6.99 3.57 10.57
4/11/2021 11:15:00 AM 11.22 52.196 0.03 6.96 3.35 10.55
4/11/2021 11:30:00 AM 11.3 52.34 0.03 7 3.56 10.52
4/11/2021 11:45:00 AM 11.34 52.412 0.03 6.94 3.5 10.51
4/11/2021 12:00:00 PM 11.43 52.574 0.03 7.01 3.48 10.51
4/11/2021 12:15:00 PM 11.6 52.88 0.03 7.02 3.53 10.51
4/11/2021 12:30:00 PM 11.75 53.15 0.03 7.02 3.73 10.47
4/11/2021 12:45:00 PM 11.9 53.42 0.03 7.01 3.62 10.43
4/11/2021 1:00:00 PM 12.15 53.87 0.03 7 3.51 10.41
4/11/2021 1:15:00 PM 12.25 54.05 0.03 7.02 3.4 10.35
4/11/2021 1:30:00 PM 12.33 54.194 0.029 6.92 3.43 10.31
4/11/2021 1:45:00 PM 12.36 54.248 0.029 6.98 3.48 10.29
4/11/2021 2:00:00 PM 12.36 54.248 0.029 6.95 3.96 10.25
4/11/2021 2:15:00 PM 12.32 54.176 0.029 7.03 3.25 10.19
4/11/2021 2:30:00 PM 12.29 54.122 0.029 6.92 3.3 10.16
4/11/2021 2:45:00 PM 12.32 54.176 0.029 6.99 3.31 10.19
4/11/2021 3:00:00 PM 12.33 54.194 0.029 7.01 3.3 10.19
4/11/2021 3:15:00 PM 12.28 54.104 0.029 6.84 3.22 10.11
4/11/2021 3:30:00 PM 12.23 54.014 0.029 6.91 3.31 10.08
4/11/2021 3:45:00 PM 12.23 54.014 0.029 6.87 3.32 10.13
4/11/2021 4:00:00 PM 12.29 54.122 0.029 6.99 3.36 10.19
4/11/2021 4:15:00 PM 12.29 54.122 0.029 7.02 3.2 10.22
4/11/2021 4:30:00 PM 12.31 54.158 0.029 6.88 3.49 10.24
4/11/2021 4:45:00 PM 12.29 54.122 0.029 6.89 3.17 10.21
4/11/2021 5:00:00 PM 12.24 54.032 0.029 7 2.96 10.19
4/11/2021 5:15:00 PM 12.22 53.996 0.029 6.97 2.99 10.19
4/11/2021 5:30:00 PM 12.29 54.122 0.029 6.95 2.95 10.16
4/11/2021 5:45:00 PM 12.31 54.158 0.029 6.99 2.81 10.21
4/11/2021 6:00:00 PM 12.27 54.086 0.029 6.79 3 10.19
4/11/2021 6:15:00 PM 12.24 54.032 0.029 6.97 2.88 10.17
4/11/2021 6:30:00 PM 12.24 54.032 0.029 6.96 2.94 10.17
4/11/2021 6:45:00 PM 12.22 53.996 0.029 6.82 2.9 10.17
4/11/2021 7:00:00 PM 12.15 53.87 0.029 6.85 2.78 10.09
4/11/2021 7:15:00 PM 12.07 53.726 0.029 6.93 2.77 10.07
4/11/2021 7:30:00 PM 12.02 53.636 0.029 6.87 2.78 10.04
4/11/2021 7:45:00 PM 11.96 53.528 0.029 6.9 2.73 10.02
4/11/2021 8:00:00 PM 11.92 53.456 0.029 6.87 2.86 10.03
4/11/2021 8:15:00 PM 11.87 53.366 0.029 6.87 2.55 10.02
4/11/2021 8:30:00 PM 11.81 53.258 0.029 6.71 3.72 10.02
4/11/2021 8:45:00 PM 11.76 53.168 0.029 6.78 3.65 10.02
4/11/2021 9:00:00 PM 11.71 53.078 0.029 6.87 2.65 10.01
4/11/2021 9:15:00 PM 11.66 52.988 0.029 6.84 2.66 10.03
4/11/2021 9:30:00 PM 11.62 52.916 0.029 6.74 2.57 10.03
4/11/2021 9:45:00 PM 11.58 52.844 0.029 6.86 2.57 10.06
4/11/2021 10:00:00 PM 11.53 52.754 0.029 6.71 2.81 10.07
4/11/2021 10:15:00 PM 11.49 52.682 0.029 6.77 2.69 10.1
4/11/2021 10:30:00 PM 11.44 52.592 0.029 6.78 2.66 10.11
4/11/2021 10:45:00 PM 11.4 52.52 0.029 6.75 2.99 10.14
4/11/2021 11:00:00 PM 11.37 52.466 0.029 6.81 2.79 10.14
4/11/2021 11:15:00 PM 11.33 52.394 0.029 6.7 2.88 10.14
4/11/2021 11:30:00 PM 11.29 52.322 0.029 6.72 3 10.15
4/11/2021 11:45:00 PM 11.25 52.25 0.029 6.82 2.96 10.15
4/12/2021 12:00:00 AM 11.22 52.196 0.029 6.78 2.96 10.16
4/12/2021 12:15:00 AM 11.18 52.124 0.029 6.85 2.92 10.16
4/12/2021 12:30:00 AM 11.14 52.052 0.029 6.87 2.73 10.17
4/12/2021 12:45:00 AM 11.1 51.98 0.029 6.85 2.62 10.19
4/12/2021 1:00:00 AM 11.07 51.926 0.029 6.87 2.59 10.2
4/12/2021 1:15:00 AM 11.03 51.854 0.029 6.69 2.49 10.22
4/12/2021 1:30:00 AM 10.98 51.764 0.029 6.84 2.62 10.22
4/12/2021 1:45:00 AM 10.94 51.692 0.029 6.83 2.62 10.26
4/12/2021 2:00:00 AM 10.91 51.638 0.029 6.74 2.64 10.26
4/12/2021 2:15:00 AM 10.88 51.584 0.029 6.85 2.59 10.27
4/12/2021 2:30:00 AM 10.86 51.548 0.029 6.82 2.67 10.27
4/12/2021 2:45:00 AM 10.83 51.494 0.029 6.81 3.05 10.28
4/12/2021 3:00:00 AM 10.81 51.458 0.029 6.86 2.81 10.28
4/12/2021 3:15:00 AM 10.77 51.386 0.029 6.83 2.63 10.27
4/12/2021 3:30:00 AM 10.74 51.332 0.029 6.7 2.77 10.27
4/12/2021 3:45:00 AM 10.7 51.26 0.029 6.83 2.61 10.27
4/12/2021 4:00:00 AM 10.67 51.206 0.029 6.86 2.67 10.28
4/12/2021 4:15:00 AM 10.64 51.152 0.029 6.86 2.6 10.3
4/12/2021 4:30:00 AM 10.6 51.08 0.029 6.78 2.77 10.31
4/12/2021 4:45:00 AM 10.56 51.008 0.029 6.87 2.59 10.33
4/12/2021 5:00:00 AM 10.52 50.936 0.029 6.62 2.52 10.35
4/12/2021 5:15:00 AM 10.49 50.882 0.029 6.85 2.57 10.38
4/12/2021 5:30:00 AM 10.46 50.828 0.029 6.86 2.65 10.38
4/12/2021 5:45:00 AM 10.43 50.774 0.029 6.87 2.53 10.4
4/12/2021 6:00:00 AM 10.4 50.72 0.029 6.85 2.62 10.41
4/12/2021 6:15:00 AM 10.36 50.648 0.029 6.74 2.4 10.42
4/12/2021 6:30:00 AM 10.33 50.594 0.029 6.79 2.55 10.41
4/12/2021 6:45:00 AM 10.3 50.54 0.029 6.86 2.46 10.4
4/12/2021 7:00:00 AM 10.27 50.486 0.029 6.84 2.52 10.42
4/12/2021 7:15:00 AM 10.24 50.432 0.029 6.85 2.62 10.43
4/12/2021 7:30:00 AM 10.21 50.378 0.029 6.67 2.43 10.43
4/12/2021 7:45:00 AM 10.18 50.324 0.029 6.87 2.36 10.47
4/12/2021 8:00:00 AM 10.16 50.288 0.029 6.88 2.38 10.52
4/12/2021 8:15:00 AM 10.15 50.27 0.029 6.73 2.3 10.58
4/12/2021 8:30:00 AM 10.13 50.234 0.029 6.87 2.28 10.61
4/12/2021 8:45:00 AM 10.11 50.198 0.029 6.9 2.25 10.65
4/12/2021 9:00:00 AM 10.09 50.162 0.029 6.83 2.28 10.67
4/12/2021 9:15:00 AM 10.08 50.144 0.029 6.76 2.31 10.69
4/12/2021 9:30:00 AM 10.07 50.126 0.029 6.94 2.25 10.72
4/12/2021 9:45:00 AM 10.07 50.126 0.029 6.92 2.27 10.73
4/12/2021 10:00:00 AM 10.06 50.108 0.029 6.91 2.27 10.74
4/12/2021 10:15:00 AM 10.05 50.09 0.029 6.81 2.22 10.76
4/12/2021 10:30:00 AM 10.05 50.09 0.029 6.89 2.2 10.78
4/12/2021 10:45:00 AM 10.08 50.144 0.029 6.94 2.2 10.81
4/12/2021 11:00:00 AM 10.13 50.234 0.029 6.79 2.29 10.8
4/12/2021 11:15:00 AM 10.21 50.378 0.029 6.94 2.43 10.82
4/12/2021 11:30:00 AM 10.32 50.576 0.029 6.98 2.27 10.81
4/12/2021 11:45:00 AM 10.39 50.702 0.029 6.83 2.31 10.81
4/12/2021 12:00:00 PM 10.4 50.72 0.029 6.99 2.15 10.81
4/12/2021 12:15:00 PM 10.41 50.738 0.029 6.96 2.42 10.81
4/12/2021 12:30:00 PM 10.46 50.828 0.029 6.93 2.24 10.81
4/12/2021 12:45:00 PM 10.51 50.918 0.029 6.91 2.18 10.8
4/12/2021 1:00:00 PM 10.5 50.9 0.029 6.87 2.2 10.76
4/12/2021 1:15:00 PM 10.46 50.828 0.029 6.96 2.12 10.73
4/12/2021 1:30:00 PM 10.43 50.774 0.029 6.94 2.17 10.7
4/12/2021 1:45:00 PM 10.43 50.774 0.029 6.95 2.21 10.71
4/12/2021 2:00:00 PM 10.47 50.846 0.029 6.98 2.24 10.74
4/12/2021 2:15:00 PM 10.55 50.99 0.029 6.98 2.27 10.78
4/12/2021 2:30:00 PM 10.59 51.062 0.029 6.96 2.36 10.77
4/12/2021 2:45:00 PM 10.57 51.026 0.029 6.98 2.21 10.74
4/12/2021 3:00:00 PM 10.55 50.99 0.029 6.98 2.71 10.75
4/12/2021 3:15:00 PM 10.56 51.008 0.029 6.98 3.17 10.74
4/12/2021 3:30:00 PM 10.57 51.026 0.029 6.98 2.91 10.72
4/12/2021 3:45:00 PM 10.57 51.026 0.029 6.84 2.48 10.72
4/12/2021 4:00:00 PM 10.62 51.116 0.029 6.99 2.57 10.73
4/12/2021 4:15:00 PM 10.67 51.206 0.029 6.79 2.36 10.71
4/12/2021 4:30:00 PM 10.73 51.314 0.029 7 2.49 10.71
4/12/2021 4:45:00 PM 10.72 51.296 0.029 7.01 2.61 10.7
4/12/2021 5:00:00 PM 10.69 51.242 0.029 6.98 2.28 10.68
4/12/2021 5:15:00 PM 10.64 51.152 0.029 6.94 2.33 10.6
4/12/2021 5:30:00 PM 10.6 51.08 0.029 6.91 2.3 10.55
4/12/2021 5:45:00 PM 10.56 51.008 0.029 6.92 2.28 10.56
4/12/2021 6:00:00 PM 10.54 50.972 0.029 6.91 2.34 10.6
4/12/2021 6:15:00 PM 10.52 50.936 0.029 6.92 2.48 10.65
4/12/2021 6:30:00 PM 10.5 50.9 0.029 6.87 2.78 10.66
4/12/2021 6:45:00 PM 10.45 50.81 0.029 6.85 3.98 10.65
4/12/2021 7:00:00 PM 10.4 50.72 0.029 6.88 10.28 10.61
4/12/2021 7:15:00 PM 10.37 50.666 0.029 6.95 8.13 10.59
4/12/2021 7:30:00 PM 10.33 50.594 0.029 6.94 4.93 10.55
4/12/2021 7:45:00 PM 10.3 50.54 0.03 6.85 4.53 10.53
4/12/2021 8:00:00 PM 10.27 50.486 0.03 6.9 5.6 10.51
4/12/2021 8:15:00 PM 10.24 50.432 0.03 6.77 5.8 10.5
4/12/2021 8:30:00 PM 10.2 50.36 0.03 6.82 4.37 10.5
4/12/2021 8:45:00 PM 10.17 50.306 0.03 6.79 3.75 10.52
4/12/2021 9:00:00 PM 10.14 50.252 0.03 6.92 3.54 10.54
4/12/2021 9:15:00 PM 10.11 50.198 0.03 6.8 3.38 10.56
4/12/2021 9:30:00 PM 10.08 50.144 0.03 6.89 3.11 10.58
4/12/2021 9:45:00 PM 10.05 50.09 0.03 6.73 3.03 10.59
4/12/2021 10:00:00 PM 10.02 50.036 0.03 6.82 2.91 10.6
4/12/2021 10:15:00 PM 9.99 49.982 0.03 6.88 3.06 10.6
4/12/2021 10:30:00 PM 9.97 49.946 0.03 6.87 2.9 10.62
4/12/2021 10:45:00 PM 9.95 49.91 0.03 6.87 2.92 10.62
4/12/2021 11:00:00 PM 9.92 49.856 0.03 6.83 2.94 10.62
4/12/2021 11:15:00 PM 9.89 49.802 0.03 6.87 2.9 10.61
4/12/2021 11:30:00 PM 9.87 49.766 0.03 6.85 2.85 10.61
4/12/2021 11:45:00 PM 9.85 49.73 0.03 6.87 2.83 10.61
4/13/2021 12:00:00 AM 9.82 49.676 0.03 6.74 2.77 10.62
4/13/2021 12:15:00 AM 9.8 49.64 0.03 6.78 2.76 10.62
4/13/2021 12:30:00 AM 9.78 49.604 0.03 6.81 2.68 10.63
4/13/2021 12:45:00 AM 9.76 49.568 0.03 6.79 2.59 10.63
4/13/2021 1:00:00 AM 9.74 49.532 0.03 6.8 2.63 10.65
4/13/2021 1:15:00 AM 9.72 49.496 0.03 6.89 2.52 10.66
4/13/2021 1:30:00 AM 9.7 49.46 0.03 6.88 2.69 10.67
4/13/2021 1:45:00 AM 9.68 49.424 0.03 6.73 2.49 10.69
4/13/2021 2:00:00 AM 9.66 49.388 0.031 6.87 2.42 10.7
4/13/2021 2:15:00 AM 9.63 49.334 0.03 6.74 2.53 10.72
4/13/2021 2:30:00 AM 9.61 49.298 0.03 6.8 2.54 10.74
4/13/2021 2:45:00 AM 9.58 49.244 0.03 6.82 2.54 10.73
4/13/2021 3:00:00 AM 9.56 49.208 0.03 6.75 2.42 10.75
4/13/2021 3:15:00 AM 9.55 49.19 0.03 6.88 2.38 10.76
4/13/2021 3:30:00 AM 9.52 49.136 0.03 6.88 2.44 10.75
4/13/2021 3:45:00 AM 9.5 49.1 0.03 6.86 2.37 10.76
4/13/2021 4:00:00 AM 9.49 49.082 0.031 6.7 2.29 10.76
4/13/2021 4:15:00 AM 9.47 49.046 0.031 6.9 2.31 10.76
4/13/2021 4:30:00 AM 9.45 49.01 0.031 6.84 2.38 10.75
4/13/2021 4:45:00 AM 9.44 48.992 0.031 6.87 2.53 10.76
4/13/2021 5:00:00 AM 9.43 48.974 0.031 6.86 2.44 10.76
4/13/2021 5:15:00 AM 9.42 48.956 0.031 6.81 2.29 10.77
4/13/2021 5:30:00 AM 9.4 48.92 0.031 6.88 2.42 10.77
4/13/2021 5:45:00 AM 9.38 48.884 0.031 6.88 2.48 10.78
4/13/2021 6:00:00 AM 9.37 48.866 0.031 6.87 2.33 10.78
4/13/2021 6:15:00 AM 9.36 48.848 0.031 6.87 2.42 10.78
4/13/2021 6:30:00 AM 9.34 48.812 0.031 6.72 2.22 10.79
4/13/2021 6:45:00 AM 9.33 48.794 0.031 6.88 2.39 10.8
4/13/2021 7:00:00 AM 9.32 48.776 0.031 6.86 2.25 10.8
4/13/2021 7:15:00 AM 9.31 48.758 0.031 6.8 2.28 10.84
4/13/2021 7:30:00 AM 9.3 48.74 0.031 6.92 2.23 10.89
4/13/2021 7:45:00 AM 9.28 48.704 0.031 6.92 2.33 10.93
4/13/2021 8:00:00 AM 9.3 48.74 0.03 6.91 2.2 10.97
4/13/2021 8:15:00 AM 9.32 48.776 0.03 6.93 2.24 11
4/13/2021 8:30:00 AM 9.33 48.794 0.03 6.8 2.35 11.03
4/13/2021 8:45:00 AM 9.36 48.848 0.03 6.92 2.24 11.05
4/13/2021 9:00:00 AM 9.38 48.884 0.03 6.97 2.25 11.06
4/13/2021 9:15:00 AM 9.42 48.956 0.03 6.92 2.29 11.08
4/13/2021 9:30:00 AM 9.46 49.028 0.03 6.88 2.23 11.1
4/13/2021 9:45:00 AM 9.52 49.136 0.03 6.95 2.19 11.11
4/13/2021 10:00:00 AM 9.57 49.226 0.03 7.02 2.3 11.13
4/13/2021 10:15:00 AM 9.7 49.46 0.03 6.99 2.24 11.15
4/13/2021 10:30:00 AM 9.83 49.694 0.03 6.87 2.16 11.1
4/13/2021 10:45:00 AM 9.89 49.802 0.03 7.03 2.11 11.06
4/13/2021 11:00:00 AM 9.98 49.964 0.03 7.02 2.18 11.04
4/13/2021 11:15:00 AM 10.09 50.162 0.03 6.99 2.14 11.07
4/13/2021 11:30:00 AM 10.22 50.396 0.03 7.06 2.16 11.06
4/13/2021 11:45:00 AM 10.33 50.594 0.03 7.05 2.18 11.01
4/13/2021 12:00:00 PM 10.44 50.792 0.03 6.96 2.13 10.97
4/13/2021 12:15:00 PM 10.51 50.918 0.03 6.95 2.2 10.96
4/13/2021 12:30:00 PM 10.62 51.116 0.03 6.94 2.19 10.98
4/13/2021 12:45:00 PM 10.73 51.314 0.03 7.04 2.16 10.93
4/13/2021 1:00:00 PM 10.79 51.422 0.03 6.95 2.13 10.89
4/13/2021 1:15:00 PM 10.8 51.44 0.03 7.05 2.24 10.86
4/13/2021 1:30:00 PM 10.81 51.458 0.03 7.03 2.2 10.81
4/13/2021 1:45:00 PM 10.95 51.71 0.03 7.05 2.21 10.82
4/13/2021 2:00:00 PM 10.93 51.674 0.03 7.01 2.16 10.76
4/13/2021 2:15:00 PM 10.89 51.602 0.03 7 2.13 10.74
4/13/2021 2:30:00 PM 10.92 51.656 0.03 7.04 2.36 10.77
4/13/2021 2:45:00 PM 11.19 52.142 0.03 7.04 2.17 10.79
4/13/2021 3:00:00 PM 11.16 52.088 0.03 7.02 2.34 10.74
4/13/2021 3:15:00 PM 11.09 51.962 0.03 6.94 2.16 10.74
4/13/2021 3:30:00 PM 11.32 52.376 0.03 6.95 2.17 10.73
4/13/2021 3:45:00 PM 11.54 52.772 0.03 7.05 2.16 10.72
4/13/2021 4:00:00 PM 11.59 52.862 0.03 7.04 2.14 10.67
4/13/2021 4:15:00 PM 11.53 52.754 0.03 6.88 2.66 10.68
4/13/2021 4:30:00 PM 11.56 52.808 0.03 7.06 2.11 10.66
4/13/2021 4:45:00 PM 11.44 52.592 0.03 7.03 2.25 10.63
4/13/2021 5:00:00 PM 11.39 52.502 0.03 7.04 2.21 10.64
4/13/2021 5:15:00 PM 11.45 52.61 0.03 7.03 2.09 10.67
4/13/2021 5:30:00 PM 11.39 52.502 0.03 7.05 2.2 10.64
4/13/2021 5:45:00 PM 11.32 52.376 0.03 7.04 2.2 10.61
4/13/2021 6:00:00 PM 11.26 52.268 0.03 6.96 2.24 10.58
4/13/2021 6:15:00 PM 11.24 52.232 0.03 7 2.19 10.54
4/13/2021 6:30:00 PM 11.24 52.232 0.03 6.84 2.19 10.53
4/13/2021 6:45:00 PM 11.24 52.232 0.03 6.92 2.3 10.55
4/13/2021 7:00:00 PM 11.19 52.142 0.03 6.99 2.23 10.53
4/13/2021 7:15:00 PM 11.12 52.016 0.031 6.97 2.21 10.5
4/13/2021 7:30:00 PM 11.06 51.908 0.031 6.92 2.27 10.49
4/13/2021 7:45:00 PM 11.02 51.836 0.031 6.93 2.31 10.48
4/13/2021 8:00:00 PM 10.97 51.746 0.031 6.9 2.17 10.45
4/13/2021 8:15:00 PM 10.92 51.656 0.031 6.93 2.27 10.44
4/13/2021 8:30:00 PM 10.86 51.548 0.031 6.9 2.26 10.44
4/13/2021 8:45:00 PM 10.8 51.44 0.031 6.89 2.25 10.44
4/13/2021 9:00:00 PM 10.76 51.368 0.031 6.84 2.28 10.43
4/13/2021 9:15:00 PM 10.72 51.296 0.031 6.9 2.37 10.44
4/13/2021 9:30:00 PM 10.67 51.206 0.031 6.88 2.38 10.44
4/13/2021 9:45:00 PM 10.62 51.116 0.031 6.9 2.34 10.47
4/13/2021 10:00:00 PM 10.57 51.026 0.031 6.84 2.29 10.49
4/13/2021 10:15:00 PM 10.5 50.9 0.031 6.9 2.25 10.51
4/13/2021 10:30:00 PM 10.45 50.81 0.031 6.88 2.31 10.54
4/13/2021 10:45:00 PM 10.39 50.702 0.031 6.8 2.31 10.55
4/13/2021 11:00:00 PM 10.33 50.594 0.031 6.92 2.23 10.56
4/13/2021 11:15:00 PM 10.26 50.468 0.031 6.83 2.19 10.56
4/13/2021 11:30:00 PM 10.2 50.36 0.031 6.78 2.28 10.56
4/13/2021 11:45:00 PM 10.13 50.234 0.031 6.89 2.28 10.58
4/14/2021 12:00:00 AM 10.06 50.108 0.031 6.78 2.33 10.62
4/14/2021 12:15:00 AM 9.99 49.982 0.031 6.9 2.33 10.65
4/14/2021 12:30:00 AM 9.93 49.874 0.031 6.87 2.26 10.69
4/14/2021 12:45:00 AM 9.87 49.766 0.031 6.84 2.29 10.7
4/14/2021 1:00:00 AM 9.8 49.64 0.031 6.83 2.63 10.68
4/14/2021 1:15:00 AM 9.74 49.532 0.031 6.8 2.33 10.68
4/14/2021 1:30:00 AM 9.68 49.424 0.031 6.89 2.33 10.68
4/14/2021 1:45:00 AM 9.63 49.334 0.031 6.9 2.31 10.71
4/14/2021 2:00:00 AM 9.59 49.262 0.031 6.88 2.43 10.74
4/14/2021 2:15:00 AM 9.55 49.19 0.031 6.81 2.37 10.76
4/14/2021 2:30:00 AM 9.51 49.118 0.031 6.73 2.31 10.78
4/14/2021 2:45:00 AM 9.47 49.046 0.031 6.9 2.52 10.81
4/14/2021 3:00:00 AM 9.43 48.974 0.031 6.85 2.4 10.83
4/14/2021 3:15:00 AM 9.38 48.884 0.031 6.9 2.44 10.83
4/14/2021 3:30:00 AM 9.33 48.794 0.031 6.74 2.3 10.83
4/14/2021 3:45:00 AM 9.29 48.722 0.031 6.9 2.21 10.82
4/14/2021 4:00:00 AM 9.23 48.614 0.031 6.87 2.31 10.82
4/14/2021 4:15:00 AM 9.17 48.506 0.031 6.72 2.24 10.84
4/14/2021 4:30:00 AM 9.13 48.434 0.031 6.89 2.27 10.86
4/14/2021 4:45:00 AM 9.09 48.362 0.031 6.88 2.55 10.89
4/14/2021 5:00:00 AM 9.05 48.29 0.031 6.81 2.28 10.91
4/14/2021 5:15:00 AM 9 48.2 0.031 6.78 2.28 10.93
4/14/2021 5:30:00 AM 8.96 48.128 0.031 6.88 2.26 10.96
4/14/2021 5:45:00 AM 8.92 48.056 0.031 6.85 2.38 10.95
4/14/2021 6:00:00 AM 8.88 47.984 0.031 6.73 2.32 10.96
4/14/2021 6:15:00 AM 8.85 47.93 0.031 6.9 2.35 10.96
4/14/2021 6:30:00 AM 8.82 47.876 0.031 6.72 2.27 10.95
4/14/2021 6:45:00 AM 8.78 47.804 0.031 6.81 2.43 10.98
4/14/2021 7:00:00 AM 8.74 47.732 0.031 6.9 2.34 11.01
4/14/2021 7:15:00 AM 8.7 47.66 0.031 6.75 2.3 11.06
4/14/2021 7:30:00 AM 8.69 47.642 0.031 6.93 2.27 11.12
4/14/2021 7:45:00 AM 8.67 47.606 0.031 6.91 2.27 11.14
4/14/2021 8:00:00 AM 8.66 47.588 0.031 6.79 2.29 11.2
4/14/2021 8:15:00 AM 8.64 47.552 0.031 6.86 2.3 11.24
4/14/2021 8:30:00 AM 8.66 47.588 0.031 6.94 2.19 11.27
4/14/2021 8:45:00 AM 8.67 47.606 0.031 6.9 2.17 11.28
4/14/2021 9:00:00 AM 8.69 47.642 0.031 6.85 2.22 11.28
4/14/2021 9:15:00 AM 8.73 47.714 0.031 7.01 2.31 11.29
4/14/2021 9:30:00 AM 8.77 47.786 0.031 6.97 2.32 11.29
4/14/2021 9:45:00 AM 8.82 47.876 0.031 6.95 2.23 11.29
4/14/2021 10:00:00 AM 8.89 48.002 0.031 6.9 2.2 11.31
4/14/2021 10:15:00 AM 8.97 48.146 0.031 6.93 2.34 11.32
4/14/2021 10:30:00 AM 9.04 48.272 0.031 6.94 2.18 11.33
4/14/2021 10:45:00 AM 9.13 48.434 0.031 6.99 2.19 11.32
4/14/2021 11:00:00 AM 9.28 48.704 0.031 6.93 2.24 11.26
4/14/2021 11:15:00 AM 9.45 49.01 0.031 6.95 2.14 11.22
4/14/2021 11:30:00 AM 9.67 49.406 0.031 7.05 2.25 11.23
4/14/2021 11:45:00 AM 9.82 49.676 0.031 7.06 2.15 11.13
4/14/2021 12:00:00 PM 9.98 49.964 0.031 7.03 2.26 11.09
4/14/2021 12:15:00 PM 10.15 50.27 0.031 7.08 2.3 11.09
4/14/2021 12:30:00 PM 10.26 50.468 0.031 7.03 2.21 11.02
4/14/2021 12:45:00 PM 10.57 51.026 0.031 6.92 2.22 11
4/14/2021 1:00:00 PM 10.87 51.566 0.03 7.03 2.19 10.89
4/14/2021 1:15:00 PM 11.09 51.962 0.03 7.05 2.14 10.86
4/14/2021 1:30:00 PM 11.28 52.304 0.031 7.06 2.19 10.78
4/14/2021 1:45:00 PM 11.51 52.718 0.031 6.96 2.35 10.76
4/14/2021 2:00:00 PM 11.71 53.078 0.031 6.97 2.23 10.67
4/14/2021 2:15:00 PM 11.75 53.15 0.031 7.02 2.32 10.62
4/14/2021 2:30:00 PM 11.7 53.06 0.031 7.05 2.12 10.59
4/14/2021 2:45:00 PM 11.82 53.276 0.03 7.08 2.22 10.6
4/14/2021 3:00:00 PM 11.97 53.546 0.031 7.05 2.56 10.58
4/14/2021 3:15:00 PM 12 53.6 0.031 6.95 2.27 10.55
4/14/2021 3:30:00 PM 11.93 53.474 0.03 6.99 2.18 10.55
4/14/2021 3:45:00 PM 12 53.6 0.031 7.08 2.22 10.52
4/14/2021 4:00:00 PM 11.98 53.564 0.031 6.92 2.38 10.52
4/14/2021 4:15:00 PM 12 53.6 0.031 7.08 2.25 10.49
4/14/2021 4:30:00 PM 11.88 53.384 0.031 6.88 2.21 10.49
4/14/2021 4:45:00 PM 11.84 53.312 0.031 7.08 2.24 10.49
4/14/2021 5:00:00 PM 11.81 53.258 0.031 6.9 2.27 10.49
4/14/2021 5:15:00 PM 11.77 53.186 0.031 7.03 2.27 10.49
4/14/2021 5:30:00 PM 11.73 53.114 0.031 6.97 2.17 10.5
4/14/2021 5:45:00 PM 11.66 52.988 0.031 7.07 2.22 10.51
4/14/2021 6:00:00 PM 11.56 52.808 0.031 7.07 2.26 10.51
4/14/2021 6:15:00 PM 11.49 52.682 0.031 7.04 2.28 10.49
4/14/2021 6:30:00 PM 11.44 52.592 0.031 6.96 2.2 10.5
4/14/2021 6:45:00 PM 11.39 52.502 0.031 7.03 2.23 10.48
4/14/2021 7:00:00 PM 11.3 52.34 0.031 6.92 2.23 10.45
4/14/2021 7:15:00 PM 11.2 52.16 0.031 7.03 2.32 10.46
4/14/2021 7:30:00 PM 11.1 51.98 0.031 6.94 2.2 10.42
4/14/2021 7:45:00 PM 11.01 51.818 0.031 6.93 2.24 10.38
4/14/2021 8:00:00 PM 10.92 51.656 0.031 6.93 2.29 10.36
4/14/2021 8:15:00 PM 10.83 51.494 0.031 6.79 2.28 10.39
4/14/2021 8:30:00 PM 10.74 51.332 0.031 6.92 2.3 10.41
4/14/2021 8:45:00 PM 10.66 51.188 0.031 6.85 2.29 10.42
4/14/2021 9:00:00 PM 10.58 51.044 0.031 6.94 2.31 10.42
4/14/2021 9:15:00 PM 10.5 50.9 0.031 6.82 2.34 10.42
4/14/2021 9:30:00 PM 10.42 50.756 0.031 6.84 2.32 10.44
4/14/2021 9:45:00 PM 10.33 50.594 0.031 6.93 2.71 10.48
4/14/2021 10:00:00 PM 10.24 50.432 0.031 6.86 2.37 10.51
4/14/2021 10:15:00 PM 10.16 50.288 0.031 6.92 2.51 10.55
4/14/2021 10:30:00 PM 10.07 50.126 0.031 6.93 2.35 10.54
4/14/2021 10:45:00 PM 9.99 49.982 0.031 6.76 2.27 10.53
4/14/2021 11:00:00 PM 9.93 49.874 0.031 6.85 2.6 10.56
4/14/2021 11:15:00 PM 9.87 49.766 0.031 6.86 2.31 10.6
4/14/2021 11:30:00 PM 9.81 49.658 0.031 6.8 2.34 10.63
4/14/2021 11:45:00 PM 9.75 49.55 0.031 6.94 2.26 10.67
4/15/2021 12:00:00 AM 9.68 49.424 0.032 6.86 2.34 10.66
4/15/2021 12:15:00 AM 9.63 49.334 0.031 6.85 2.38 10.67
4/15/2021 12:30:00 AM 9.59 49.262 0.032 6.89 2.3 10.67
4/15/2021 12:45:00 AM 9.54 49.172 0.031 6.78 2.4 10.67
4/15/2021 1:00:00 AM 9.5 49.1 0.032 6.89 2.51 10.67
4/15/2021 1:15:00 AM 9.45 49.01 0.031 6.94 2.44 10.69
4/15/2021 1:30:00 AM 9.4 48.92 0.032 6.88 2.3 10.72
4/15/2021 1:45:00 AM 9.36 48.848 0.031 6.81 2.31 10.75
4/15/2021 2:00:00 AM 9.31 48.758 0.031 6.81 2.2 10.77
4/15/2021 2:15:00 AM 9.26 48.668 0.031 6.91 2.29 10.8
4/15/2021 2:30:00 AM 9.2 48.56 0.031 6.78 2.27 10.79
4/15/2021 2:45:00 AM 9.15 48.47 0.031 6.92 2.28 10.8
4/15/2021 3:00:00 AM 9.11 48.398 0.032 6.91 2.29 10.79
4/15/2021 3:15:00 AM 9.07 48.326 0.031 6.81 2.41 10.79
4/15/2021 3:30:00 AM 9.03 48.254 0.031 6.83 2.38 10.79
4/15/2021 3:45:00 AM 8.99 48.182 0.031 6.89 2.28 10.79
4/15/2021 4:00:00 AM 8.95 48.11 0.031 6.82 2.33 10.82
4/15/2021 4:15:00 AM 8.91 48.038 0.031 6.88 2.34 10.84
4/15/2021 4:30:00 AM 8.87 47.966 0.032 6.79 2.29 10.86
4/15/2021 4:45:00 AM 8.84 47.912 0.031 6.91 2.37 10.88
4/15/2021 5:00:00 AM 8.79 47.822 0.031 6.74 2.41 10.89
4/15/2021 5:15:00 AM 8.75 47.75 0.031 6.83 2.42 10.91
4/15/2021 5:30:00 AM 8.71 47.678 0.031 6.92 2.31 10.91
4/15/2021 5:45:00 AM 8.69 47.642 0.031 6.73 2.35 10.91
4/15/2021 6:00:00 AM 8.66 47.588 0.031 6.87 2.41 10.9
4/15/2021 6:15:00 AM 8.63 47.534 0.031 6.91 2.39 10.92
4/15/2021 6:30:00 AM 8.61 47.498 0.031 6.88 2.21 10.91
4/15/2021 6:45:00 AM 8.58 47.444 0.031 6.86 4.11 10.92
4/15/2021 7:00:00 AM 8.55 47.39 0.031 6.75 2.27 10.92
4/15/2021 7:15:00 AM 8.53 47.354 0.031 6.92 2.32 10.95
4/15/2021 7:30:00 AM 8.5 47.3 0.031 6.75 2.2 10.98
4/15/2021 7:45:00 AM 8.48 47.264 0.031 6.94 2.18 11.01
4/15/2021 8:00:00 AM 8.46 47.228 0.031 6.94 2.33 11.04
4/15/2021 8:15:00 AM 8.44 47.192 0.031 6.95 2.28 11.05
4/15/2021 8:30:00 AM 8.42 47.156 0.031 6.91 2.19 11.09
4/15/2021 8:45:00 AM 8.4 47.12 0.031 6.79 2.18 11.13
4/15/2021 9:00:00 AM 8.37 47.066 0.031 6.87 2.14 11.15
4/15/2021 9:15:00 AM 8.36 47.048 0.031 6.95 2.24 11.17
4/15/2021 9:30:00 AM 8.35 47.03 0.031 6.96 2.35 11.22
4/15/2021 9:45:00 AM 8.34 47.012 0.031 7 2.16 11.25
4/15/2021 10:00:00 AM 8.36 47.048 0.031 6.82 2.25 11.3
4/15/2021 10:15:00 AM 8.43 47.174 0.031 7.02 2.11 11.33
4/15/2021 10:30:00 AM 8.48 47.264 0.031 6.95 7.23 11.34
4/15/2021 10:45:00 AM 8.56 47.408 0.031 7.02 2.17 11.33
4/15/2021 11:00:00 AM 8.65 47.57 0.031 6.89 2.11 11.31
4/15/2021 11:15:00 AM 8.66 47.588 0.031 7 2.22 11.29
4/15/2021 11:30:00 AM 8.64 47.552 0.031 7.06 2.21 11.28
4/15/2021 11:45:00 AM 8.73 47.714 0.032 7.66 4.36 11.45
4/15/2021 12:00:00 PM 8.63 47.534 0.032 6.72 3.41 11.47
4/15/2021 12:15:00 PM 8.59 47.462 0.032 6.67 1.69 11.46
4/15/2021 12:30:00 PM 8.58 47.444 0.032 6.67 1.6 11.49
4/15/2021 12:45:00 PM 8.62 47.516 0.032 6.67 1.66 11.51
4/15/2021 1:00:00 PM 8.63 47.534 0.032 6.68 1.59 11.53
4/15/2021 1:15:00 PM 8.6 47.48 0.032 6.66 1.65 11.52
4/15/2021 1:30:00 PM 8.6 47.48 0.032 6.65 1.6 11.54
4/15/2021 1:45:00 PM 8.58 47.444 0.032 6.64 1.73 11.51
4/15/2021 2:00:00 PM 8.54 47.372 0.032 6.65 1.72 11.49
4/15/2021 2:15:00 PM 8.52 47.336 0.032 6.67 1.58 11.5
4/15/2021 2:30:00 PM 8.51 47.318 0.032 6.66 1.62 11.5
4/15/2021 2:45:00 PM 8.49 47.282 0.032 6.67 1.74 11.51
4/15/2021 3:00:00 PM 8.46 47.228 0.032 6.65 1.63 11.5
4/15/2021 3:15:00 PM 8.44 47.192 0.032 6.68 1.88 11.54
4/15/2021 3:30:00 PM 8.5 47.3 0.031 6.66 1.68 11.58
4/15/2021 3:45:00 PM 8.55 47.39 0.031 6.67 1.7 11.59
4/15/2021 4:00:00 PM 8.54 47.372 0.032 6.67 1.72 11.58
4/15/2021 4:15:00 PM 8.61 47.498 0.031 6.7 1.57 11.6
4/15/2021 4:30:00 PM 8.63 47.534 0.031 6.7 1.62 11.58
4/15/2021 4:45:00 PM 8.66 47.588 0.031 6.68 1.71 11.57
4/15/2021 5:00:00 PM 8.64 47.552 0.031 6.69 1.67 11.56
4/15/2021 5:15:00 PM 8.65 47.57 0.031 6.68 1.59 11.56
4/15/2021 5:30:00 PM 8.67 47.606 0.031 6.67 1.56 11.55
4/15/2021 5:45:00 PM 8.64 47.552 0.031 6.68 1.63 11.54
4/15/2021 6:00:00 PM 8.61 47.498 0.031 6.68 1.6 11.53
4/15/2021 6:15:00 PM 8.58 47.444 0.031 6.66 1.57 11.51
4/15/2021 6:30:00 PM 8.54 47.372 0.031 6.65 1.57 11.51
4/15/2021 6:45:00 PM 8.5 47.3 0.032 6.67 1.6 11.5
4/15/2021 7:00:00 PM 8.42 47.156 0.032 6.64 1.55 11.5
4/15/2021 7:15:00 PM 8.33 46.994 0.032 6.64 1.64 11.47
4/15/2021 7:30:00 PM 8.25 46.85 0.032 6.62 1.67 11.44
4/15/2021 7:45:00 PM 8.18 46.724 0.032 6.6 1.69 11.43
4/15/2021 8:00:00 PM 8.11 46.598 0.032 6.59 1.58 11.4
4/15/2021 8:15:00 PM 8.06 46.508 0.032 6.59 1.62 11.4
4/15/2021 8:30:00 PM 8.03 46.454 0.032 6.57 1.7 11.39
4/15/2021 8:45:00 PM 7.99 46.382 0.032 6.56 1.7 11.39
4/15/2021 9:00:00 PM 7.95 46.31 0.032 6.54 1.74 11.41
4/15/2021 9:15:00 PM 7.91 46.238 0.032 6.53 1.73 11.42
4/15/2021 9:30:00 PM 7.87 46.166 0.032 6.56 1.69 11.45
4/15/2021 9:45:00 PM 7.84 46.112 0.032 6.54 1.75 11.44
4/15/2021 10:00:00 PM 7.81 46.058 0.032 6.54 1.74 11.44
4/15/2021 10:15:00 PM 7.77 45.986 0.032 6.55 1.65 11.46
4/15/2021 10:30:00 PM 7.73 45.914 0.032 6.54 1.78 11.48
4/15/2021 10:45:00 PM 7.69 45.842 0.032 6.55 1.71 11.48
4/15/2021 11:00:00 PM 7.66 45.788 0.032 6.54 1.65 11.48
4/15/2021 11:15:00 PM 7.62 45.716 0.032 6.55 1.83 11.51
4/15/2021 11:30:00 PM 7.59 45.662 0.032 6.55 1.71 11.5
4/15/2021 11:45:00 PM 7.56 45.608 0.032 6.55 1.75 11.52
4/16/2021 12:00:00 AM 7.53 45.554 0.032 6.54 1.8 11.52
4/16/2021 12:15:00 AM 7.5 45.5 0.032 6.54 1.78 11.53
4/16/2021 12:30:00 AM 7.48 45.464 0.032 6.57 1.72 11.54
4/16/2021 12:45:00 AM 7.46 45.428 0.032 6.54 1.74 11.54
4/16/2021 1:00:00 AM 7.44 45.392 0.032 6.54 1.74 11.54
4/16/2021 1:15:00 AM 7.41 45.338 0.032 6.55 1.73 11.56
4/16/2021 1:30:00 AM 7.38 45.284 0.032 6.54 1.75 11.57
4/16/2021 1:45:00 AM 7.36 45.248 0.032 6.55 1.76 11.57
4/16/2021 2:00:00 AM 7.34 45.212 0.032 6.54 1.77 11.58
4/16/2021 2:15:00 AM 7.31 45.158 0.032 6.54 1.68 11.58
4/16/2021 2:30:00 AM 7.28 45.104 0.032 6.56 1.88 11.59
4/16/2021 2:45:00 AM 7.24 45.032 0.032 6.55 1.79 11.6
4/16/2021 3:00:00 AM 7.23 45.014 0.032 6.56 1.98 11.6
4/16/2021 3:15:00 AM 7.21 44.978 0.032 6.55 1.67 11.61
4/16/2021 3:30:00 AM 7.18 44.924 0.032 6.55 1.79 11.61
4/16/2021 3:45:00 AM 7.15 44.87 0.032 6.54 1.72 11.61
4/16/2021 4:00:00 AM 7.14 44.852 0.032 6.55 1.77 11.62
4/16/2021 4:15:00 AM 7.12 44.816 0.032 6.54 1.7 11.62
4/16/2021 4:30:00 AM 7.1 44.78 0.032 6.54 1.64 11.64
4/16/2021 4:45:00 AM 7.09 44.762 0.032 6.54 1.77 11.65
4/16/2021 5:00:00 AM 7.07 44.726 0.032 6.52 1.77 11.64
4/16/2021 5:15:00 AM 7.05 44.69 0.032 6.54 2.14 11.65
4/16/2021 5:30:00 AM 7.03 44.654 0.032 6.54 1.69 11.66
4/16/2021 5:45:00 AM 7.02 44.636 0.032 6.53 1.79 11.66
4/16/2021 6:00:00 AM 7.01 44.618 0.032 6.55 1.7 11.67
4/16/2021 6:15:00 AM 7 44.6 0.032 6.55 1.66 11.67
4/16/2021 6:30:00 AM 6.98 44.564 0.032 6.56 1.87 11.67
4/16/2021 6:45:00 AM 6.98 44.564 0.032 6.56 1.8 11.69
4/16/2021 7:00:00 AM 6.97 44.546 0.032 6.56 1.66 11.71
4/16/2021 7:15:00 AM 6.96 44.528 0.032 6.57 1.78 11.73
4/16/2021 7:30:00 AM 6.97 44.546 0.032 6.59 1.74 11.77
4/16/2021 7:45:00 AM 6.98 44.564 0.032 6.59 1.64 11.79
4/16/2021 8:00:00 AM 6.98 44.564 0.032 6.6 1.66 11.82
4/16/2021 8:15:00 AM 6.99 44.582 0.032 6.61 1.67 11.84
4/16/2021 8:30:00 AM 7 44.6 0.032 6.6 1.6 11.84
4/16/2021 8:45:00 AM 7.01 44.618 0.032 6.63 1.6 11.87
4/16/2021 9:00:00 AM 7.03 44.654 0.032 6.63 1.6 11.89
4/16/2021 9:15:00 AM 7.05 44.69 0.031 6.65 1.64 11.91
4/16/2021 9:30:00 AM 7.08 44.744 0.032 6.65 1.66 11.92